<?xml version="1.0" encoding="UTF-8" standalone="no" ?>
<gpx xmlns="http://www.topografix.com/GPX/1/1" xmlns:xsi="http://www.w3.org/2001/XMLSchema-instance" xsi:schemaLocation="http://www.topografix.com/GPX/1/1 http://www.topografix.com/GPX/1/1/gpx.xsd" version="1.1" creator="VisuGPX - https://www.visugpx.com">
  <metadata>
    <name>nizas le causse 14 kms 150 den</name>
    <desc><![CDATA[rando sympa sans difficulté majeure si on suit la trace il n'y a pas de topo.]]></desc>
  </metadata>
  <trk>
    <name><![CDATA[nizas 2023-01-12 08:51]]></name>
    <extensions>
      <line xmlns="http://www.topografix.com/GPX/gpx_style/0/2">
        <color>0000FF</color>
        <opacity>0.59</opacity>
        <width>6</width>
      </line>
    </extensions>
    <trkseg>
      <trkpt lat="43.51368" lon="3.40652">
        <ele>67.6</ele>
        <time>2023-01-12T07:51:45.899Z</time>
      </trkpt>
      <trkpt lat="43.51369" lon="3.40652">
        <ele>67.7</ele>
        <time>2023-01-12T07:51:57.900Z</time>
      </trkpt>
      <trkpt lat="43.51377" lon="3.4066">
        <ele>67.7</ele>
        <time>2023-01-12T07:52:07.185Z</time>
      </trkpt>
      <trkpt lat="43.51385" lon="3.40657">
        <ele>67.9</ele>
        <time>2023-01-12T07:52:16.534Z</time>
      </trkpt>
      <trkpt lat="43.51391" lon="3.40646">
        <ele>68</ele>
        <time>2023-01-12T07:52:25.894Z</time>
      </trkpt>
      <trkpt lat="43.51395" lon="3.40644">
        <ele>68</ele>
        <time>2023-01-12T07:52:35.793Z</time>
      </trkpt>
      <trkpt lat="43.51399" lon="3.40639">
        <ele>68</ele>
        <time>2023-01-12T07:52:45.144Z</time>
      </trkpt>
      <trkpt lat="43.51401" lon="3.40627">
        <ele>68</ele>
        <time>2023-01-12T07:52:54.492Z</time>
      </trkpt>
      <trkpt lat="43.51407" lon="3.40618">
        <ele>68</ele>
        <time>2023-01-12T07:53:03.842Z</time>
      </trkpt>
      <trkpt lat="43.51412" lon="3.40605">
        <ele>68.2</ele>
        <time>2023-01-12T07:53:13.191Z</time>
      </trkpt>
      <trkpt lat="43.51419" lon="3.40592">
        <ele>68.8</ele>
        <time>2023-01-12T07:53:22.541Z</time>
      </trkpt>
      <trkpt lat="43.51417" lon="3.40579">
        <ele>69.2</ele>
        <time>2023-01-12T07:53:31.889Z</time>
      </trkpt>
      <trkpt lat="43.51414" lon="3.40577">
        <ele>69.1</ele>
        <time>2023-01-12T07:53:41.770Z</time>
      </trkpt>
      <trkpt lat="43.51413" lon="3.40564">
        <ele>69.6</ele>
        <time>2023-01-12T07:53:51.138Z</time>
      </trkpt>
      <trkpt lat="43.51412" lon="3.40552">
        <ele>69.8</ele>
        <time>2023-01-12T07:54:00.487Z</time>
      </trkpt>
      <trkpt lat="43.51405" lon="3.40548">
        <ele>69.6</ele>
        <time>2023-01-12T07:54:09.726Z</time>
      </trkpt>
      <trkpt lat="43.51394" lon="3.40542">
        <ele>69.2</ele>
        <time>2023-01-12T07:54:19.075Z</time>
      </trkpt>
      <trkpt lat="43.51387" lon="3.40532">
        <ele>68.9</ele>
        <time>2023-01-12T07:54:28.973Z</time>
      </trkpt>
      <trkpt lat="43.51389" lon="3.40531">
        <ele>69</ele>
        <time>2023-01-12T07:54:38.323Z</time>
      </trkpt>
      <trkpt lat="43.5139" lon="3.4053">
        <ele>69</ele>
        <time>2023-01-12T07:54:58.669Z</time>
      </trkpt>
      <trkpt lat="43.51397" lon="3.40522">
        <ele>69.3</ele>
        <time>2023-01-12T07:55:08.018Z</time>
      </trkpt>
      <trkpt lat="43.51401" lon="3.40517">
        <ele>69.4</ele>
        <time>2023-01-12T07:55:17.333Z</time>
      </trkpt>
      <trkpt lat="43.51409" lon="3.40504">
        <ele>69.7</ele>
        <time>2023-01-12T07:55:26.835Z</time>
      </trkpt>
      <trkpt lat="43.51409" lon="3.40499">
        <ele>69.7</ele>
        <time>2023-01-12T07:55:36.733Z</time>
      </trkpt>
      <trkpt lat="43.51409" lon="3.40501">
        <ele>69.7</ele>
        <time>2023-01-12T07:55:46.631Z</time>
      </trkpt>
      <trkpt lat="43.51411" lon="3.40501">
        <ele>69.8</ele>
        <time>2023-01-12T07:55:55.977Z</time>
      </trkpt>
      <trkpt lat="43.51421" lon="3.4049">
        <ele>70.2</ele>
        <time>2023-01-12T07:56:05.325Z</time>
      </trkpt>
      <trkpt lat="43.51428" lon="3.40479">
        <ele>70.7</ele>
        <time>2023-01-12T07:56:14.693Z</time>
      </trkpt>
      <trkpt lat="43.51434" lon="3.40466">
        <ele>71.4</ele>
        <time>2023-01-12T07:56:24.039Z</time>
      </trkpt>
      <trkpt lat="43.51439" lon="3.40448">
        <ele>71.8</ele>
        <time>2023-01-12T07:56:33.396Z</time>
      </trkpt>
      <trkpt lat="43.51446" lon="3.40439">
        <ele>72.1</ele>
        <time>2023-01-12T07:56:42.753Z</time>
      </trkpt>
      <trkpt lat="43.51446" lon="3.40436">
        <ele>72.2</ele>
        <time>2023-01-12T07:56:51.992Z</time>
      </trkpt>
      <trkpt lat="43.51454" lon="3.40431">
        <ele>72.9</ele>
        <time>2023-01-12T07:57:01.888Z</time>
      </trkpt>
      <trkpt lat="43.51462" lon="3.4042">
        <ele>73.3</ele>
        <time>2023-01-12T07:57:11.237Z</time>
      </trkpt>
      <trkpt lat="43.51465" lon="3.40411">
        <ele>73.1</ele>
        <time>2023-01-12T07:57:20.586Z</time>
      </trkpt>
      <trkpt lat="43.51473" lon="3.40397">
        <ele>72.2</ele>
        <time>2023-01-12T07:57:29.933Z</time>
      </trkpt>
      <trkpt lat="43.51474" lon="3.40392">
        <ele>71.8</ele>
        <time>2023-01-12T07:57:39.282Z</time>
      </trkpt>
      <trkpt lat="43.51474" lon="3.40391">
        <ele>71.7</ele>
        <time>2023-01-12T07:57:58.528Z</time>
      </trkpt>
      <trkpt lat="43.51478" lon="3.40384">
        <ele>73.2</ele>
        <time>2023-01-12T07:58:07.876Z</time>
      </trkpt>
      <trkpt lat="43.5149" lon="3.40377">
        <ele>76.6</ele>
        <time>2023-01-12T07:58:17.224Z</time>
      </trkpt>
      <trkpt lat="43.51496" lon="3.40373">
        <ele>78</ele>
        <time>2023-01-12T07:58:26.573Z</time>
      </trkpt>
      <trkpt lat="43.515" lon="3.4037">
        <ele>78.6</ele>
        <time>2023-01-12T07:58:35.920Z</time>
      </trkpt>
      <trkpt lat="43.51503" lon="3.40353">
        <ele>78.7</ele>
        <time>2023-01-12T07:58:45.277Z</time>
      </trkpt>
      <trkpt lat="43.51504" lon="3.40349">
        <ele>78.9</ele>
        <time>2023-01-12T07:58:54.900Z</time>
      </trkpt>
      <trkpt lat="43.51509" lon="3.40341">
        <ele>80.1</ele>
        <time>2023-01-12T07:59:03.973Z</time>
      </trkpt>
      <trkpt lat="43.51513" lon="3.40334">
        <ele>81.3</ele>
        <time>2023-01-12T07:59:13.869Z</time>
      </trkpt>
      <trkpt lat="43.51514" lon="3.40325">
        <ele>81.5</ele>
        <time>2023-01-12T07:59:23.765Z</time>
      </trkpt>
      <trkpt lat="43.51516" lon="3.4032">
        <ele>82</ele>
        <time>2023-01-12T07:59:33.123Z</time>
      </trkpt>
      <trkpt lat="43.51524" lon="3.40312">
        <ele>82.9</ele>
        <time>2023-01-12T07:59:42.469Z</time>
      </trkpt>
      <trkpt lat="43.51531" lon="3.40303">
        <ele>83.5</ele>
        <time>2023-01-12T07:59:51.788Z</time>
      </trkpt>
      <trkpt lat="43.51536" lon="3.40296">
        <ele>84.3</ele>
        <time>2023-01-12T08:00:01.172Z</time>
      </trkpt>
      <trkpt lat="43.51541" lon="3.40286">
        <ele>85.2</ele>
        <time>2023-01-12T08:00:10.510Z</time>
      </trkpt>
      <trkpt lat="43.51548" lon="3.40277">
        <ele>86.7</ele>
        <time>2023-01-12T08:00:19.866Z</time>
      </trkpt>
      <trkpt lat="43.51552" lon="3.40268">
        <ele>87.2</ele>
        <time>2023-01-12T08:00:29.103Z</time>
      </trkpt>
      <trkpt lat="43.51553" lon="3.40261">
        <ele>87.2</ele>
        <time>2023-01-12T08:00:38.451Z</time>
      </trkpt>
      <trkpt lat="43.5156" lon="3.4025">
        <ele>87.7</ele>
        <time>2023-01-12T08:00:47.798Z</time>
      </trkpt>
      <trkpt lat="43.51567" lon="3.40243">
        <ele>88.8</ele>
        <time>2023-01-12T08:00:57.696Z</time>
      </trkpt>
      <trkpt lat="43.51573" lon="3.40235">
        <ele>89.8</ele>
        <time>2023-01-12T08:01:07.045Z</time>
      </trkpt>
      <trkpt lat="43.51577" lon="3.40221">
        <ele>90.9</ele>
        <time>2023-01-12T08:01:16.392Z</time>
      </trkpt>
      <trkpt lat="43.51578" lon="3.40209">
        <ele>91.1</ele>
        <time>2023-01-12T08:01:25.849Z</time>
      </trkpt>
      <trkpt lat="43.51582" lon="3.40202">
        <ele>91.8</ele>
        <time>2023-01-12T08:01:35.746Z</time>
      </trkpt>
      <trkpt lat="43.51585" lon="3.40198">
        <ele>92.4</ele>
        <time>2023-01-12T08:01:45.641Z</time>
      </trkpt>
      <trkpt lat="43.51591" lon="3.40196">
        <ele>93.4</ele>
        <time>2023-01-12T08:01:54.989Z</time>
      </trkpt>
      <trkpt lat="43.51598" lon="3.40191">
        <ele>94.6</ele>
        <time>2023-01-12T08:02:04.886Z</time>
      </trkpt>
      <trkpt lat="43.51598" lon="3.40187">
        <ele>94.8</ele>
        <time>2023-01-12T08:02:14.791Z</time>
      </trkpt>
      <trkpt lat="43.516" lon="3.40183">
        <ele>95.2</ele>
        <time>2023-01-12T08:02:24.688Z</time>
      </trkpt>
      <trkpt lat="43.51604" lon="3.40181">
        <ele>95.8</ele>
        <time>2023-01-12T08:02:34.035Z</time>
      </trkpt>
      <trkpt lat="43.51612" lon="3.40173">
        <ele>97.1</ele>
        <time>2023-01-12T08:02:43.392Z</time>
      </trkpt>
      <trkpt lat="43.51619" lon="3.40167">
        <ele>97.9</ele>
        <time>2023-01-12T08:02:52.747Z</time>
      </trkpt>
      <trkpt lat="43.51625" lon="3.40161">
        <ele>98.5</ele>
        <time>2023-01-12T08:03:02.094Z</time>
      </trkpt>
      <trkpt lat="43.51629" lon="3.40155">
        <ele>98.9</ele>
        <time>2023-01-12T08:03:11.441Z</time>
      </trkpt>
      <trkpt lat="43.51632" lon="3.4015">
        <ele>99.3</ele>
        <time>2023-01-12T08:03:20.797Z</time>
      </trkpt>
      <trkpt lat="43.51633" lon="3.4015">
        <ele>99.4</ele>
        <time>2023-01-12T08:03:30.689Z</time>
      </trkpt>
      <trkpt lat="43.51635" lon="3.40148">
        <ele>99.5</ele>
        <time>2023-01-12T08:03:40.586Z</time>
      </trkpt>
      <trkpt lat="43.51644" lon="3.40138">
        <ele>100.3</ele>
        <time>2023-01-12T08:03:49.933Z</time>
      </trkpt>
      <trkpt lat="43.51651" lon="3.40131">
        <ele>100.7</ele>
        <time>2023-01-12T08:03:59.788Z</time>
      </trkpt>
      <trkpt lat="43.51657" lon="3.40126">
        <ele>101</ele>
        <time>2023-01-12T08:04:09.150Z</time>
      </trkpt>
      <trkpt lat="43.51665" lon="3.4012">
        <ele>101.3</ele>
        <time>2023-01-12T08:04:18.525Z</time>
      </trkpt>
      <trkpt lat="43.51672" lon="3.40113">
        <ele>101.2</ele>
        <time>2023-01-12T08:04:27.874Z</time>
      </trkpt>
      <trkpt lat="43.51681" lon="3.40105">
        <ele>101.4</ele>
        <time>2023-01-12T08:04:37.222Z</time>
      </trkpt>
      <trkpt lat="43.5169" lon="3.40099">
        <ele>101.8</ele>
        <time>2023-01-12T08:04:46.569Z</time>
      </trkpt>
      <trkpt lat="43.51698" lon="3.40095">
        <ele>102.1</ele>
        <time>2023-01-12T08:04:55.917Z</time>
      </trkpt>
      <trkpt lat="43.51709" lon="3.40087">
        <ele>102.5</ele>
        <time>2023-01-12T08:05:05.816Z</time>
      </trkpt>
      <trkpt lat="43.51718" lon="3.40082">
        <ele>102.8</ele>
        <time>2023-01-12T08:05:15.163Z</time>
      </trkpt>
      <trkpt lat="43.51725" lon="3.4008">
        <ele>103.1</ele>
        <time>2023-01-12T08:05:24.511Z</time>
      </trkpt>
      <trkpt lat="43.5173" lon="3.40078">
        <ele>103.3</ele>
        <time>2023-01-12T08:05:33.830Z</time>
      </trkpt>
      <trkpt lat="43.51736" lon="3.40074">
        <ele>103.5</ele>
        <time>2023-01-12T08:05:43.647Z</time>
      </trkpt>
      <trkpt lat="43.51746" lon="3.40072">
        <ele>103.8</ele>
        <time>2023-01-12T08:05:52.995Z</time>
      </trkpt>
      <trkpt lat="43.51753" lon="3.40068">
        <ele>104.1</ele>
        <time>2023-01-12T08:06:02.333Z</time>
      </trkpt>
      <trkpt lat="43.5176" lon="3.40068">
        <ele>104.2</ele>
        <time>2023-01-12T08:06:11.690Z</time>
      </trkpt>
      <trkpt lat="43.51771" lon="3.40066">
        <ele>104.5</ele>
        <time>2023-01-12T08:06:20.991Z</time>
      </trkpt>
      <trkpt lat="43.51783" lon="3.40065">
        <ele>104.7</ele>
        <time>2023-01-12T08:06:30.387Z</time>
      </trkpt>
      <trkpt lat="43.51791" lon="3.40063">
        <ele>104.9</ele>
        <time>2023-01-12T08:06:39.734Z</time>
      </trkpt>
      <trkpt lat="43.51799" lon="3.4006">
        <ele>105</ele>
        <time>2023-01-12T08:06:49.083Z</time>
      </trkpt>
      <trkpt lat="43.51809" lon="3.40059">
        <ele>105.1</ele>
        <time>2023-01-12T08:06:58.431Z</time>
      </trkpt>
      <trkpt lat="43.51815" lon="3.40051">
        <ele>105.5</ele>
        <time>2023-01-12T08:07:07.779Z</time>
      </trkpt>
      <trkpt lat="43.51818" lon="3.4005">
        <ele>105.6</ele>
        <time>2023-01-12T08:07:17.678Z</time>
      </trkpt>
      <trkpt lat="43.51817" lon="3.40051">
        <ele>105.5</ele>
        <time>2023-01-12T08:07:35.713Z</time>
      </trkpt>
      <trkpt lat="43.51818" lon="3.4005">
        <ele>105.6</ele>
        <time>2023-01-12T08:08:05.407Z</time>
      </trkpt>
      <trkpt lat="43.51822" lon="3.40048">
        <ele>105.7</ele>
        <time>2023-01-12T08:08:14.755Z</time>
      </trkpt>
      <trkpt lat="43.51823" lon="3.40049">
        <ele>105.7</ele>
        <time>2023-01-12T08:08:24.653Z</time>
      </trkpt>
      <trkpt lat="43.51825" lon="3.40049">
        <ele>105.8</ele>
        <time>2023-01-12T08:08:34.000Z</time>
      </trkpt>
      <trkpt lat="43.51833" lon="3.40045">
        <ele>106</ele>
        <time>2023-01-12T08:08:43.334Z</time>
      </trkpt>
      <trkpt lat="43.51843" lon="3.40036">
        <ele>106</ele>
        <time>2023-01-12T08:08:52.697Z</time>
      </trkpt>
      <trkpt lat="43.51854" lon="3.4003">
        <ele>106</ele>
        <time>2023-01-12T08:09:02.044Z</time>
      </trkpt>
      <trkpt lat="43.51856" lon="3.40028">
        <ele>106</ele>
        <time>2023-01-12T08:09:11.393Z</time>
      </trkpt>
      <trkpt lat="43.51866" lon="3.40022">
        <ele>106</ele>
        <time>2023-01-12T08:09:20.740Z</time>
      </trkpt>
      <trkpt lat="43.51877" lon="3.40016">
        <ele>106</ele>
        <time>2023-01-12T08:09:30.088Z</time>
      </trkpt>
      <trkpt lat="43.51886" lon="3.40012">
        <ele>106</ele>
        <time>2023-01-12T08:09:39.436Z</time>
      </trkpt>
      <trkpt lat="43.51897" lon="3.40006">
        <ele>106</ele>
        <time>2023-01-12T08:09:48.785Z</time>
      </trkpt>
      <trkpt lat="43.51908" lon="3.39999">
        <ele>106</ele>
        <time>2023-01-12T08:09:58.134Z</time>
      </trkpt>
      <trkpt lat="43.51918" lon="3.39995">
        <ele>106</ele>
        <time>2023-01-12T08:10:07.482Z</time>
      </trkpt>
      <trkpt lat="43.51924" lon="3.39993">
        <ele>106</ele>
        <time>2023-01-12T08:10:16.829Z</time>
      </trkpt>
      <trkpt lat="43.51934" lon="3.39988">
        <ele>106</ele>
        <time>2023-01-12T08:10:26.130Z</time>
      </trkpt>
      <trkpt lat="43.51947" lon="3.3998">
        <ele>105.9</ele>
        <time>2023-01-12T08:10:35.526Z</time>
      </trkpt>
      <trkpt lat="43.51956" lon="3.39974">
        <ele>105.6</ele>
        <time>2023-01-12T08:10:44.874Z</time>
      </trkpt>
      <trkpt lat="43.51965" lon="3.3997">
        <ele>105.3</ele>
        <time>2023-01-12T08:10:54.111Z</time>
      </trkpt>
      <trkpt lat="43.51974" lon="3.39964">
        <ele>105.3</ele>
        <time>2023-01-12T08:11:03.459Z</time>
      </trkpt>
      <trkpt lat="43.51989" lon="3.3996">
        <ele>105.2</ele>
        <time>2023-01-12T08:11:12.808Z</time>
      </trkpt>
      <trkpt lat="43.51998" lon="3.39957">
        <ele>105</ele>
        <time>2023-01-12T08:11:22.156Z</time>
      </trkpt>
      <trkpt lat="43.52009" lon="3.39949">
        <ele>104.7</ele>
        <time>2023-01-12T08:11:31.944Z</time>
      </trkpt>
      <trkpt lat="43.52013" lon="3.39946">
        <ele>104.5</ele>
        <time>2023-01-12T08:11:41.808Z</time>
      </trkpt>
      <trkpt lat="43.52025" lon="3.3994">
        <ele>104.2</ele>
        <time>2023-01-12T08:11:51.190Z</time>
      </trkpt>
      <trkpt lat="43.52032" lon="3.39933">
        <ele>104.4</ele>
        <time>2023-01-12T08:12:00.538Z</time>
      </trkpt>
      <trkpt lat="43.52037" lon="3.39932">
        <ele>104.3</ele>
        <time>2023-01-12T08:12:09.886Z</time>
      </trkpt>
      <trkpt lat="43.52047" lon="3.39928">
        <ele>104.2</ele>
        <time>2023-01-12T08:12:19.234Z</time>
      </trkpt>
      <trkpt lat="43.52056" lon="3.3992">
        <ele>104</ele>
        <time>2023-01-12T08:12:28.582Z</time>
      </trkpt>
      <trkpt lat="43.52068" lon="3.39913">
        <ele>103.6</ele>
        <time>2023-01-12T08:12:37.930Z</time>
      </trkpt>
      <trkpt lat="43.52077" lon="3.39908">
        <ele>103.5</ele>
        <time>2023-01-12T08:12:47.277Z</time>
      </trkpt>
      <trkpt lat="43.52083" lon="3.39901">
        <ele>103.6</ele>
        <time>2023-01-12T08:12:56.625Z</time>
      </trkpt>
      <trkpt lat="43.52095" lon="3.39897">
        <ele>103.7</ele>
        <time>2023-01-12T08:13:05.973Z</time>
      </trkpt>
      <trkpt lat="43.52106" lon="3.39894">
        <ele>103.8</ele>
        <time>2023-01-12T08:13:15.321Z</time>
      </trkpt>
      <trkpt lat="43.52116" lon="3.39894">
        <ele>103.6</ele>
        <time>2023-01-12T08:13:24.670Z</time>
      </trkpt>
      <trkpt lat="43.52126" lon="3.3991">
        <ele>102.7</ele>
        <time>2023-01-12T08:13:33.971Z</time>
      </trkpt>
      <trkpt lat="43.5213" lon="3.3992">
        <ele>102.3</ele>
        <time>2023-01-12T08:13:43.916Z</time>
      </trkpt>
      <trkpt lat="43.52131" lon="3.39922">
        <ele>102.2</ele>
        <time>2023-01-12T08:13:55.430Z</time>
      </trkpt>
      <trkpt lat="43.52141" lon="3.39931">
        <ele>101.9</ele>
        <time>2023-01-12T08:14:04.812Z</time>
      </trkpt>
      <trkpt lat="43.52148" lon="3.39937">
        <ele>101.7</ele>
        <time>2023-01-12T08:14:14.160Z</time>
      </trkpt>
      <trkpt lat="43.52151" lon="3.3994">
        <ele>101.6</ele>
        <time>2023-01-12T08:14:23.958Z</time>
      </trkpt>
      <trkpt lat="43.52153" lon="3.39939">
        <ele>101.5</ele>
        <time>2023-01-12T08:14:33.856Z</time>
      </trkpt>
      <trkpt lat="43.52155" lon="3.39941">
        <ele>101.4</ele>
        <time>2023-01-12T08:14:43.204Z</time>
      </trkpt>
      <trkpt lat="43.52163" lon="3.39951">
        <ele>101.1</ele>
        <time>2023-01-12T08:14:52.552Z</time>
      </trkpt>
      <trkpt lat="43.52168" lon="3.39958">
        <ele>100.9</ele>
        <time>2023-01-12T08:15:01.790Z</time>
      </trkpt>
      <trkpt lat="43.52172" lon="3.39968">
        <ele>100.7</ele>
        <time>2023-01-12T08:15:11.650Z</time>
      </trkpt>
      <trkpt lat="43.52179" lon="3.39977">
        <ele>100.5</ele>
        <time>2023-01-12T08:15:21.037Z</time>
      </trkpt>
      <trkpt lat="43.52188" lon="3.39987">
        <ele>100.1</ele>
        <time>2023-01-12T08:15:30.386Z</time>
      </trkpt>
      <trkpt lat="43.522" lon="3.39999">
        <ele>100.2</ele>
        <time>2023-01-12T08:15:39.734Z</time>
      </trkpt>
      <trkpt lat="43.52203" lon="3.40007">
        <ele>100</ele>
        <time>2023-01-12T08:15:49.081Z</time>
      </trkpt>
      <trkpt lat="43.5221" lon="3.40016">
        <ele>99.7</ele>
        <time>2023-01-12T08:15:58.430Z</time>
      </trkpt>
      <trkpt lat="43.52219" lon="3.40023">
        <ele>99.3</ele>
        <time>2023-01-12T08:16:07.779Z</time>
      </trkpt>
      <trkpt lat="43.5223" lon="3.40031">
        <ele>99.2</ele>
        <time>2023-01-12T08:16:17.126Z</time>
      </trkpt>
      <trkpt lat="43.5224" lon="3.40038">
        <ele>99.3</ele>
        <time>2023-01-12T08:16:26.474Z</time>
      </trkpt>
      <trkpt lat="43.52251" lon="3.40045">
        <ele>99.3</ele>
        <time>2023-01-12T08:16:35.824Z</time>
      </trkpt>
      <trkpt lat="43.5225" lon="3.40043">
        <ele>99.4</ele>
        <time>2023-01-12T08:16:45.171Z</time>
      </trkpt>
      <trkpt lat="43.52256" lon="3.40051">
        <ele>98.7</ele>
        <time>2023-01-12T08:16:54.410Z</time>
      </trkpt>
      <trkpt lat="43.52263" lon="3.40061">
        <ele>98</ele>
        <time>2023-01-12T08:17:03.757Z</time>
      </trkpt>
      <trkpt lat="43.52274" lon="3.40073">
        <ele>97.2</ele>
        <time>2023-01-12T08:17:12.996Z</time>
      </trkpt>
      <trkpt lat="43.52283" lon="3.4008">
        <ele>97.3</ele>
        <time>2023-01-12T08:17:22.333Z</time>
      </trkpt>
      <trkpt lat="43.52289" lon="3.40084">
        <ele>97.9</ele>
        <time>2023-01-12T08:17:31.582Z</time>
      </trkpt>
      <trkpt lat="43.523" lon="3.40095">
        <ele>99</ele>
        <time>2023-01-12T08:17:40.931Z</time>
      </trkpt>
      <trkpt lat="43.52308" lon="3.40104">
        <ele>99.8</ele>
        <time>2023-01-12T08:17:50.279Z</time>
      </trkpt>
      <trkpt lat="43.52316" lon="3.40111">
        <ele>100.4</ele>
        <time>2023-01-12T08:17:59.627Z</time>
      </trkpt>
      <trkpt lat="43.52324" lon="3.40118">
        <ele>100.3</ele>
        <time>2023-01-12T08:18:08.976Z</time>
      </trkpt>
      <trkpt lat="43.52333" lon="3.40119">
        <ele>100.4</ele>
        <time>2023-01-12T08:18:18.325Z</time>
      </trkpt>
      <trkpt lat="43.52342" lon="3.40116">
        <ele>99.8</ele>
        <time>2023-01-12T08:18:27.630Z</time>
      </trkpt>
      <trkpt lat="43.52353" lon="3.40113">
        <ele>98.8</ele>
        <time>2023-01-12T08:18:37.572Z</time>
      </trkpt>
      <trkpt lat="43.52359" lon="3.40111">
        <ele>98.3</ele>
        <time>2023-01-12T08:18:46.920Z</time>
      </trkpt>
      <trkpt lat="43.52369" lon="3.40109">
        <ele>97.4</ele>
        <time>2023-01-12T08:18:56.268Z</time>
      </trkpt>
      <trkpt lat="43.52378" lon="3.40107">
        <ele>96.6</ele>
        <time>2023-01-12T08:19:05.617Z</time>
      </trkpt>
      <trkpt lat="43.5239" lon="3.40103">
        <ele>95.5</ele>
        <time>2023-01-12T08:19:14.966Z</time>
      </trkpt>
      <trkpt lat="43.52393" lon="3.40102">
        <ele>95.3</ele>
        <time>2023-01-12T08:19:24.864Z</time>
      </trkpt>
      <trkpt lat="43.52391" lon="3.40105">
        <ele>95.3</ele>
        <time>2023-01-12T08:19:34.213Z</time>
      </trkpt>
      <trkpt lat="43.52392" lon="3.40115">
        <ele>94.4</ele>
        <time>2023-01-12T08:19:43.562Z</time>
      </trkpt>
      <trkpt lat="43.52395" lon="3.40117">
        <ele>94</ele>
        <time>2023-01-12T08:19:52.911Z</time>
      </trkpt>
      <trkpt lat="43.52397" lon="3.40128">
        <ele>93.1</ele>
        <time>2023-01-12T08:20:02.258Z</time>
      </trkpt>
      <trkpt lat="43.524" lon="3.40139">
        <ele>92.2</ele>
        <time>2023-01-12T08:20:11.608Z</time>
      </trkpt>
      <trkpt lat="43.52401" lon="3.40141">
        <ele>92.1</ele>
        <time>2023-01-12T08:20:20.956Z</time>
      </trkpt>
      <trkpt lat="43.52402" lon="3.40141">
        <ele>92</ele>
        <time>2023-01-12T08:20:34.164Z</time>
      </trkpt>
      <trkpt lat="43.52403" lon="3.40142">
        <ele>91.9</ele>
        <time>2023-01-12T08:20:51.168Z</time>
      </trkpt>
      <trkpt lat="43.52407" lon="3.4016">
        <ele>91</ele>
        <time>2023-01-12T08:21:00.451Z</time>
      </trkpt>
      <trkpt lat="43.52411" lon="3.40175">
        <ele>90.4</ele>
        <time>2023-01-12T08:21:09.800Z</time>
      </trkpt>
      <trkpt lat="43.52414" lon="3.40189">
        <ele>90.2</ele>
        <time>2023-01-12T08:21:19.149Z</time>
      </trkpt>
      <trkpt lat="43.52418" lon="3.40202">
        <ele>89.6</ele>
        <time>2023-01-12T08:21:28.498Z</time>
      </trkpt>
      <trkpt lat="43.52422" lon="3.40216">
        <ele>88.8</ele>
        <time>2023-01-12T08:21:37.846Z</time>
      </trkpt>
      <trkpt lat="43.52428" lon="3.4023">
        <ele>88.2</ele>
        <time>2023-01-12T08:21:47.177Z</time>
      </trkpt>
      <trkpt lat="43.52431" lon="3.40239">
        <ele>88</ele>
        <time>2023-01-12T08:21:56.545Z</time>
      </trkpt>
      <trkpt lat="43.52436" lon="3.40251">
        <ele>87.6</ele>
        <time>2023-01-12T08:22:05.893Z</time>
      </trkpt>
      <trkpt lat="43.52436" lon="3.40249">
        <ele>87.6</ele>
        <time>2023-01-12T08:22:15.792Z</time>
      </trkpt>
      <trkpt lat="43.52437" lon="3.40249">
        <ele>87.6</ele>
        <time>2023-01-12T08:22:33.940Z</time>
      </trkpt>
      <trkpt lat="43.52444" lon="3.4025">
        <ele>87.1</ele>
        <time>2023-01-12T08:22:43.839Z</time>
      </trkpt>
      <trkpt lat="43.52445" lon="3.40249">
        <ele>87</ele>
        <time>2023-01-12T08:22:53.189Z</time>
      </trkpt>
      <trkpt lat="43.52457" lon="3.40247">
        <ele>86.5</ele>
        <time>2023-01-12T08:23:02.536Z</time>
      </trkpt>
      <trkpt lat="43.52466" lon="3.40243">
        <ele>86.2</ele>
        <time>2023-01-12T08:23:11.885Z</time>
      </trkpt>
      <trkpt lat="43.52476" lon="3.4024">
        <ele>85.8</ele>
        <time>2023-01-12T08:23:21.235Z</time>
      </trkpt>
      <trkpt lat="43.52486" lon="3.40237">
        <ele>85.2</ele>
        <time>2023-01-12T08:23:30.584Z</time>
      </trkpt>
      <trkpt lat="43.52487" lon="3.40244">
        <ele>85.1</ele>
        <time>2023-01-12T08:23:39.933Z</time>
      </trkpt>
      <trkpt lat="43.52498" lon="3.40247">
        <ele>84.2</ele>
        <time>2023-01-12T08:23:49.281Z</time>
      </trkpt>
      <trkpt lat="43.52514" lon="3.40242">
        <ele>83.8</ele>
        <time>2023-01-12T08:23:58.630Z</time>
      </trkpt>
      <trkpt lat="43.52523" lon="3.40234">
        <ele>83.7</ele>
        <time>2023-01-12T08:24:07.906Z</time>
      </trkpt>
      <trkpt lat="43.52535" lon="3.4023">
        <ele>83.2</ele>
        <time>2023-01-12T08:24:17.768Z</time>
      </trkpt>
      <trkpt lat="43.52546" lon="3.40225">
        <ele>82.6</ele>
        <time>2023-01-12T08:24:27.126Z</time>
      </trkpt>
      <trkpt lat="43.52547" lon="3.40214">
        <ele>82.8</ele>
        <time>2023-01-12T08:24:36.475Z</time>
      </trkpt>
      <trkpt lat="43.52553" lon="3.40205">
        <ele>82.8</ele>
        <time>2023-01-12T08:24:45.843Z</time>
      </trkpt>
      <trkpt lat="43.52559" lon="3.40203">
        <ele>82.6</ele>
        <time>2023-01-12T08:24:55.174Z</time>
      </trkpt>
      <trkpt lat="43.52568" lon="3.402">
        <ele>82.4</ele>
        <time>2023-01-12T08:25:04.521Z</time>
      </trkpt>
      <trkpt lat="43.52575" lon="3.40192">
        <ele>82.3</ele>
        <time>2023-01-12T08:25:13.871Z</time>
      </trkpt>
      <trkpt lat="43.52582" lon="3.40183">
        <ele>82.1</ele>
        <time>2023-01-12T08:25:23.218Z</time>
      </trkpt>
      <trkpt lat="43.52588" lon="3.40172">
        <ele>81.8</ele>
        <time>2023-01-12T08:25:32.568Z</time>
      </trkpt>
      <trkpt lat="43.52596" lon="3.40164">
        <ele>81.6</ele>
        <time>2023-01-12T08:25:41.916Z</time>
      </trkpt>
      <trkpt lat="43.52605" lon="3.40157">
        <ele>81.3</ele>
        <time>2023-01-12T08:25:51.814Z</time>
      </trkpt>
      <trkpt lat="43.52612" lon="3.40151">
        <ele>80.9</ele>
        <time>2023-01-12T08:26:01.163Z</time>
      </trkpt>
      <trkpt lat="43.52623" lon="3.40148">
        <ele>80.4</ele>
        <time>2023-01-12T08:26:10.507Z</time>
      </trkpt>
      <trkpt lat="43.52631" lon="3.40145">
        <ele>80.1</ele>
        <time>2023-01-12T08:26:19.858Z</time>
      </trkpt>
      <trkpt lat="43.52641" lon="3.40142">
        <ele>79.7</ele>
        <time>2023-01-12T08:26:29.207Z</time>
      </trkpt>
      <trkpt lat="43.52649" lon="3.40139">
        <ele>79.2</ele>
        <time>2023-01-12T08:26:38.556Z</time>
      </trkpt>
      <trkpt lat="43.5266" lon="3.40135">
        <ele>78.6</ele>
        <time>2023-01-12T08:26:47.903Z</time>
      </trkpt>
      <trkpt lat="43.52664" lon="3.40151">
        <ele>77.8</ele>
        <time>2023-01-12T08:26:57.251Z</time>
      </trkpt>
      <trkpt lat="43.52667" lon="3.40165">
        <ele>77</ele>
        <time>2023-01-12T08:27:06.491Z</time>
      </trkpt>
      <trkpt lat="43.52675" lon="3.40166">
        <ele>76.4</ele>
        <time>2023-01-12T08:27:15.839Z</time>
      </trkpt>
      <trkpt lat="43.52673" lon="3.40165">
        <ele>76.6</ele>
        <time>2023-01-12T08:27:25.187Z</time>
      </trkpt>
      <trkpt lat="43.52682" lon="3.4016">
        <ele>76.1</ele>
        <time>2023-01-12T08:27:34.534Z</time>
      </trkpt>
      <trkpt lat="43.52693" lon="3.40156">
        <ele>75.5</ele>
        <time>2023-01-12T08:27:43.883Z</time>
      </trkpt>
      <trkpt lat="43.52702" lon="3.40148">
        <ele>75.1</ele>
        <time>2023-01-12T08:27:53.232Z</time>
      </trkpt>
      <trkpt lat="43.52715" lon="3.40143">
        <ele>74.4</ele>
        <time>2023-01-12T08:28:02.579Z</time>
      </trkpt>
      <trkpt lat="43.52724" lon="3.40137">
        <ele>73.9</ele>
        <time>2023-01-12T08:28:11.928Z</time>
      </trkpt>
      <trkpt lat="43.52729" lon="3.40126">
        <ele>73.7</ele>
        <time>2023-01-12T08:28:21.277Z</time>
      </trkpt>
      <trkpt lat="43.52734" lon="3.40112">
        <ele>73.3</ele>
        <time>2023-01-12T08:28:30.625Z</time>
      </trkpt>
      <trkpt lat="43.52741" lon="3.40099">
        <ele>72.2</ele>
        <time>2023-01-12T08:28:39.973Z</time>
      </trkpt>
      <trkpt lat="43.52744" lon="3.40084">
        <ele>71.7</ele>
        <time>2023-01-12T08:28:49.827Z</time>
      </trkpt>
      <trkpt lat="43.52745" lon="3.4007">
        <ele>71.4</ele>
        <time>2023-01-12T08:28:59.110Z</time>
      </trkpt>
      <trkpt lat="43.52753" lon="3.40058">
        <ele>70.9</ele>
        <time>2023-01-12T08:29:08.450Z</time>
      </trkpt>
      <trkpt lat="43.52762" lon="3.4005">
        <ele>70.9</ele>
        <time>2023-01-12T08:29:17.806Z</time>
      </trkpt>
      <trkpt lat="43.52767" lon="3.40048">
        <ele>70.8</ele>
        <time>2023-01-12T08:29:27.713Z</time>
      </trkpt>
      <trkpt lat="43.5277" lon="3.40044">
        <ele>70.8</ele>
        <time>2023-01-12T08:29:37.061Z</time>
      </trkpt>
      <trkpt lat="43.52779" lon="3.40036">
        <ele>70.6</ele>
        <time>2023-01-12T08:29:46.409Z</time>
      </trkpt>
      <trkpt lat="43.52783" lon="3.40034">
        <ele>70.4</ele>
        <time>2023-01-12T08:29:55.758Z</time>
      </trkpt>
      <trkpt lat="43.52787" lon="3.40033">
        <ele>70.2</ele>
        <time>2023-01-12T08:30:05.627Z</time>
      </trkpt>
      <trkpt lat="43.52796" lon="3.40023">
        <ele>69.8</ele>
        <time>2023-01-12T08:30:15.005Z</time>
      </trkpt>
      <trkpt lat="43.52806" lon="3.40014">
        <ele>69.5</ele>
        <time>2023-01-12T08:30:24.333Z</time>
      </trkpt>
      <trkpt lat="43.52818" lon="3.40009">
        <ele>68.5</ele>
        <time>2023-01-12T08:30:33.701Z</time>
      </trkpt>
      <trkpt lat="43.52827" lon="3.40002">
        <ele>67.6</ele>
        <time>2023-01-12T08:30:42.896Z</time>
      </trkpt>
      <trkpt lat="43.52836" lon="3.39995">
        <ele>67.1</ele>
        <time>2023-01-12T08:30:52.286Z</time>
      </trkpt>
      <trkpt lat="43.52842" lon="3.39992">
        <ele>67.3</ele>
        <time>2023-01-12T08:31:01.636Z</time>
      </trkpt>
      <trkpt lat="43.52842" lon="3.39994">
        <ele>67.3</ele>
        <time>2023-01-12T08:31:10.984Z</time>
      </trkpt>
      <trkpt lat="43.52843" lon="3.39995">
        <ele>67.3</ele>
        <time>2023-01-12T08:31:20.332Z</time>
      </trkpt>
      <trkpt lat="43.52845" lon="3.39994">
        <ele>67.4</ele>
        <time>2023-01-12T08:31:29.689Z</time>
      </trkpt>
      <trkpt lat="43.52855" lon="3.39997">
        <ele>67.8</ele>
        <time>2023-01-12T08:31:39.037Z</time>
      </trkpt>
      <trkpt lat="43.52867" lon="3.40002">
        <ele>67.9</ele>
        <time>2023-01-12T08:31:48.394Z</time>
      </trkpt>
      <trkpt lat="43.52873" lon="3.40001">
        <ele>68</ele>
        <time>2023-01-12T08:31:57.741Z</time>
      </trkpt>
      <trkpt lat="43.5287" lon="3.4">
        <ele>68</ele>
        <time>2023-01-12T08:32:06.538Z</time>
      </trkpt>
      <trkpt lat="43.5287" lon="3.40001">
        <ele>68</ele>
        <time>2023-01-12T08:32:23.032Z</time>
      </trkpt>
      <trkpt lat="43.52881" lon="3.40005">
        <ele>67.9</ele>
        <time>2023-01-12T08:32:32.390Z</time>
      </trkpt>
      <trkpt lat="43.5289" lon="3.40009">
        <ele>68</ele>
        <time>2023-01-12T08:32:41.746Z</time>
      </trkpt>
      <trkpt lat="43.52903" lon="3.40014">
        <ele>68</ele>
        <time>2023-01-12T08:32:51.093Z</time>
      </trkpt>
      <trkpt lat="43.52912" lon="3.40018">
        <ele>68</ele>
        <time>2023-01-12T08:33:00.441Z</time>
      </trkpt>
      <trkpt lat="43.52921" lon="3.40018">
        <ele>67.9</ele>
        <time>2023-01-12T08:33:09.787Z</time>
      </trkpt>
      <trkpt lat="43.52919" lon="3.40018">
        <ele>68</ele>
        <time>2023-01-12T08:33:19.685Z</time>
      </trkpt>
      <trkpt lat="43.5292" lon="3.40018">
        <ele>68</ele>
        <time>2023-01-12T08:35:19.558Z</time>
      </trkpt>
      <trkpt lat="43.52928" lon="3.4002">
        <ele>67.9</ele>
        <time>2023-01-12T08:35:28.906Z</time>
      </trkpt>
      <trkpt lat="43.52937" lon="3.40027">
        <ele>68</ele>
        <time>2023-01-12T08:35:38.264Z</time>
      </trkpt>
      <trkpt lat="43.52951" lon="3.40025">
        <ele>67.7</ele>
        <time>2023-01-12T08:35:47.612Z</time>
      </trkpt>
      <trkpt lat="43.52964" lon="3.40019">
        <ele>67.2</ele>
        <time>2023-01-12T08:35:56.962Z</time>
      </trkpt>
      <trkpt lat="43.52978" lon="3.4002">
        <ele>67.1</ele>
        <time>2023-01-12T08:36:06.309Z</time>
      </trkpt>
      <trkpt lat="43.52986" lon="3.40022">
        <ele>67.3</ele>
        <time>2023-01-12T08:36:15.657Z</time>
      </trkpt>
      <trkpt lat="43.52998" lon="3.40022">
        <ele>67.5</ele>
        <time>2023-01-12T08:36:25.005Z</time>
      </trkpt>
      <trkpt lat="43.53008" lon="3.40023">
        <ele>67.4</ele>
        <time>2023-01-12T08:36:34.333Z</time>
      </trkpt>
      <trkpt lat="43.53021" lon="3.40027">
        <ele>67.2</ele>
        <time>2023-01-12T08:36:43.702Z</time>
      </trkpt>
      <trkpt lat="43.5303" lon="3.4003">
        <ele>66.9</ele>
        <time>2023-01-12T08:36:53.050Z</time>
      </trkpt>
      <trkpt lat="43.53038" lon="3.40035">
        <ele>66.5</ele>
        <time>2023-01-12T08:37:02.389Z</time>
      </trkpt>
      <trkpt lat="43.53053" lon="3.40039">
        <ele>65.6</ele>
        <time>2023-01-12T08:37:11.747Z</time>
      </trkpt>
      <trkpt lat="43.53061" lon="3.40044">
        <ele>65.2</ele>
        <time>2023-01-12T08:37:21.096Z</time>
      </trkpt>
      <trkpt lat="43.53073" lon="3.4005">
        <ele>64.5</ele>
        <time>2023-01-12T08:37:30.445Z</time>
      </trkpt>
      <trkpt lat="43.53084" lon="3.40055">
        <ele>63.9</ele>
        <time>2023-01-12T08:37:39.792Z</time>
      </trkpt>
      <trkpt lat="43.53093" lon="3.4006">
        <ele>62.9</ele>
        <time>2023-01-12T08:37:49.141Z</time>
      </trkpt>
      <trkpt lat="43.53102" lon="3.4006">
        <ele>61.9</ele>
        <time>2023-01-12T08:37:58.490Z</time>
      </trkpt>
      <trkpt lat="43.53109" lon="3.4005">
        <ele>61.4</ele>
        <time>2023-01-12T08:38:07.838Z</time>
      </trkpt>
      <trkpt lat="43.53116" lon="3.40034">
        <ele>61.6</ele>
        <time>2023-01-12T08:38:17.187Z</time>
      </trkpt>
      <trkpt lat="43.53122" lon="3.4002">
        <ele>61.9</ele>
        <time>2023-01-12T08:38:26.547Z</time>
      </trkpt>
      <trkpt lat="43.5313" lon="3.40007">
        <ele>62.1</ele>
        <time>2023-01-12T08:38:35.893Z</time>
      </trkpt>
      <trkpt lat="43.53133" lon="3.39998">
        <ele>62.2</ele>
        <time>2023-01-12T08:38:45.770Z</time>
      </trkpt>
      <trkpt lat="43.53138" lon="3.39985">
        <ele>62</ele>
        <time>2023-01-12T08:38:55.140Z</time>
      </trkpt>
      <trkpt lat="43.53148" lon="3.39972">
        <ele>61.7</ele>
        <time>2023-01-12T08:39:04.490Z</time>
      </trkpt>
      <trkpt lat="43.53157" lon="3.39963">
        <ele>61.7</ele>
        <time>2023-01-12T08:39:13.811Z</time>
      </trkpt>
      <trkpt lat="43.53165" lon="3.39952">
        <ele>61.8</ele>
        <time>2023-01-12T08:39:23.188Z</time>
      </trkpt>
      <trkpt lat="43.53172" lon="3.39942">
        <ele>61.9</ele>
        <time>2023-01-12T08:39:32.545Z</time>
      </trkpt>
      <trkpt lat="43.53179" lon="3.39929">
        <ele>62.1</ele>
        <time>2023-01-12T08:39:41.894Z</time>
      </trkpt>
      <trkpt lat="43.53181" lon="3.39925">
        <ele>62.2</ele>
        <time>2023-01-12T08:39:51.241Z</time>
      </trkpt>
      <trkpt lat="43.5319" lon="3.39916">
        <ele>62.2</ele>
        <time>2023-01-12T08:40:00.591Z</time>
      </trkpt>
      <trkpt lat="43.53197" lon="3.39906">
        <ele>62.3</ele>
        <time>2023-01-12T08:40:09.939Z</time>
      </trkpt>
      <trkpt lat="43.53208" lon="3.39898">
        <ele>62.2</ele>
        <time>2023-01-12T08:40:19.289Z</time>
      </trkpt>
      <trkpt lat="43.5322" lon="3.39897">
        <ele>61.8</ele>
        <time>2023-01-12T08:40:28.636Z</time>
      </trkpt>
      <trkpt lat="43.53231" lon="3.39899">
        <ele>61.6</ele>
        <time>2023-01-12T08:40:37.985Z</time>
      </trkpt>
      <trkpt lat="43.53242" lon="3.39902">
        <ele>61.5</ele>
        <time>2023-01-12T08:40:47.334Z</time>
      </trkpt>
      <trkpt lat="43.53255" lon="3.39905">
        <ele>61.2</ele>
        <time>2023-01-12T08:40:56.683Z</time>
      </trkpt>
      <trkpt lat="43.53264" lon="3.399">
        <ele>61.1</ele>
        <time>2023-01-12T08:41:05.922Z</time>
      </trkpt>
      <trkpt lat="43.53269" lon="3.3988">
        <ele>61.3</ele>
        <time>2023-01-12T08:41:15.271Z</time>
      </trkpt>
      <trkpt lat="43.53269" lon="3.39868">
        <ele>61.3</ele>
        <time>2023-01-12T08:41:24.619Z</time>
      </trkpt>
      <trkpt lat="43.53266" lon="3.39859">
        <ele>61.5</ele>
        <time>2023-01-12T08:41:33.967Z</time>
      </trkpt>
      <trkpt lat="43.53265" lon="3.39852">
        <ele>62</ele>
        <time>2023-01-12T08:41:43.756Z</time>
      </trkpt>
      <trkpt lat="43.53264" lon="3.39852">
        <ele>62</ele>
        <time>2023-01-12T08:42:03.564Z</time>
      </trkpt>
      <trkpt lat="43.53259" lon="3.39846">
        <ele>62.4</ele>
        <time>2023-01-12T08:42:12.871Z</time>
      </trkpt>
      <trkpt lat="43.53251" lon="3.3984">
        <ele>62.7</ele>
        <time>2023-01-12T08:42:22.262Z</time>
      </trkpt>
      <trkpt lat="43.5325" lon="3.39839">
        <ele>62.8</ele>
        <time>2023-01-12T08:42:32.162Z</time>
      </trkpt>
      <trkpt lat="43.53241" lon="3.39827">
        <ele>63.2</ele>
        <time>2023-01-12T08:42:41.511Z</time>
      </trkpt>
      <trkpt lat="43.53236" lon="3.39815">
        <ele>63.7</ele>
        <time>2023-01-12T08:42:50.829Z</time>
      </trkpt>
      <trkpt lat="43.53234" lon="3.39804">
        <ele>64</ele>
        <time>2023-01-12T08:43:00.098Z</time>
      </trkpt>
      <trkpt lat="43.5323" lon="3.39791">
        <ele>64.4</ele>
        <time>2023-01-12T08:43:09.448Z</time>
      </trkpt>
      <trkpt lat="43.53224" lon="3.39774">
        <ele>65.1</ele>
        <time>2023-01-12T08:43:18.797Z</time>
      </trkpt>
      <trkpt lat="43.53222" lon="3.39762">
        <ele>65.6</ele>
        <time>2023-01-12T08:43:28.146Z</time>
      </trkpt>
      <trkpt lat="43.5322" lon="3.39754">
        <ele>65.9</ele>
        <time>2023-01-12T08:43:37.504Z</time>
      </trkpt>
      <trkpt lat="43.53215" lon="3.39739">
        <ele>66.4</ele>
        <time>2023-01-12T08:43:46.854Z</time>
      </trkpt>
      <trkpt lat="43.53212" lon="3.39732">
        <ele>66.6</ele>
        <time>2023-01-12T08:43:56.202Z</time>
      </trkpt>
      <trkpt lat="43.53211" lon="3.39726">
        <ele>66.8</ele>
        <time>2023-01-12T08:44:05.552Z</time>
      </trkpt>
      <trkpt lat="43.53208" lon="3.39722">
        <ele>67.1</ele>
        <time>2023-01-12T08:44:14.911Z</time>
      </trkpt>
      <trkpt lat="43.53204" lon="3.39708">
        <ele>68</ele>
        <time>2023-01-12T08:44:24.259Z</time>
      </trkpt>
      <trkpt lat="43.53201" lon="3.39706">
        <ele>68.2</ele>
        <time>2023-01-12T08:44:33.608Z</time>
      </trkpt>
      <trkpt lat="43.53202" lon="3.39703">
        <ele>68.4</ele>
        <time>2023-01-12T08:44:42.957Z</time>
      </trkpt>
      <trkpt lat="43.53198" lon="3.39691">
        <ele>69</ele>
        <time>2023-01-12T08:44:52.305Z</time>
      </trkpt>
      <trkpt lat="43.53194" lon="3.39685">
        <ele>69.4</ele>
        <time>2023-01-12T08:45:01.655Z</time>
      </trkpt>
      <trkpt lat="43.53192" lon="3.39682">
        <ele>69.5</ele>
        <time>2023-01-12T08:45:11.004Z</time>
      </trkpt>
      <trkpt lat="43.5319" lon="3.39674">
        <ele>69.9</ele>
        <time>2023-01-12T08:45:20.906Z</time>
      </trkpt>
      <trkpt lat="43.5319" lon="3.39671">
        <ele>70</ele>
        <time>2023-01-12T08:45:30.252Z</time>
      </trkpt>
      <trkpt lat="43.53185" lon="3.39661">
        <ele>70.5</ele>
        <time>2023-01-12T08:45:39.600Z</time>
      </trkpt>
      <trkpt lat="43.5318" lon="3.39647">
        <ele>71.2</ele>
        <time>2023-01-12T08:45:48.949Z</time>
      </trkpt>
      <trkpt lat="43.53176" lon="3.39638">
        <ele>71.7</ele>
        <time>2023-01-12T08:45:58.299Z</time>
      </trkpt>
      <trkpt lat="43.53172" lon="3.39629">
        <ele>72.3</ele>
        <time>2023-01-12T08:46:07.648Z</time>
      </trkpt>
      <trkpt lat="43.53168" lon="3.39617">
        <ele>72.8</ele>
        <time>2023-01-12T08:46:17.546Z</time>
      </trkpt>
      <trkpt lat="43.53167" lon="3.39613">
        <ele>72.9</ele>
        <time>2023-01-12T08:46:26.894Z</time>
      </trkpt>
      <trkpt lat="43.53166" lon="3.39608">
        <ele>73.1</ele>
        <time>2023-01-12T08:46:36.230Z</time>
      </trkpt>
      <trkpt lat="43.53162" lon="3.39596">
        <ele>73.6</ele>
        <time>2023-01-12T08:46:45.592Z</time>
      </trkpt>
      <trkpt lat="43.5316" lon="3.39591">
        <ele>73.7</ele>
        <time>2023-01-12T08:46:54.942Z</time>
      </trkpt>
      <trkpt lat="43.53156" lon="3.39579">
        <ele>74.4</ele>
        <time>2023-01-12T08:47:04.291Z</time>
      </trkpt>
      <trkpt lat="43.53155" lon="3.39565">
        <ele>75.6</ele>
        <time>2023-01-12T08:47:13.640Z</time>
      </trkpt>
      <trkpt lat="43.53153" lon="3.39557">
        <ele>76.4</ele>
        <time>2023-01-12T08:47:22.990Z</time>
      </trkpt>
      <trkpt lat="43.53153" lon="3.39545">
        <ele>77.2</ele>
        <time>2023-01-12T08:47:32.334Z</time>
      </trkpt>
      <trkpt lat="43.53152" lon="3.39537">
        <ele>77.8</ele>
        <time>2023-01-12T08:47:41.669Z</time>
      </trkpt>
      <trkpt lat="43.53149" lon="3.39521">
        <ele>79.1</ele>
        <time>2023-01-12T08:47:51.036Z</time>
      </trkpt>
      <trkpt lat="43.53145" lon="3.39508">
        <ele>80.2</ele>
        <time>2023-01-12T08:48:00.955Z</time>
      </trkpt>
      <trkpt lat="43.53143" lon="3.39496">
        <ele>81.1</ele>
        <time>2023-01-12T08:48:10.305Z</time>
      </trkpt>
      <trkpt lat="43.53142" lon="3.39491">
        <ele>81.5</ele>
        <time>2023-01-12T08:48:19.654Z</time>
      </trkpt>
      <trkpt lat="43.53141" lon="3.39487">
        <ele>81.9</ele>
        <time>2023-01-12T08:48:29.002Z</time>
      </trkpt>
      <trkpt lat="43.53137" lon="3.39475">
        <ele>82.9</ele>
        <time>2023-01-12T08:48:38.334Z</time>
      </trkpt>
      <trkpt lat="43.53131" lon="3.39462">
        <ele>84.1</ele>
        <time>2023-01-12T08:48:47.700Z</time>
      </trkpt>
      <trkpt lat="43.53124" lon="3.3945">
        <ele>85.1</ele>
        <time>2023-01-12T08:48:57.049Z</time>
      </trkpt>
      <trkpt lat="43.53119" lon="3.39442">
        <ele>85.8</ele>
        <time>2023-01-12T08:49:06.929Z</time>
      </trkpt>
      <trkpt lat="43.53112" lon="3.39429">
        <ele>86.5</ele>
        <time>2023-01-12T08:49:16.847Z</time>
      </trkpt>
      <trkpt lat="43.53107" lon="3.39419">
        <ele>87.2</ele>
        <time>2023-01-12T08:49:26.195Z</time>
      </trkpt>
      <trkpt lat="43.53102" lon="3.3941">
        <ele>88.3</ele>
        <time>2023-01-12T08:49:35.545Z</time>
      </trkpt>
      <trkpt lat="43.53096" lon="3.39403">
        <ele>89.7</ele>
        <time>2023-01-12T08:49:44.893Z</time>
      </trkpt>
      <trkpt lat="43.53092" lon="3.39402">
        <ele>90.1</ele>
        <time>2023-01-12T08:49:54.793Z</time>
      </trkpt>
      <trkpt lat="43.53091" lon="3.39402">
        <ele>90.3</ele>
        <time>2023-01-12T08:50:04.692Z</time>
      </trkpt>
      <trkpt lat="43.53092" lon="3.394">
        <ele>90.4</ele>
        <time>2023-01-12T08:50:14.591Z</time>
      </trkpt>
      <trkpt lat="43.53092" lon="3.39399">
        <ele>90.5</ele>
        <time>2023-01-12T08:50:43.906Z</time>
      </trkpt>
      <trkpt lat="43.53092" lon="3.39398">
        <ele>90.7</ele>
        <time>2023-01-12T08:50:53.906Z</time>
      </trkpt>
      <trkpt lat="43.53091" lon="3.39398">
        <ele>90.7</ele>
        <time>2023-01-12T08:51:04.746Z</time>
      </trkpt>
      <trkpt lat="43.53091" lon="3.39399">
        <ele>90.6</ele>
        <time>2023-01-12T08:51:14.645Z</time>
      </trkpt>
      <trkpt lat="43.53092" lon="3.39399">
        <ele>90.5</ele>
        <time>2023-01-12T08:51:24.543Z</time>
      </trkpt>
      <trkpt lat="43.53095" lon="3.39387">
        <ele>91.4</ele>
        <time>2023-01-12T08:51:33.894Z</time>
      </trkpt>
      <trkpt lat="43.53095" lon="3.39384">
        <ele>91.7</ele>
        <time>2023-01-12T08:51:43.250Z</time>
      </trkpt>
      <trkpt lat="43.53097" lon="3.39375">
        <ele>92</ele>
        <time>2023-01-12T08:51:52.569Z</time>
      </trkpt>
      <trkpt lat="43.53103" lon="3.39368">
        <ele>92</ele>
        <time>2023-01-12T08:52:01.951Z</time>
      </trkpt>
      <trkpt lat="43.53108" lon="3.39353">
        <ele>93</ele>
        <time>2023-01-12T08:52:11.834Z</time>
      </trkpt>
      <trkpt lat="43.53111" lon="3.39338">
        <ele>94.5</ele>
        <time>2023-01-12T08:52:21.102Z</time>
      </trkpt>
      <trkpt lat="43.53119" lon="3.39327">
        <ele>94.9</ele>
        <time>2023-01-12T08:52:30.437Z</time>
      </trkpt>
      <trkpt lat="43.53126" lon="3.39313">
        <ele>95.6</ele>
        <time>2023-01-12T08:52:39.786Z</time>
      </trkpt>
      <trkpt lat="43.53132" lon="3.39303">
        <ele>95.9</ele>
        <time>2023-01-12T08:52:49.677Z</time>
      </trkpt>
      <trkpt lat="43.5314" lon="3.39294">
        <ele>95.7</ele>
        <time>2023-01-12T08:52:59.592Z</time>
      </trkpt>
      <trkpt lat="43.5315" lon="3.39285">
        <ele>95.4</ele>
        <time>2023-01-12T08:53:08.940Z</time>
      </trkpt>
      <trkpt lat="43.53152" lon="3.39276">
        <ele>95.7</ele>
        <time>2023-01-12T08:53:18.398Z</time>
      </trkpt>
      <trkpt lat="43.53158" lon="3.39267">
        <ele>95.6</ele>
        <time>2023-01-12T08:53:27.746Z</time>
      </trkpt>
      <trkpt lat="43.53165" lon="3.39254">
        <ele>95.8</ele>
        <time>2023-01-12T08:53:37.643Z</time>
      </trkpt>
      <trkpt lat="43.53165" lon="3.39247">
        <ele>96.4</ele>
        <time>2023-01-12T08:53:46.992Z</time>
      </trkpt>
      <trkpt lat="43.53168" lon="3.39238">
        <ele>96.8</ele>
        <time>2023-01-12T08:53:56.890Z</time>
      </trkpt>
      <trkpt lat="43.5317" lon="3.39241">
        <ele>96.5</ele>
        <time>2023-01-12T08:54:06.796Z</time>
      </trkpt>
      <trkpt lat="43.5317" lon="3.39238">
        <ele>96.7</ele>
        <time>2023-01-12T08:54:15.908Z</time>
      </trkpt>
      <trkpt lat="43.53173" lon="3.39226">
        <ele>97.3</ele>
        <time>2023-01-12T08:54:25.943Z</time>
      </trkpt>
      <trkpt lat="43.53172" lon="3.39225">
        <ele>97.5</ele>
        <time>2023-01-12T08:54:35.841Z</time>
      </trkpt>
      <trkpt lat="43.53172" lon="3.39223">
        <ele>97.6</ele>
        <time>2023-01-12T08:54:45.189Z</time>
      </trkpt>
      <trkpt lat="43.53166" lon="3.39223">
        <ele>98</ele>
        <time>2023-01-12T08:54:54.538Z</time>
      </trkpt>
      <trkpt lat="43.53164" lon="3.3922">
        <ele>98</ele>
        <time>2023-01-12T08:55:03.887Z</time>
      </trkpt>
      <trkpt lat="43.53164" lon="3.39218">
        <ele>98</ele>
        <time>2023-01-12T08:55:13.785Z</time>
      </trkpt>
      <trkpt lat="43.53165" lon="3.39215">
        <ele>97.8</ele>
        <time>2023-01-12T08:55:23.684Z</time>
      </trkpt>
      <trkpt lat="43.53164" lon="3.39216">
        <ele>97.9</ele>
        <time>2023-01-12T08:55:33.583Z</time>
      </trkpt>
      <trkpt lat="43.53163" lon="3.39217">
        <ele>97.9</ele>
        <time>2023-01-12T08:55:45.682Z</time>
      </trkpt>
      <trkpt lat="43.53164" lon="3.39218">
        <ele>97.9</ele>
        <time>2023-01-12T08:56:21.979Z</time>
      </trkpt>
      <trkpt lat="43.53166" lon="3.39218">
        <ele>97.9</ele>
        <time>2023-01-12T08:56:41.907Z</time>
      </trkpt>
      <trkpt lat="43.53168" lon="3.39218">
        <ele>97.7</ele>
        <time>2023-01-12T08:56:51.907Z</time>
      </trkpt>
      <trkpt lat="43.53167" lon="3.39218">
        <ele>97.9</ele>
        <time>2023-01-12T08:56:58.907Z</time>
      </trkpt>
      <trkpt lat="43.53167" lon="3.39219">
        <ele>97.8</ele>
        <time>2023-01-12T08:59:39.907Z</time>
      </trkpt>
      <trkpt lat="43.53166" lon="3.3922">
        <ele>97.9</ele>
        <time>2023-01-12T08:59:48.908Z</time>
      </trkpt>
      <trkpt lat="43.53166" lon="3.3922">
        <ele>97.9</ele>
        <time>2023-01-12T09:00:04.908Z</time>
      </trkpt>
      <trkpt lat="43.53174" lon="3.39223">
        <ele>97.4</ele>
        <time>2023-01-12T09:03:15.929Z</time>
      </trkpt>
      <trkpt lat="43.5318" lon="3.3922">
        <ele>96.9</ele>
        <time>2023-01-12T09:03:25.230Z</time>
      </trkpt>
      <trkpt lat="43.53185" lon="3.39205">
        <ele>96.1</ele>
        <time>2023-01-12T09:03:34.627Z</time>
      </trkpt>
      <trkpt lat="43.53189" lon="3.3919">
        <ele>95.5</ele>
        <time>2023-01-12T09:03:43.866Z</time>
      </trkpt>
      <trkpt lat="43.53193" lon="3.39176">
        <ele>95.7</ele>
        <time>2023-01-12T09:03:53.216Z</time>
      </trkpt>
      <trkpt lat="43.53196" lon="3.39161">
        <ele>95.9</ele>
        <time>2023-01-12T09:04:02.454Z</time>
      </trkpt>
      <trkpt lat="43.53197" lon="3.39152">
        <ele>95.8</ele>
        <time>2023-01-12T09:04:11.804Z</time>
      </trkpt>
      <trkpt lat="43.53208" lon="3.39136">
        <ele>94.5</ele>
        <time>2023-01-12T09:04:21.152Z</time>
      </trkpt>
      <trkpt lat="43.53214" lon="3.39122">
        <ele>93.7</ele>
        <time>2023-01-12T09:04:30.393Z</time>
      </trkpt>
      <trkpt lat="43.53222" lon="3.39107">
        <ele>93.2</ele>
        <time>2023-01-12T09:04:39.750Z</time>
      </trkpt>
      <trkpt lat="43.53229" lon="3.39097">
        <ele>93.1</ele>
        <time>2023-01-12T09:04:49.664Z</time>
      </trkpt>
      <trkpt lat="43.53236" lon="3.39086">
        <ele>92.5</ele>
        <time>2023-01-12T09:04:58.964Z</time>
      </trkpt>
      <trkpt lat="43.53242" lon="3.39076">
        <ele>91.9</ele>
        <time>2023-01-12T09:05:08.334Z</time>
      </trkpt>
      <trkpt lat="43.53249" lon="3.39065">
        <ele>91.1</ele>
        <time>2023-01-12T09:05:17.582Z</time>
      </trkpt>
      <trkpt lat="43.53255" lon="3.39055">
        <ele>90.8</ele>
        <time>2023-01-12T09:05:26.943Z</time>
      </trkpt>
      <trkpt lat="43.5325" lon="3.3905">
        <ele>91.2</ele>
        <time>2023-01-12T09:05:36.278Z</time>
      </trkpt>
      <trkpt lat="43.53242" lon="3.39042">
        <ele>92.2</ele>
        <time>2023-01-12T09:05:45.625Z</time>
      </trkpt>
      <trkpt lat="43.53239" lon="3.39037">
        <ele>92.6</ele>
        <time>2023-01-12T09:05:54.973Z</time>
      </trkpt>
      <trkpt lat="43.53227" lon="3.39027">
        <ele>93.7</ele>
        <time>2023-01-12T09:06:04.837Z</time>
      </trkpt>
      <trkpt lat="43.53221" lon="3.39021">
        <ele>94.3</ele>
        <time>2023-01-12T09:06:14.184Z</time>
      </trkpt>
      <trkpt lat="43.53213" lon="3.39012">
        <ele>94.7</ele>
        <time>2023-01-12T09:06:23.565Z</time>
      </trkpt>
      <trkpt lat="43.53203" lon="3.39004">
        <ele>95</ele>
        <time>2023-01-12T09:06:32.835Z</time>
      </trkpt>
      <trkpt lat="43.53194" lon="3.38997">
        <ele>95.3</ele>
        <time>2023-01-12T09:06:42.119Z</time>
      </trkpt>
      <trkpt lat="43.53186" lon="3.38988">
        <ele>96.8</ele>
        <time>2023-01-12T09:06:51.498Z</time>
      </trkpt>
      <trkpt lat="43.5318" lon="3.38982">
        <ele>97.7</ele>
        <time>2023-01-12T09:07:00.856Z</time>
      </trkpt>
      <trkpt lat="43.53171" lon="3.38978">
        <ele>98.6</ele>
        <time>2023-01-12T09:07:10.202Z</time>
      </trkpt>
      <trkpt lat="43.53169" lon="3.3897">
        <ele>98.9</ele>
        <time>2023-01-12T09:07:19.551Z</time>
      </trkpt>
      <trkpt lat="43.53167" lon="3.38969">
        <ele>99.1</ele>
        <time>2023-01-12T09:07:28.908Z</time>
      </trkpt>
      <trkpt lat="43.53164" lon="3.38965">
        <ele>99.5</ele>
        <time>2023-01-12T09:07:38.256Z</time>
      </trkpt>
      <trkpt lat="43.53166" lon="3.38955">
        <ele>99.7</ele>
        <time>2023-01-12T09:07:47.603Z</time>
      </trkpt>
      <trkpt lat="43.53172" lon="3.38938">
        <ele>100</ele>
        <time>2023-01-12T09:07:56.953Z</time>
      </trkpt>
      <trkpt lat="43.53169" lon="3.38925">
        <ele>100.5</ele>
        <time>2023-01-12T09:08:06.252Z</time>
      </trkpt>
      <trkpt lat="43.53159" lon="3.38925">
        <ele>101.6</ele>
        <time>2023-01-12T09:08:15.648Z</time>
      </trkpt>
      <trkpt lat="43.53149" lon="3.38933">
        <ele>102.7</ele>
        <time>2023-01-12T09:08:24.895Z</time>
      </trkpt>
      <trkpt lat="43.53145" lon="3.38927">
        <ele>103.2</ele>
        <time>2023-01-12T09:08:34.243Z</time>
      </trkpt>
      <trkpt lat="43.53136" lon="3.38924">
        <ele>104.7</ele>
        <time>2023-01-12T09:08:43.591Z</time>
      </trkpt>
      <trkpt lat="43.53132" lon="3.38923">
        <ele>105.7</ele>
        <time>2023-01-12T09:08:52.938Z</time>
      </trkpt>
      <trkpt lat="43.53125" lon="3.38921">
        <ele>107.6</ele>
        <time>2023-01-12T09:09:02.285Z</time>
      </trkpt>
      <trkpt lat="43.53116" lon="3.38929">
        <ele>109.3</ele>
        <time>2023-01-12T09:09:11.632Z</time>
      </trkpt>
      <trkpt lat="43.5311" lon="3.38933">
        <ele>110.6</ele>
        <time>2023-01-12T09:09:21.541Z</time>
      </trkpt>
      <trkpt lat="43.53109" lon="3.38927">
        <ele>111</ele>
        <time>2023-01-12T09:09:30.906Z</time>
      </trkpt>
      <trkpt lat="43.53107" lon="3.38926">
        <ele>111.4</ele>
        <time>2023-01-12T09:09:40.785Z</time>
      </trkpt>
      <trkpt lat="43.53106" lon="3.38922">
        <ele>111.7</ele>
        <time>2023-01-12T09:09:50.133Z</time>
      </trkpt>
      <trkpt lat="43.53108" lon="3.38914">
        <ele>111.3</ele>
        <time>2023-01-12T09:09:59.993Z</time>
      </trkpt>
      <trkpt lat="43.53108" lon="3.38908">
        <ele>111.1</ele>
        <time>2023-01-12T09:10:09.334Z</time>
      </trkpt>
      <trkpt lat="43.53103" lon="3.389">
        <ele>111.6</ele>
        <time>2023-01-12T09:10:18.729Z</time>
      </trkpt>
      <trkpt lat="43.53094" lon="3.38891">
        <ele>113.4</ele>
        <time>2023-01-12T09:10:28.078Z</time>
      </trkpt>
      <trkpt lat="43.53091" lon="3.38883">
        <ele>113.4</ele>
        <time>2023-01-12T09:10:37.976Z</time>
      </trkpt>
      <trkpt lat="43.53089" lon="3.38876">
        <ele>113.5</ele>
        <time>2023-01-12T09:10:47.305Z</time>
      </trkpt>
      <trkpt lat="43.53084" lon="3.38874">
        <ele>114.3</ele>
        <time>2023-01-12T09:10:56.672Z</time>
      </trkpt>
      <trkpt lat="43.53076" lon="3.38873">
        <ele>115.9</ele>
        <time>2023-01-12T09:11:06.572Z</time>
      </trkpt>
      <trkpt lat="43.53077" lon="3.38887">
        <ele>117</ele>
        <time>2023-01-12T09:11:15.921Z</time>
      </trkpt>
      <trkpt lat="43.53077" lon="3.38894">
        <ele>117.2</ele>
        <time>2023-01-12T09:11:25.269Z</time>
      </trkpt>
      <trkpt lat="43.53073" lon="3.38899">
        <ele>117.8</ele>
        <time>2023-01-12T09:11:34.618Z</time>
      </trkpt>
      <trkpt lat="43.5307" lon="3.38912">
        <ele>118.5</ele>
        <time>2023-01-12T09:11:43.857Z</time>
      </trkpt>
      <trkpt lat="43.53063" lon="3.3891">
        <ele>119.6</ele>
        <time>2023-01-12T09:11:53.756Z</time>
      </trkpt>
      <trkpt lat="43.53059" lon="3.38899">
        <ele>120.3</ele>
        <time>2023-01-12T09:12:03.105Z</time>
      </trkpt>
      <trkpt lat="43.53058" lon="3.38889">
        <ele>120.5</ele>
        <time>2023-01-12T09:12:13.004Z</time>
      </trkpt>
      <trkpt lat="43.53056" lon="3.38882">
        <ele>120.7</ele>
        <time>2023-01-12T09:12:22.903Z</time>
      </trkpt>
      <trkpt lat="43.53057" lon="3.3888">
        <ele>120.5</ele>
        <time>2023-01-12T09:12:32.251Z</time>
      </trkpt>
      <trkpt lat="43.53053" lon="3.38872">
        <ele>120.7</ele>
        <time>2023-01-12T09:12:41.600Z</time>
      </trkpt>
      <trkpt lat="43.53045" lon="3.38861">
        <ele>121.5</ele>
        <time>2023-01-12T09:12:50.949Z</time>
      </trkpt>
      <trkpt lat="43.53041" lon="3.38856">
        <ele>121.7</ele>
        <time>2023-01-12T09:13:00.297Z</time>
      </trkpt>
      <trkpt lat="43.53035" lon="3.38848">
        <ele>122.3</ele>
        <time>2023-01-12T09:13:09.647Z</time>
      </trkpt>
      <trkpt lat="43.53029" lon="3.38838">
        <ele>123.7</ele>
        <time>2023-01-12T09:13:19.546Z</time>
      </trkpt>
      <trkpt lat="43.53025" lon="3.38826">
        <ele>123.9</ele>
        <time>2023-01-12T09:13:28.893Z</time>
      </trkpt>
      <trkpt lat="43.53021" lon="3.38817">
        <ele>124</ele>
        <time>2023-01-12T09:13:38.242Z</time>
      </trkpt>
      <trkpt lat="43.53018" lon="3.3881">
        <ele>124.1</ele>
        <time>2023-01-12T09:13:47.592Z</time>
      </trkpt>
      <trkpt lat="43.53019" lon="3.38805">
        <ele>123.9</ele>
        <time>2023-01-12T09:13:56.940Z</time>
      </trkpt>
      <trkpt lat="43.53017" lon="3.38787">
        <ele>123.7</ele>
        <time>2023-01-12T09:14:06.290Z</time>
      </trkpt>
      <trkpt lat="43.53015" lon="3.38774">
        <ele>123.9</ele>
        <time>2023-01-12T09:14:15.639Z</time>
      </trkpt>
      <trkpt lat="43.53014" lon="3.38764">
        <ele>123.9</ele>
        <time>2023-01-12T09:14:24.987Z</time>
      </trkpt>
      <trkpt lat="43.5301" lon="3.38749">
        <ele>124.9</ele>
        <time>2023-01-12T09:14:34.334Z</time>
      </trkpt>
      <trkpt lat="43.53006" lon="3.38738">
        <ele>125.9</ele>
        <time>2023-01-12T09:14:43.685Z</time>
      </trkpt>
      <trkpt lat="43.53003" lon="3.38724">
        <ele>126.4</ele>
        <time>2023-01-12T09:14:53.033Z</time>
      </trkpt>
      <trkpt lat="43.53002" lon="3.38708">
        <ele>127.3</ele>
        <time>2023-01-12T09:15:02.933Z</time>
      </trkpt>
      <trkpt lat="43.53" lon="3.38691">
        <ele>128</ele>
        <time>2023-01-12T09:15:12.248Z</time>
      </trkpt>
      <trkpt lat="43.52999" lon="3.38679">
        <ele>128</ele>
        <time>2023-01-12T09:15:21.540Z</time>
      </trkpt>
      <trkpt lat="43.52999" lon="3.38674">
        <ele>128</ele>
        <time>2023-01-12T09:15:30.889Z</time>
      </trkpt>
      <trkpt lat="43.52994" lon="3.38672">
        <ele>128.2</ele>
        <time>2023-01-12T09:15:39.909Z</time>
      </trkpt>
      <trkpt lat="43.5299" lon="3.38662">
        <ele>128.5</ele>
        <time>2023-01-12T09:15:49.910Z</time>
      </trkpt>
      <trkpt lat="43.52992" lon="3.38655">
        <ele>128.6</ele>
        <time>2023-01-12T09:15:58.947Z</time>
      </trkpt>
      <trkpt lat="43.52986" lon="3.38636">
        <ele>129.1</ele>
        <time>2023-01-12T09:16:08.296Z</time>
      </trkpt>
      <trkpt lat="43.52976" lon="3.38622">
        <ele>129.5</ele>
        <time>2023-01-12T09:16:17.644Z</time>
      </trkpt>
      <trkpt lat="43.52967" lon="3.38611">
        <ele>130</ele>
        <time>2023-01-12T09:16:26.995Z</time>
      </trkpt>
      <trkpt lat="43.5296" lon="3.386">
        <ele>130.2</ele>
        <time>2023-01-12T09:16:36.334Z</time>
      </trkpt>
      <trkpt lat="43.52955" lon="3.38585">
        <ele>130.6</ele>
        <time>2023-01-12T09:16:45.692Z</time>
      </trkpt>
      <trkpt lat="43.52952" lon="3.38575">
        <ele>130.8</ele>
        <time>2023-01-12T09:16:55.008Z</time>
      </trkpt>
      <trkpt lat="43.52945" lon="3.3856">
        <ele>131</ele>
        <time>2023-01-12T09:17:04.392Z</time>
      </trkpt>
      <trkpt lat="43.5294" lon="3.38548">
        <ele>131.2</ele>
        <time>2023-01-12T09:17:13.740Z</time>
      </trkpt>
      <trkpt lat="43.52935" lon="3.38538">
        <ele>131.3</ele>
        <time>2023-01-12T09:17:23.089Z</time>
      </trkpt>
      <trkpt lat="43.5293" lon="3.38526">
        <ele>131.6</ele>
        <time>2023-01-12T09:17:32.438Z</time>
      </trkpt>
      <trkpt lat="43.52928" lon="3.38517">
        <ele>131.8</ele>
        <time>2023-01-12T09:17:41.788Z</time>
      </trkpt>
      <trkpt lat="43.52926" lon="3.38517">
        <ele>131.8</ele>
        <time>2023-01-12T09:17:51.687Z</time>
      </trkpt>
      <trkpt lat="43.52926" lon="3.38517">
        <ele>131.8</ele>
        <time>2023-01-12T09:18:45.910Z</time>
      </trkpt>
      <trkpt lat="43.52915" lon="3.38488">
        <ele>132.5</ele>
        <time>2023-01-12T09:19:17.477Z</time>
      </trkpt>
      <trkpt lat="43.52909" lon="3.38479">
        <ele>132.8</ele>
        <time>2023-01-12T09:19:26.827Z</time>
      </trkpt>
      <trkpt lat="43.529" lon="3.38472">
        <ele>133</ele>
        <time>2023-01-12T09:19:36.615Z</time>
      </trkpt>
      <trkpt lat="43.52892" lon="3.38468">
        <ele>133</ele>
        <time>2023-01-12T09:19:45.964Z</time>
      </trkpt>
      <trkpt lat="43.52882" lon="3.38467">
        <ele>133</ele>
        <time>2023-01-12T09:19:55.312Z</time>
      </trkpt>
      <trkpt lat="43.52875" lon="3.38468">
        <ele>133.1</ele>
        <time>2023-01-12T09:20:04.661Z</time>
      </trkpt>
      <trkpt lat="43.52864" lon="3.38471">
        <ele>133</ele>
        <time>2023-01-12T09:20:14.007Z</time>
      </trkpt>
      <trkpt lat="43.5286" lon="3.38482">
        <ele>133</ele>
        <time>2023-01-12T09:20:23.334Z</time>
      </trkpt>
      <trkpt lat="43.52862" lon="3.38492">
        <ele>133</ele>
        <time>2023-01-12T09:20:32.708Z</time>
      </trkpt>
      <trkpt lat="43.52861" lon="3.38493">
        <ele>133</ele>
        <time>2023-01-12T09:20:43.158Z</time>
      </trkpt>
      <trkpt lat="43.52854" lon="3.38504">
        <ele>133</ele>
        <time>2023-01-12T09:20:52.506Z</time>
      </trkpt>
      <trkpt lat="43.52844" lon="3.3851">
        <ele>133</ele>
        <time>2023-01-12T09:21:01.745Z</time>
      </trkpt>
      <trkpt lat="43.52843" lon="3.38513">
        <ele>133</ele>
        <time>2023-01-12T09:21:06.694Z</time>
      </trkpt>
      <trkpt lat="43.52842" lon="3.3852">
        <ele>133</ele>
        <time>2023-01-12T09:21:32.543Z</time>
      </trkpt>
      <trkpt lat="43.52845" lon="3.38526">
        <ele>133</ele>
        <time>2023-01-12T09:21:41.892Z</time>
      </trkpt>
      <trkpt lat="43.52835" lon="3.3852">
        <ele>133</ele>
        <time>2023-01-12T09:24:03.278Z</time>
      </trkpt>
      <trkpt lat="43.52822" lon="3.38527">
        <ele>133</ele>
        <time>2023-01-12T09:24:12.596Z</time>
      </trkpt>
      <trkpt lat="43.52818" lon="3.38526">
        <ele>133</ele>
        <time>2023-01-12T09:24:21.976Z</time>
      </trkpt>
      <trkpt lat="43.52812" lon="3.38536">
        <ele>133</ele>
        <time>2023-01-12T09:24:31.876Z</time>
      </trkpt>
      <trkpt lat="43.52803" lon="3.38553">
        <ele>133</ele>
        <time>2023-01-12T09:24:41.775Z</time>
      </trkpt>
      <trkpt lat="43.52793" lon="3.38567">
        <ele>132.8</ele>
        <time>2023-01-12T09:24:51.125Z</time>
      </trkpt>
      <trkpt lat="43.52787" lon="3.38576">
        <ele>132.5</ele>
        <time>2023-01-12T09:25:00.474Z</time>
      </trkpt>
      <trkpt lat="43.52778" lon="3.38589">
        <ele>132</ele>
        <time>2023-01-12T09:25:09.823Z</time>
      </trkpt>
      <trkpt lat="43.52769" lon="3.38596">
        <ele>132</ele>
        <time>2023-01-12T09:25:19.173Z</time>
      </trkpt>
      <trkpt lat="43.52758" lon="3.38603">
        <ele>132</ele>
        <time>2023-01-12T09:25:28.522Z</time>
      </trkpt>
      <trkpt lat="43.52749" lon="3.38614">
        <ele>132</ele>
        <time>2023-01-12T09:25:37.872Z</time>
      </trkpt>
      <trkpt lat="43.52749" lon="3.38626">
        <ele>132</ele>
        <time>2023-01-12T09:25:47.492Z</time>
      </trkpt>
      <trkpt lat="43.52742" lon="3.38638">
        <ele>132</ele>
        <time>2023-01-12T09:25:56.991Z</time>
      </trkpt>
      <trkpt lat="43.52737" lon="3.38645">
        <ele>132</ele>
        <time>2023-01-12T09:26:06.842Z</time>
      </trkpt>
      <trkpt lat="43.5273" lon="3.38639">
        <ele>132</ele>
        <time>2023-01-12T09:26:16.081Z</time>
      </trkpt>
      <trkpt lat="43.52719" lon="3.3864">
        <ele>132</ele>
        <time>2023-01-12T09:26:25.982Z</time>
      </trkpt>
      <trkpt lat="43.52709" lon="3.38642">
        <ele>131.9</ele>
        <time>2023-01-12T09:26:35.772Z</time>
      </trkpt>
      <trkpt lat="43.52708" lon="3.38649">
        <ele>131.8</ele>
        <time>2023-01-12T09:26:45.131Z</time>
      </trkpt>
      <trkpt lat="43.52699" lon="3.38649">
        <ele>131.7</ele>
        <time>2023-01-12T09:26:54.361Z</time>
      </trkpt>
      <trkpt lat="43.52686" lon="3.38655">
        <ele>131.3</ele>
        <time>2023-01-12T09:27:03.447Z</time>
      </trkpt>
      <trkpt lat="43.52679" lon="3.3867">
        <ele>131</ele>
        <time>2023-01-12T09:27:12.771Z</time>
      </trkpt>
      <trkpt lat="43.5267" lon="3.38675">
        <ele>131</ele>
        <time>2023-01-12T09:27:22.129Z</time>
      </trkpt>
      <trkpt lat="43.5266" lon="3.38681">
        <ele>130.9</ele>
        <time>2023-01-12T09:27:31.489Z</time>
      </trkpt>
      <trkpt lat="43.52653" lon="3.38685">
        <ele>130.7</ele>
        <time>2023-01-12T09:27:40.837Z</time>
      </trkpt>
      <trkpt lat="43.52645" lon="3.38684">
        <ele>130.5</ele>
        <time>2023-01-12T09:27:50.195Z</time>
      </trkpt>
      <trkpt lat="43.52639" lon="3.38686">
        <ele>130.3</ele>
        <time>2023-01-12T09:27:59.544Z</time>
      </trkpt>
      <trkpt lat="43.5263" lon="3.38695">
        <ele>130</ele>
        <time>2023-01-12T09:28:08.789Z</time>
      </trkpt>
      <trkpt lat="43.52618" lon="3.38698">
        <ele>130</ele>
        <time>2023-01-12T09:28:18.142Z</time>
      </trkpt>
      <trkpt lat="43.52607" lon="3.38696">
        <ele>130</ele>
        <time>2023-01-12T09:28:27.490Z</time>
      </trkpt>
      <trkpt lat="43.52595" lon="3.38693">
        <ele>130.1</ele>
        <time>2023-01-12T09:28:36.838Z</time>
      </trkpt>
      <trkpt lat="43.52585" lon="3.38686">
        <ele>130.3</ele>
        <time>2023-01-12T09:28:46.189Z</time>
      </trkpt>
      <trkpt lat="43.52578" lon="3.38685">
        <ele>130.5</ele>
        <time>2023-01-12T09:28:55.536Z</time>
      </trkpt>
      <trkpt lat="43.52568" lon="3.38689">
        <ele>130.7</ele>
        <time>2023-01-12T09:29:04.835Z</time>
      </trkpt>
      <trkpt lat="43.52557" lon="3.38695">
        <ele>130.9</ele>
        <time>2023-01-12T09:29:14.232Z</time>
      </trkpt>
      <trkpt lat="43.52551" lon="3.38689">
        <ele>130.9</ele>
        <time>2023-01-12T09:29:23.581Z</time>
      </trkpt>
      <trkpt lat="43.52546" lon="3.38684">
        <ele>130.8</ele>
        <time>2023-01-12T09:29:32.940Z</time>
      </trkpt>
      <trkpt lat="43.52537" lon="3.38675">
        <ele>130.8</ele>
        <time>2023-01-12T09:29:42.288Z</time>
      </trkpt>
      <trkpt lat="43.5254" lon="3.38671">
        <ele>130.9</ele>
        <time>2023-01-12T09:29:51.636Z</time>
      </trkpt>
      <trkpt lat="43.52543" lon="3.38664">
        <ele>131</ele>
        <time>2023-01-12T09:30:00.985Z</time>
      </trkpt>
      <trkpt lat="43.52542" lon="3.38646">
        <ele>131</ele>
        <time>2023-01-12T09:30:10.333Z</time>
      </trkpt>
      <trkpt lat="43.52543" lon="3.38634">
        <ele>131.1</ele>
        <time>2023-01-12T09:30:19.622Z</time>
      </trkpt>
      <trkpt lat="43.52536" lon="3.38622">
        <ele>131.2</ele>
        <time>2023-01-12T09:30:28.931Z</time>
      </trkpt>
      <trkpt lat="43.52527" lon="3.3861">
        <ele>131.1</ele>
        <time>2023-01-12T09:30:38.281Z</time>
      </trkpt>
      <trkpt lat="43.52523" lon="3.38597">
        <ele>131.4</ele>
        <time>2023-01-12T09:30:47.639Z</time>
      </trkpt>
      <trkpt lat="43.52522" lon="3.38584">
        <ele>131.8</ele>
        <time>2023-01-12T09:30:56.877Z</time>
      </trkpt>
      <trkpt lat="43.52521" lon="3.38569">
        <ele>131.8</ele>
        <time>2023-01-12T09:31:06.227Z</time>
      </trkpt>
      <trkpt lat="43.52523" lon="3.38563">
        <ele>131.8</ele>
        <time>2023-01-12T09:31:15.366Z</time>
      </trkpt>
      <trkpt lat="43.52523" lon="3.38565">
        <ele>131.8</ele>
        <time>2023-01-12T09:31:24.705Z</time>
      </trkpt>
      <trkpt lat="43.52523" lon="3.38558">
        <ele>131.8</ele>
        <time>2023-01-12T09:31:34.053Z</time>
      </trkpt>
      <trkpt lat="43.52519" lon="3.38549">
        <ele>131.8</ele>
        <time>2023-01-12T09:31:43.403Z</time>
      </trkpt>
      <trkpt lat="43.5252" lon="3.38538">
        <ele>131.9</ele>
        <time>2023-01-12T09:31:52.754Z</time>
      </trkpt>
      <trkpt lat="43.52528" lon="3.38525">
        <ele>132.1</ele>
        <time>2023-01-12T09:32:01.992Z</time>
      </trkpt>
      <trkpt lat="43.52531" lon="3.38513">
        <ele>132.6</ele>
        <time>2023-01-12T09:32:11.893Z</time>
      </trkpt>
      <trkpt lat="43.52532" lon="3.38506">
        <ele>132.8</ele>
        <time>2023-01-12T09:32:21.243Z</time>
      </trkpt>
      <trkpt lat="43.52532" lon="3.38498">
        <ele>133</ele>
        <time>2023-01-12T09:32:30.592Z</time>
      </trkpt>
      <trkpt lat="43.52537" lon="3.385">
        <ele>133</ele>
        <time>2023-01-12T09:32:39.943Z</time>
      </trkpt>
      <trkpt lat="43.52537" lon="3.38499">
        <ele>133</ele>
        <time>2023-01-12T09:32:49.292Z</time>
      </trkpt>
      <trkpt lat="43.52525" lon="3.38501">
        <ele>132.9</ele>
        <time>2023-01-12T09:32:58.641Z</time>
      </trkpt>
      <trkpt lat="43.52524" lon="3.38504">
        <ele>132.8</ele>
        <time>2023-01-12T09:33:07.992Z</time>
      </trkpt>
      <trkpt lat="43.52523" lon="3.38504">
        <ele>132.7</ele>
        <time>2023-01-12T09:33:17.334Z</time>
      </trkpt>
      <trkpt lat="43.52523" lon="3.38501">
        <ele>132.8</ele>
        <time>2023-01-12T09:33:26.691Z</time>
      </trkpt>
      <trkpt lat="43.52516" lon="3.38496">
        <ele>132.6</ele>
        <time>2023-01-12T09:33:35.961Z</time>
      </trkpt>
      <trkpt lat="43.52503" lon="3.38496">
        <ele>132.1</ele>
        <time>2023-01-12T09:33:45.471Z</time>
      </trkpt>
      <trkpt lat="43.52492" lon="3.38491">
        <ele>132</ele>
        <time>2023-01-12T09:33:54.972Z</time>
      </trkpt>
      <trkpt lat="43.52482" lon="3.38485">
        <ele>132</ele>
        <time>2023-01-12T09:34:04.473Z</time>
      </trkpt>
      <trkpt lat="43.5247" lon="3.3848">
        <ele>132</ele>
        <time>2023-01-12T09:34:13.972Z</time>
      </trkpt>
      <trkpt lat="43.52461" lon="3.38477">
        <ele>131.9</ele>
        <time>2023-01-12T09:34:22.973Z</time>
      </trkpt>
      <trkpt lat="43.5245" lon="3.38471">
        <ele>132</ele>
        <time>2023-01-12T09:34:32.473Z</time>
      </trkpt>
      <trkpt lat="43.5244" lon="3.38463">
        <ele>131.9</ele>
        <time>2023-01-12T09:34:41.973Z</time>
      </trkpt>
      <trkpt lat="43.5243" lon="3.38455">
        <ele>131.8</ele>
        <time>2023-01-12T09:34:50.974Z</time>
      </trkpt>
      <trkpt lat="43.52422" lon="3.38447">
        <ele>131.9</ele>
        <time>2023-01-12T09:34:59.975Z</time>
      </trkpt>
      <trkpt lat="43.52414" lon="3.38438">
        <ele>131.9</ele>
        <time>2023-01-12T09:35:09.975Z</time>
      </trkpt>
      <trkpt lat="43.52401" lon="3.38434">
        <ele>131.6</ele>
        <time>2023-01-12T09:35:19.476Z</time>
      </trkpt>
      <trkpt lat="43.52392" lon="3.38434">
        <ele>131.4</ele>
        <time>2023-01-12T09:35:28.976Z</time>
      </trkpt>
      <trkpt lat="43.52382" lon="3.38437">
        <ele>131.2</ele>
        <time>2023-01-12T09:35:38.476Z</time>
      </trkpt>
      <trkpt lat="43.52375" lon="3.38435">
        <ele>131.2</ele>
        <time>2023-01-12T09:35:47.477Z</time>
      </trkpt>
      <trkpt lat="43.52364" lon="3.38435">
        <ele>131</ele>
        <time>2023-01-12T09:35:56.977Z</time>
      </trkpt>
      <trkpt lat="43.52347" lon="3.38439">
        <ele>130.6</ele>
        <time>2023-01-12T09:36:05.979Z</time>
      </trkpt>
      <trkpt lat="43.52337" lon="3.38442">
        <ele>130.2</ele>
        <time>2023-01-12T09:36:15.479Z</time>
      </trkpt>
      <trkpt lat="43.52328" lon="3.38442">
        <ele>130.1</ele>
        <time>2023-01-12T09:36:24.979Z</time>
      </trkpt>
      <trkpt lat="43.5232" lon="3.38437">
        <ele>130.1</ele>
        <time>2023-01-12T09:36:34.580Z</time>
      </trkpt>
      <trkpt lat="43.52312" lon="3.38441">
        <ele>130</ele>
        <time>2023-01-12T09:36:43.582Z</time>
      </trkpt>
      <trkpt lat="43.52297" lon="3.38448">
        <ele>129.9</ele>
        <time>2023-01-12T09:36:53.081Z</time>
      </trkpt>
      <trkpt lat="43.52285" lon="3.38453">
        <ele>129.7</ele>
        <time>2023-01-12T09:37:02.082Z</time>
      </trkpt>
      <trkpt lat="43.52274" lon="3.3845">
        <ele>129.7</ele>
        <time>2023-01-12T09:37:11.584Z</time>
      </trkpt>
      <trkpt lat="43.52263" lon="3.3845">
        <ele>129.4</ele>
        <time>2023-01-12T09:37:20.684Z</time>
      </trkpt>
      <trkpt lat="43.52253" lon="3.38452">
        <ele>129.1</ele>
        <time>2023-01-12T09:37:29.785Z</time>
      </trkpt>
      <trkpt lat="43.52243" lon="3.38453">
        <ele>128.9</ele>
        <time>2023-01-12T09:37:38.786Z</time>
      </trkpt>
      <trkpt lat="43.52234" lon="3.38458">
        <ele>128.7</ele>
        <time>2023-01-12T09:37:47.787Z</time>
      </trkpt>
      <trkpt lat="43.52225" lon="3.38454">
        <ele>128.7</ele>
        <time>2023-01-12T09:37:56.789Z</time>
      </trkpt>
      <trkpt lat="43.52216" lon="3.38446">
        <ele>129</ele>
        <time>2023-01-12T09:38:05.801Z</time>
      </trkpt>
      <trkpt lat="43.52202" lon="3.38446">
        <ele>129</ele>
        <time>2023-01-12T09:38:14.802Z</time>
      </trkpt>
      <trkpt lat="43.52188" lon="3.38451">
        <ele>129.2</ele>
        <time>2023-01-12T09:38:24.803Z</time>
      </trkpt>
      <trkpt lat="43.52179" lon="3.38448">
        <ele>129.5</ele>
        <time>2023-01-12T09:38:33.804Z</time>
      </trkpt>
      <trkpt lat="43.52171" lon="3.38441">
        <ele>129.9</ele>
        <time>2023-01-12T09:38:42.806Z</time>
      </trkpt>
      <trkpt lat="43.5216" lon="3.38442">
        <ele>130</ele>
        <time>2023-01-12T09:38:52.307Z</time>
      </trkpt>
      <trkpt lat="43.52151" lon="3.3845">
        <ele>129.8</ele>
        <time>2023-01-12T09:39:01.308Z</time>
      </trkpt>
      <trkpt lat="43.52139" lon="3.38448">
        <ele>129.9</ele>
        <time>2023-01-12T09:39:10.310Z</time>
      </trkpt>
      <trkpt lat="43.5213" lon="3.3844">
        <ele>129.6</ele>
        <time>2023-01-12T09:39:19.810Z</time>
      </trkpt>
      <trkpt lat="43.5212" lon="3.38437">
        <ele>129.2</ele>
        <time>2023-01-12T09:39:28.812Z</time>
      </trkpt>
      <trkpt lat="43.5211" lon="3.38443">
        <ele>129</ele>
        <time>2023-01-12T09:39:37.814Z</time>
      </trkpt>
      <trkpt lat="43.52098" lon="3.38447">
        <ele>129</ele>
        <time>2023-01-12T09:39:46.816Z</time>
      </trkpt>
      <trkpt lat="43.52089" lon="3.38444">
        <ele>129</ele>
        <time>2023-01-12T09:39:55.817Z</time>
      </trkpt>
      <trkpt lat="43.5208" lon="3.38442">
        <ele>129</ele>
        <time>2023-01-12T09:40:04.819Z</time>
      </trkpt>
      <trkpt lat="43.52072" lon="3.38447">
        <ele>128.9</ele>
        <time>2023-01-12T09:40:13.820Z</time>
      </trkpt>
      <trkpt lat="43.52062" lon="3.38449">
        <ele>128.8</ele>
        <time>2023-01-12T09:40:23.044Z</time>
      </trkpt>
      <trkpt lat="43.52053" lon="3.38448">
        <ele>128.9</ele>
        <time>2023-01-12T09:40:32.133Z</time>
      </trkpt>
      <trkpt lat="43.52047" lon="3.38458">
        <ele>128.7</ele>
        <time>2023-01-12T09:40:41.135Z</time>
      </trkpt>
      <trkpt lat="43.52046" lon="3.38468">
        <ele>128.4</ele>
        <time>2023-01-12T09:40:50.636Z</time>
      </trkpt>
      <trkpt lat="43.52041" lon="3.38466">
        <ele>128.6</ele>
        <time>2023-01-12T09:40:59.638Z</time>
      </trkpt>
      <trkpt lat="43.52034" lon="3.3846">
        <ele>128.9</ele>
        <time>2023-01-12T09:41:08.639Z</time>
      </trkpt>
      <trkpt lat="43.52023" lon="3.38463">
        <ele>129</ele>
        <time>2023-01-12T09:41:17.740Z</time>
      </trkpt>
      <trkpt lat="43.52015" lon="3.38468">
        <ele>129</ele>
        <time>2023-01-12T09:41:26.741Z</time>
      </trkpt>
      <trkpt lat="43.52008" lon="3.38474">
        <ele>129</ele>
        <time>2023-01-12T09:41:35.742Z</time>
      </trkpt>
      <trkpt lat="43.52001" lon="3.38478">
        <ele>128.8</ele>
        <time>2023-01-12T09:41:44.743Z</time>
      </trkpt>
      <trkpt lat="43.52" lon="3.38484">
        <ele>128.6</ele>
        <time>2023-01-12T09:41:53.744Z</time>
      </trkpt>
      <trkpt lat="43.51999" lon="3.38484">
        <ele>128.6</ele>
        <time>2023-01-12T09:42:06.746Z</time>
      </trkpt>
      <trkpt lat="43.51998" lon="3.38484">
        <ele>128.6</ele>
        <time>2023-01-12T09:42:15.747Z</time>
      </trkpt>
      <trkpt lat="43.51997" lon="3.38485">
        <ele>128.5</ele>
        <time>2023-01-12T09:42:50.250Z</time>
      </trkpt>
      <trkpt lat="43.51994" lon="3.38488">
        <ele>128.4</ele>
        <time>2023-01-12T09:42:59.751Z</time>
      </trkpt>
      <trkpt lat="43.51988" lon="3.38497">
        <ele>128.1</ele>
        <time>2023-01-12T09:43:09.750Z</time>
      </trkpt>
      <trkpt lat="43.51984" lon="3.38498">
        <ele>128.1</ele>
        <time>2023-01-12T09:43:18.751Z</time>
      </trkpt>
      <trkpt lat="43.51979" lon="3.38499">
        <ele>128</ele>
        <time>2023-01-12T09:43:27.752Z</time>
      </trkpt>
      <trkpt lat="43.51975" lon="3.38502">
        <ele>127.9</ele>
        <time>2023-01-12T09:43:37.253Z</time>
      </trkpt>
      <trkpt lat="43.51971" lon="3.38505">
        <ele>127.8</ele>
        <time>2023-01-12T09:43:46.254Z</time>
      </trkpt>
      <trkpt lat="43.51961" lon="3.38511">
        <ele>127.6</ele>
        <time>2023-01-12T09:43:55.753Z</time>
      </trkpt>
      <trkpt lat="43.51964" lon="3.38512">
        <ele>127.6</ele>
        <time>2023-01-12T09:44:04.755Z</time>
      </trkpt>
      <trkpt lat="43.51965" lon="3.38511">
        <ele>127.6</ele>
        <time>2023-01-12T09:44:13.910Z</time>
      </trkpt>
      <trkpt lat="43.51963" lon="3.38512">
        <ele>127.6</ele>
        <time>2023-01-12T09:45:01.910Z</time>
      </trkpt>
      <trkpt lat="43.51958" lon="3.38517">
        <ele>127.4</ele>
        <time>2023-01-12T09:45:11.405Z</time>
      </trkpt>
      <trkpt lat="43.51949" lon="3.38529">
        <ele>127</ele>
        <time>2023-01-12T09:45:20.545Z</time>
      </trkpt>
      <trkpt lat="43.51941" lon="3.38535">
        <ele>127</ele>
        <time>2023-01-12T09:45:29.708Z</time>
      </trkpt>
      <trkpt lat="43.51938" lon="3.38547">
        <ele>127</ele>
        <time>2023-01-12T09:45:39.034Z</time>
      </trkpt>
      <trkpt lat="43.51936" lon="3.38549">
        <ele>127</ele>
        <time>2023-01-12T09:45:48.385Z</time>
      </trkpt>
      <trkpt lat="43.51927" lon="3.38558">
        <ele>127</ele>
        <time>2023-01-12T09:45:57.735Z</time>
      </trkpt>
      <trkpt lat="43.51921" lon="3.38565">
        <ele>127</ele>
        <time>2023-01-12T09:46:07.606Z</time>
      </trkpt>
      <trkpt lat="43.51918" lon="3.38571">
        <ele>127</ele>
        <time>2023-01-12T09:46:16.983Z</time>
      </trkpt>
      <trkpt lat="43.5192" lon="3.3857">
        <ele>127</ele>
        <time>2023-01-12T09:46:26.883Z</time>
      </trkpt>
      <trkpt lat="43.51918" lon="3.38569">
        <ele>127</ele>
        <time>2023-01-12T09:46:36.784Z</time>
      </trkpt>
      <trkpt lat="43.5191" lon="3.3857">
        <ele>127</ele>
        <time>2023-01-12T09:46:46.134Z</time>
      </trkpt>
      <trkpt lat="43.51902" lon="3.38584">
        <ele>127</ele>
        <time>2023-01-12T09:46:55.469Z</time>
      </trkpt>
      <trkpt lat="43.51894" lon="3.38597">
        <ele>127</ele>
        <time>2023-01-12T09:47:04.832Z</time>
      </trkpt>
      <trkpt lat="43.51892" lon="3.38613">
        <ele>127</ele>
        <time>2023-01-12T09:47:14.183Z</time>
      </trkpt>
      <trkpt lat="43.51893" lon="3.38619">
        <ele>127</ele>
        <time>2023-01-12T09:47:23.532Z</time>
      </trkpt>
      <trkpt lat="43.5189" lon="3.38629">
        <ele>127</ele>
        <time>2023-01-12T09:47:32.883Z</time>
      </trkpt>
      <trkpt lat="43.51887" lon="3.38632">
        <ele>127</ele>
        <time>2023-01-12T09:47:42.791Z</time>
      </trkpt>
      <trkpt lat="43.51878" lon="3.38643">
        <ele>126.9</ele>
        <time>2023-01-12T09:47:52.141Z</time>
      </trkpt>
      <trkpt lat="43.51871" lon="3.38654">
        <ele>126.6</ele>
        <time>2023-01-12T09:48:01.491Z</time>
      </trkpt>
      <trkpt lat="43.51864" lon="3.38666">
        <ele>126.1</ele>
        <time>2023-01-12T09:48:10.841Z</time>
      </trkpt>
      <trkpt lat="43.51856" lon="3.38675">
        <ele>126</ele>
        <time>2023-01-12T09:48:20.191Z</time>
      </trkpt>
      <trkpt lat="43.51849" lon="3.38682">
        <ele>126</ele>
        <time>2023-01-12T09:48:29.541Z</time>
      </trkpt>
      <trkpt lat="43.51844" lon="3.38685">
        <ele>126</ele>
        <time>2023-01-12T09:48:38.890Z</time>
      </trkpt>
      <trkpt lat="43.51838" lon="3.38692">
        <ele>126</ele>
        <time>2023-01-12T09:48:48.240Z</time>
      </trkpt>
      <trkpt lat="43.51837" lon="3.38696">
        <ele>126</ele>
        <time>2023-01-12T09:48:57.590Z</time>
      </trkpt>
      <trkpt lat="43.51834" lon="3.38696">
        <ele>126</ele>
        <time>2023-01-12T09:49:06.940Z</time>
      </trkpt>
      <trkpt lat="43.51824" lon="3.387">
        <ele>125.5</ele>
        <time>2023-01-12T09:49:16.190Z</time>
      </trkpt>
      <trkpt lat="43.51821" lon="3.38713">
        <ele>125.2</ele>
        <time>2023-01-12T09:49:25.539Z</time>
      </trkpt>
      <trkpt lat="43.51812" lon="3.38719">
        <ele>125</ele>
        <time>2023-01-12T09:49:34.899Z</time>
      </trkpt>
      <trkpt lat="43.51803" lon="3.38728">
        <ele>124.9</ele>
        <time>2023-01-12T09:49:44.248Z</time>
      </trkpt>
      <trkpt lat="43.51798" lon="3.38732">
        <ele>124.7</ele>
        <time>2023-01-12T09:49:53.599Z</time>
      </trkpt>
      <trkpt lat="43.51792" lon="3.38738">
        <ele>124.5</ele>
        <time>2023-01-12T09:50:02.949Z</time>
      </trkpt>
      <trkpt lat="43.51782" lon="3.38748">
        <ele>124.1</ele>
        <time>2023-01-12T09:50:12.349Z</time>
      </trkpt>
      <trkpt lat="43.5178" lon="3.38754">
        <ele>124.1</ele>
        <time>2023-01-12T09:50:21.449Z</time>
      </trkpt>
      <trkpt lat="43.51779" lon="3.38752">
        <ele>124.1</ele>
        <time>2023-01-12T09:50:30.718Z</time>
      </trkpt>
      <trkpt lat="43.51773" lon="3.38764">
        <ele>123.7</ele>
        <time>2023-01-12T09:50:39.858Z</time>
      </trkpt>
      <trkpt lat="43.51764" lon="3.38771">
        <ele>123.4</ele>
        <time>2023-01-12T09:50:48.969Z</time>
      </trkpt>
      <trkpt lat="43.51758" lon="3.38779">
        <ele>123.3</ele>
        <time>2023-01-12T09:50:58.968Z</time>
      </trkpt>
      <trkpt lat="43.51754" lon="3.38786">
        <ele>123.2</ele>
        <time>2023-01-12T09:51:08.572Z</time>
      </trkpt>
      <trkpt lat="43.51748" lon="3.38797">
        <ele>123</ele>
        <time>2023-01-12T09:51:17.680Z</time>
      </trkpt>
      <trkpt lat="43.51738" lon="3.38809">
        <ele>123</ele>
        <time>2023-01-12T09:51:27.179Z</time>
      </trkpt>
      <trkpt lat="43.51732" lon="3.38821">
        <ele>123</ele>
        <time>2023-01-12T09:51:36.680Z</time>
      </trkpt>
      <trkpt lat="43.51724" lon="3.38831">
        <ele>123</ele>
        <time>2023-01-12T09:51:46.179Z</time>
      </trkpt>
      <trkpt lat="43.51717" lon="3.38842">
        <ele>122.8</ele>
        <time>2023-01-12T09:51:55.180Z</time>
      </trkpt>
      <trkpt lat="43.51709" lon="3.38853">
        <ele>122.5</ele>
        <time>2023-01-12T09:52:04.181Z</time>
      </trkpt>
      <trkpt lat="43.51706" lon="3.38862">
        <ele>122.4</ele>
        <time>2023-01-12T09:52:13.681Z</time>
      </trkpt>
      <trkpt lat="43.51707" lon="3.38857">
        <ele>122.4</ele>
        <time>2023-01-12T09:52:22.690Z</time>
      </trkpt>
      <trkpt lat="43.51703" lon="3.38861">
        <ele>122.3</ele>
        <time>2023-01-12T09:52:31.700Z</time>
      </trkpt>
      <trkpt lat="43.51694" lon="3.38876">
        <ele>122</ele>
        <time>2023-01-12T09:52:40.701Z</time>
      </trkpt>
      <trkpt lat="43.51688" lon="3.38891">
        <ele>122</ele>
        <time>2023-01-12T09:52:50.202Z</time>
      </trkpt>
      <trkpt lat="43.51683" lon="3.38904">
        <ele>122</ele>
        <time>2023-01-12T09:52:59.702Z</time>
      </trkpt>
      <trkpt lat="43.51679" lon="3.38918">
        <ele>122</ele>
        <time>2023-01-12T09:53:09.201Z</time>
      </trkpt>
      <trkpt lat="43.51674" lon="3.38929">
        <ele>121.7</ele>
        <time>2023-01-12T09:53:18.202Z</time>
      </trkpt>
      <trkpt lat="43.51668" lon="3.3894">
        <ele>121.2</ele>
        <time>2023-01-12T09:53:27.203Z</time>
      </trkpt>
      <trkpt lat="43.51662" lon="3.38944">
        <ele>121.2</ele>
        <time>2023-01-12T09:53:36.204Z</time>
      </trkpt>
      <trkpt lat="43.51657" lon="3.38948">
        <ele>121.3</ele>
        <time>2023-01-12T09:53:45.303Z</time>
      </trkpt>
      <trkpt lat="43.51649" lon="3.38954">
        <ele>121.4</ele>
        <time>2023-01-12T09:53:54.405Z</time>
      </trkpt>
      <trkpt lat="43.51645" lon="3.3897">
        <ele>121.1</ele>
        <time>2023-01-12T09:54:03.606Z</time>
      </trkpt>
      <trkpt lat="43.51635" lon="3.38973">
        <ele>121</ele>
        <time>2023-01-12T09:54:12.706Z</time>
      </trkpt>
      <trkpt lat="43.5163" lon="3.38999">
        <ele>121</ele>
        <time>2023-01-12T09:54:21.806Z</time>
      </trkpt>
      <trkpt lat="43.51623" lon="3.39011">
        <ele>120.6</ele>
        <time>2023-01-12T09:54:30.807Z</time>
      </trkpt>
      <trkpt lat="43.51619" lon="3.39023">
        <ele>120.2</ele>
        <time>2023-01-12T09:54:39.808Z</time>
      </trkpt>
      <trkpt lat="43.51614" lon="3.39029">
        <ele>120</ele>
        <time>2023-01-12T09:54:49.307Z</time>
      </trkpt>
      <trkpt lat="43.51606" lon="3.39041">
        <ele>120</ele>
        <time>2023-01-12T09:54:58.508Z</time>
      </trkpt>
      <trkpt lat="43.51599" lon="3.39056">
        <ele>120</ele>
        <time>2023-01-12T09:55:08.009Z</time>
      </trkpt>
      <trkpt lat="43.51593" lon="3.39071">
        <ele>119.6</ele>
        <time>2023-01-12T09:55:17.509Z</time>
      </trkpt>
      <trkpt lat="43.51589" lon="3.39085">
        <ele>119.2</ele>
        <time>2023-01-12T09:55:26.510Z</time>
      </trkpt>
      <trkpt lat="43.51582" lon="3.39097">
        <ele>119</ele>
        <time>2023-01-12T09:55:36.009Z</time>
      </trkpt>
      <trkpt lat="43.51574" lon="3.39108">
        <ele>119</ele>
        <time>2023-01-12T09:55:45.110Z</time>
      </trkpt>
      <trkpt lat="43.51568" lon="3.39118">
        <ele>118.7</ele>
        <time>2023-01-12T09:55:54.610Z</time>
      </trkpt>
      <trkpt lat="43.51561" lon="3.39128">
        <ele>118.4</ele>
        <time>2023-01-12T09:56:04.611Z</time>
      </trkpt>
      <trkpt lat="43.51557" lon="3.39143">
        <ele>118</ele>
        <time>2023-01-12T09:56:14.111Z</time>
      </trkpt>
      <trkpt lat="43.51552" lon="3.39157">
        <ele>118</ele>
        <time>2023-01-12T09:56:23.112Z</time>
      </trkpt>
      <trkpt lat="43.51541" lon="3.39165">
        <ele>118</ele>
        <time>2023-01-12T09:56:32.612Z</time>
      </trkpt>
      <trkpt lat="43.51537" lon="3.39179">
        <ele>117.6</ele>
        <time>2023-01-12T09:56:42.111Z</time>
      </trkpt>
      <trkpt lat="43.51532" lon="3.39191">
        <ele>117.1</ele>
        <time>2023-01-12T09:56:51.112Z</time>
      </trkpt>
      <trkpt lat="43.5153" lon="3.39198">
        <ele>116.9</ele>
        <time>2023-01-12T09:57:00.612Z</time>
      </trkpt>
      <trkpt lat="43.51521" lon="3.39203">
        <ele>116.7</ele>
        <time>2023-01-12T09:57:09.642Z</time>
      </trkpt>
      <trkpt lat="43.51514" lon="3.39217">
        <ele>116.2</ele>
        <time>2023-01-12T09:57:19.141Z</time>
      </trkpt>
      <trkpt lat="43.51506" lon="3.39227">
        <ele>116</ele>
        <time>2023-01-12T09:57:28.142Z</time>
      </trkpt>
      <trkpt lat="43.515" lon="3.39236">
        <ele>116</ele>
        <time>2023-01-12T09:57:37.663Z</time>
      </trkpt>
      <trkpt lat="43.51495" lon="3.39239">
        <ele>116</ele>
        <time>2023-01-12T09:57:46.942Z</time>
      </trkpt>
      <trkpt lat="43.51492" lon="3.39254">
        <ele>115.9</ele>
        <time>2023-01-12T09:58:24.241Z</time>
      </trkpt>
      <trkpt lat="43.5149" lon="3.39267">
        <ele>115.4</ele>
        <time>2023-01-12T09:58:33.591Z</time>
      </trkpt>
      <trkpt lat="43.51485" lon="3.39277">
        <ele>115</ele>
        <time>2023-01-12T09:58:42.831Z</time>
      </trkpt>
      <trkpt lat="43.51479" lon="3.39277">
        <ele>115</ele>
        <time>2023-01-12T09:58:52.181Z</time>
      </trkpt>
      <trkpt lat="43.51474" lon="3.39273">
        <ele>115.2</ele>
        <time>2023-01-12T09:59:01.530Z</time>
      </trkpt>
      <trkpt lat="43.51469" lon="3.39272">
        <ele>115.2</ele>
        <time>2023-01-12T09:59:10.880Z</time>
      </trkpt>
      <trkpt lat="43.5146" lon="3.39276">
        <ele>115.1</ele>
        <time>2023-01-12T09:59:20.229Z</time>
      </trkpt>
      <trkpt lat="43.5145" lon="3.39276">
        <ele>115.1</ele>
        <time>2023-01-12T09:59:29.579Z</time>
      </trkpt>
      <trkpt lat="43.51447" lon="3.39272">
        <ele>115.2</ele>
        <time>2023-01-12T09:59:38.928Z</time>
      </trkpt>
      <trkpt lat="43.51455" lon="3.39273">
        <ele>115.2</ele>
        <time>2023-01-12T09:59:48.279Z</time>
      </trkpt>
      <trkpt lat="43.51462" lon="3.3927">
        <ele>115.3</ele>
        <time>2023-01-12T09:59:57.627Z</time>
      </trkpt>
      <trkpt lat="43.51449" lon="3.39276">
        <ele>115.1</ele>
        <time>2023-01-12T10:00:06.977Z</time>
      </trkpt>
      <trkpt lat="43.51439" lon="3.39278">
        <ele>115</ele>
        <time>2023-01-12T10:00:16.328Z</time>
      </trkpt>
      <trkpt lat="43.51431" lon="3.39275">
        <ele>115.1</ele>
        <time>2023-01-12T10:00:25.677Z</time>
      </trkpt>
      <trkpt lat="43.51433" lon="3.39271">
        <ele>115.2</ele>
        <time>2023-01-12T10:00:35.027Z</time>
      </trkpt>
      <trkpt lat="43.51418" lon="3.39273">
        <ele>115.2</ele>
        <time>2023-01-12T10:00:44.373Z</time>
      </trkpt>
      <trkpt lat="43.51405" lon="3.39276">
        <ele>115.4</ele>
        <time>2023-01-12T10:00:53.615Z</time>
      </trkpt>
      <trkpt lat="43.51395" lon="3.39274">
        <ele>115.8</ele>
        <time>2023-01-12T10:01:02.915Z</time>
      </trkpt>
      <trkpt lat="43.51397" lon="3.39274">
        <ele>115.7</ele>
        <time>2023-01-12T10:01:12.815Z</time>
      </trkpt>
      <trkpt lat="43.51395" lon="3.39275">
        <ele>115.8</ele>
        <time>2023-01-12T10:01:22.164Z</time>
      </trkpt>
      <trkpt lat="43.51382" lon="3.3928">
        <ele>116</ele>
        <time>2023-01-12T10:01:31.512Z</time>
      </trkpt>
      <trkpt lat="43.51373" lon="3.39275">
        <ele>116</ele>
        <time>2023-01-12T10:01:40.862Z</time>
      </trkpt>
      <trkpt lat="43.51366" lon="3.3927">
        <ele>116</ele>
        <time>2023-01-12T10:01:50.762Z</time>
      </trkpt>
      <trkpt lat="43.51359" lon="3.39274">
        <ele>116</ele>
        <time>2023-01-12T10:02:00.110Z</time>
      </trkpt>
      <trkpt lat="43.51347" lon="3.39274">
        <ele>116.1</ele>
        <time>2023-01-12T10:02:09.966Z</time>
      </trkpt>
      <trkpt lat="43.51334" lon="3.39278">
        <ele>116</ele>
        <time>2023-01-12T10:02:19.847Z</time>
      </trkpt>
      <trkpt lat="43.51326" lon="3.39271">
        <ele>116.2</ele>
        <time>2023-01-12T10:02:28.991Z</time>
      </trkpt>
      <trkpt lat="43.51315" lon="3.39269">
        <ele>116.3</ele>
        <time>2023-01-12T10:02:38.530Z</time>
      </trkpt>
      <trkpt lat="43.51304" lon="3.39269">
        <ele>116.3</ele>
        <time>2023-01-12T10:02:47.880Z</time>
      </trkpt>
      <trkpt lat="43.51294" lon="3.3927">
        <ele>116.3</ele>
        <time>2023-01-12T10:02:57.230Z</time>
      </trkpt>
      <trkpt lat="43.51284" lon="3.39274">
        <ele>116.1</ele>
        <time>2023-01-12T10:03:06.539Z</time>
      </trkpt>
      <trkpt lat="43.51276" lon="3.39274">
        <ele>116.1</ele>
        <time>2023-01-12T10:03:15.723Z</time>
      </trkpt>
      <trkpt lat="43.5127" lon="3.3928">
        <ele>116</ele>
        <time>2023-01-12T10:03:24.945Z</time>
      </trkpt>
      <trkpt lat="43.51262" lon="3.3928">
        <ele>116</ele>
        <time>2023-01-12T10:03:34.326Z</time>
      </trkpt>
      <trkpt lat="43.51257" lon="3.39281">
        <ele>116</ele>
        <time>2023-01-12T10:03:43.690Z</time>
      </trkpt>
      <trkpt lat="43.51258" lon="3.39279">
        <ele>116</ele>
        <time>2023-01-12T10:03:53.590Z</time>
      </trkpt>
      <trkpt lat="43.51258" lon="3.39278">
        <ele>116</ele>
        <time>2023-01-12T10:04:06.911Z</time>
      </trkpt>
      <trkpt lat="43.51257" lon="3.39272">
        <ele>116.1</ele>
        <time>2023-01-12T10:04:15.978Z</time>
      </trkpt>
      <trkpt lat="43.51251" lon="3.39257">
        <ele>116</ele>
        <time>2023-01-12T10:04:24.979Z</time>
      </trkpt>
      <trkpt lat="43.51239" lon="3.39254">
        <ele>116</ele>
        <time>2023-01-12T10:04:33.980Z</time>
      </trkpt>
      <trkpt lat="43.51229" lon="3.39251">
        <ele>116</ele>
        <time>2023-01-12T10:04:43.480Z</time>
      </trkpt>
      <trkpt lat="43.51219" lon="3.39248">
        <ele>116</ele>
        <time>2023-01-12T10:04:52.580Z</time>
      </trkpt>
      <trkpt lat="43.51214" lon="3.39251">
        <ele>116</ele>
        <time>2023-01-12T10:05:02.080Z</time>
      </trkpt>
      <trkpt lat="43.512" lon="3.39252">
        <ele>116</ele>
        <time>2023-01-12T10:05:11.579Z</time>
      </trkpt>
      <trkpt lat="43.51189" lon="3.39244">
        <ele>115.2</ele>
        <time>2023-01-12T10:05:20.769Z</time>
      </trkpt>
      <trkpt lat="43.51183" lon="3.39254">
        <ele>114.7</ele>
        <time>2023-01-12T10:05:30.089Z</time>
      </trkpt>
      <trkpt lat="43.51183" lon="3.3926">
        <ele>114.7</ele>
        <time>2023-01-12T10:05:39.439Z</time>
      </trkpt>
      <trkpt lat="43.5118" lon="3.39275">
        <ele>114.4</ele>
        <time>2023-01-12T10:05:48.789Z</time>
      </trkpt>
      <trkpt lat="43.51177" lon="3.3929">
        <ele>114.4</ele>
        <time>2023-01-12T10:05:58.029Z</time>
      </trkpt>
      <trkpt lat="43.51174" lon="3.39301">
        <ele>114.4</ele>
        <time>2023-01-12T10:06:07.372Z</time>
      </trkpt>
      <trkpt lat="43.51176" lon="3.39314">
        <ele>114.7</ele>
        <time>2023-01-12T10:06:16.728Z</time>
      </trkpt>
      <trkpt lat="43.51175" lon="3.39317">
        <ele>114.6</ele>
        <time>2023-01-12T10:06:26.178Z</time>
      </trkpt>
      <trkpt lat="43.51174" lon="3.39334">
        <ele>114.6</ele>
        <time>2023-01-12T10:06:35.928Z</time>
      </trkpt>
      <trkpt lat="43.51169" lon="3.39339">
        <ele>114.4</ele>
        <time>2023-01-12T10:06:45.028Z</time>
      </trkpt>
      <trkpt lat="43.51161" lon="3.39349">
        <ele>114</ele>
        <time>2023-01-12T10:06:54.029Z</time>
      </trkpt>
      <trkpt lat="43.51159" lon="3.39371">
        <ele>114.3</ele>
        <time>2023-01-12T10:07:03.530Z</time>
      </trkpt>
      <trkpt lat="43.51161" lon="3.39388">
        <ele>114.5</ele>
        <time>2023-01-12T10:07:13.029Z</time>
      </trkpt>
      <trkpt lat="43.51158" lon="3.394">
        <ele>114.1</ele>
        <time>2023-01-12T10:07:22.030Z</time>
      </trkpt>
      <trkpt lat="43.51154" lon="3.39413">
        <ele>113.6</ele>
        <time>2023-01-12T10:07:31.530Z</time>
      </trkpt>
      <trkpt lat="43.51149" lon="3.39425">
        <ele>113.2</ele>
        <time>2023-01-12T10:07:40.629Z</time>
      </trkpt>
      <trkpt lat="43.51149" lon="3.3943">
        <ele>113.1</ele>
        <time>2023-01-12T10:07:50.129Z</time>
      </trkpt>
      <trkpt lat="43.51143" lon="3.39443">
        <ele>112.4</ele>
        <time>2023-01-12T10:07:59.130Z</time>
      </trkpt>
      <trkpt lat="43.51139" lon="3.39456">
        <ele>112</ele>
        <time>2023-01-12T10:08:08.140Z</time>
      </trkpt>
      <trkpt lat="43.51136" lon="3.39468">
        <ele>111.6</ele>
        <time>2023-01-12T10:08:17.141Z</time>
      </trkpt>
      <trkpt lat="43.5113" lon="3.39481">
        <ele>110.6</ele>
        <time>2023-01-12T10:08:26.640Z</time>
      </trkpt>
      <trkpt lat="43.51129" lon="3.39491">
        <ele>110.3</ele>
        <time>2023-01-12T10:08:35.711Z</time>
      </trkpt>
      <trkpt lat="43.5113" lon="3.39497">
        <ele>110.4</ele>
        <time>2023-01-12T10:08:45.601Z</time>
      </trkpt>
      <trkpt lat="43.51129" lon="3.39496">
        <ele>110.3</ele>
        <time>2023-01-12T10:08:55.620Z</time>
      </trkpt>
      <trkpt lat="43.51128" lon="3.39495">
        <ele>110</ele>
        <time>2023-01-12T10:09:04.911Z</time>
      </trkpt>
      <trkpt lat="43.51127" lon="3.39496">
        <ele>109.8</ele>
        <time>2023-01-12T10:09:16.911Z</time>
      </trkpt>
      <trkpt lat="43.51128" lon="3.39506">
        <ele>109.9</ele>
        <time>2023-01-12T10:09:26.968Z</time>
      </trkpt>
      <trkpt lat="43.51128" lon="3.39504">
        <ele>110</ele>
        <time>2023-01-12T10:09:36.317Z</time>
      </trkpt>
      <trkpt lat="43.51129" lon="3.39512">
        <ele>109.9</ele>
        <time>2023-01-12T10:09:45.667Z</time>
      </trkpt>
      <trkpt lat="43.51128" lon="3.3952">
        <ele>109.5</ele>
        <time>2023-01-12T10:09:54.907Z</time>
      </trkpt>
      <trkpt lat="43.51127" lon="3.39537">
        <ele>109.5</ele>
        <time>2023-01-12T10:10:04.256Z</time>
      </trkpt>
      <trkpt lat="43.51127" lon="3.39551">
        <ele>109.6</ele>
        <time>2023-01-12T10:10:13.606Z</time>
      </trkpt>
      <trkpt lat="43.51127" lon="3.39565">
        <ele>109.4</ele>
        <time>2023-01-12T10:10:22.965Z</time>
      </trkpt>
      <trkpt lat="43.51125" lon="3.39578">
        <ele>108.6</ele>
        <time>2023-01-12T10:10:32.316Z</time>
      </trkpt>
      <trkpt lat="43.51125" lon="3.39591">
        <ele>108.3</ele>
        <time>2023-01-12T10:10:41.665Z</time>
      </trkpt>
      <trkpt lat="43.51127" lon="3.39605">
        <ele>108.2</ele>
        <time>2023-01-12T10:10:51.014Z</time>
      </trkpt>
      <trkpt lat="43.51133" lon="3.39613">
        <ele>108.5</ele>
        <time>2023-01-12T10:11:00.253Z</time>
      </trkpt>
      <trkpt lat="43.51141" lon="3.39618">
        <ele>108.7</ele>
        <time>2023-01-12T10:11:09.604Z</time>
      </trkpt>
      <trkpt lat="43.51146" lon="3.39629">
        <ele>108.4</ele>
        <time>2023-01-12T10:11:18.952Z</time>
      </trkpt>
      <trkpt lat="43.51147" lon="3.3964">
        <ele>107.9</ele>
        <time>2023-01-12T10:11:28.303Z</time>
      </trkpt>
      <trkpt lat="43.51148" lon="3.39646">
        <ele>107.5</ele>
        <time>2023-01-12T10:11:37.651Z</time>
      </trkpt>
      <trkpt lat="43.51148" lon="3.3966">
        <ele>106.7</ele>
        <time>2023-01-12T10:11:46.892Z</time>
      </trkpt>
      <trkpt lat="43.51152" lon="3.39672">
        <ele>106.4</ele>
        <time>2023-01-12T10:11:56.767Z</time>
      </trkpt>
      <trkpt lat="43.51157" lon="3.39682">
        <ele>105.9</ele>
        <time>2023-01-12T10:12:06.140Z</time>
      </trkpt>
      <trkpt lat="43.51162" lon="3.39691">
        <ele>105.6</ele>
        <time>2023-01-12T10:12:15.491Z</time>
      </trkpt>
      <trkpt lat="43.51164" lon="3.39697">
        <ele>105.5</ele>
        <time>2023-01-12T10:12:24.806Z</time>
      </trkpt>
      <trkpt lat="43.51173" lon="3.39705">
        <ele>106</ele>
        <time>2023-01-12T10:12:34.189Z</time>
      </trkpt>
      <trkpt lat="43.51179" lon="3.39712">
        <ele>106.1</ele>
        <time>2023-01-12T10:12:43.525Z</time>
      </trkpt>
      <trkpt lat="43.51182" lon="3.39724">
        <ele>105.6</ele>
        <time>2023-01-12T10:12:52.778Z</time>
      </trkpt>
      <trkpt lat="43.51185" lon="3.39732">
        <ele>105.2</ele>
        <time>2023-01-12T10:13:02.128Z</time>
      </trkpt>
      <trkpt lat="43.51187" lon="3.3974">
        <ele>104.9</ele>
        <time>2023-01-12T10:13:11.478Z</time>
      </trkpt>
      <trkpt lat="43.51188" lon="3.39752">
        <ele>104.3</ele>
        <time>2023-01-12T10:13:20.828Z</time>
      </trkpt>
      <trkpt lat="43.51189" lon="3.39762">
        <ele>104.4</ele>
        <time>2023-01-12T10:13:30.729Z</time>
      </trkpt>
      <trkpt lat="43.51187" lon="3.39773">
        <ele>104</ele>
        <time>2023-01-12T10:13:40.075Z</time>
      </trkpt>
      <trkpt lat="43.51184" lon="3.39789">
        <ele>103.8</ele>
        <time>2023-01-12T10:13:49.425Z</time>
      </trkpt>
      <trkpt lat="43.51182" lon="3.398">
        <ele>103.6</ele>
        <time>2023-01-12T10:13:58.775Z</time>
      </trkpt>
      <trkpt lat="43.51185" lon="3.39812">
        <ele>104.3</ele>
        <time>2023-01-12T10:14:08.014Z</time>
      </trkpt>
      <trkpt lat="43.51184" lon="3.39825">
        <ele>104.4</ele>
        <time>2023-01-12T10:14:17.253Z</time>
      </trkpt>
      <trkpt lat="43.51182" lon="3.39836">
        <ele>104.2</ele>
        <time>2023-01-12T10:14:26.601Z</time>
      </trkpt>
      <trkpt lat="43.51182" lon="3.39847">
        <ele>104.2</ele>
        <time>2023-01-12T10:14:35.952Z</time>
      </trkpt>
      <trkpt lat="43.51182" lon="3.39861">
        <ele>104.2</ele>
        <time>2023-01-12T10:14:45.301Z</time>
      </trkpt>
      <trkpt lat="43.5118" lon="3.39875">
        <ele>103.4</ele>
        <time>2023-01-12T10:14:54.649Z</time>
      </trkpt>
      <trkpt lat="43.51181" lon="3.3989">
        <ele>103.1</ele>
        <time>2023-01-12T10:15:03.998Z</time>
      </trkpt>
      <trkpt lat="43.5118" lon="3.39905">
        <ele>103.3</ele>
        <time>2023-01-12T10:15:13.237Z</time>
      </trkpt>
      <trkpt lat="43.5118" lon="3.39918">
        <ele>103.5</ele>
        <time>2023-01-12T10:15:22.587Z</time>
      </trkpt>
      <trkpt lat="43.51179" lon="3.39933">
        <ele>103.3</ele>
        <time>2023-01-12T10:15:31.936Z</time>
      </trkpt>
      <trkpt lat="43.51175" lon="3.39946">
        <ele>102.9</ele>
        <time>2023-01-12T10:15:41.286Z</time>
      </trkpt>
      <trkpt lat="43.51169" lon="3.39965">
        <ele>102.8</ele>
      </trkpt>
      <trkpt lat="43.51163" lon="3.39982">
        <ele>102.7</ele>
      </trkpt>
      <trkpt lat="43.51156" lon="3.40004">
        <ele>102.5</ele>
      </trkpt>
      <trkpt lat="43.51148" lon="3.40027">
        <ele>102.6</ele>
      </trkpt>
      <trkpt lat="43.51142" lon="3.40044">
        <ele>102.7</ele>
      </trkpt>
      <trkpt lat="43.51135" lon="3.40066">
        <ele>102.6</ele>
        <time>2023-01-12T10:18:06.086Z</time>
      </trkpt>
      <trkpt lat="43.5113" lon="3.40079">
        <ele>102.5</ele>
        <time>2023-01-12T10:18:15.481Z</time>
      </trkpt>
      <trkpt lat="43.51124" lon="3.40093">
        <ele>102.6</ele>
        <time>2023-01-12T10:18:24.830Z</time>
      </trkpt>
      <trkpt lat="43.51119" lon="3.40107">
        <ele>102.9</ele>
        <time>2023-01-12T10:18:34.161Z</time>
      </trkpt>
      <trkpt lat="43.51113" lon="3.4012">
        <ele>103</ele>
        <time>2023-01-12T10:18:43.529Z</time>
      </trkpt>
      <trkpt lat="43.51108" lon="3.40132">
        <ele>102.9</ele>
        <time>2023-01-12T10:18:52.878Z</time>
      </trkpt>
      <trkpt lat="43.51104" lon="3.40144">
        <ele>103</ele>
        <time>2023-01-12T10:19:02.116Z</time>
      </trkpt>
      <trkpt lat="43.51101" lon="3.40158">
        <ele>103</ele>
        <time>2023-01-12T10:19:11.465Z</time>
      </trkpt>
      <trkpt lat="43.51098" lon="3.40174">
        <ele>103</ele>
        <time>2023-01-12T10:19:20.815Z</time>
      </trkpt>
      <trkpt lat="43.51097" lon="3.40186">
        <ele>103</ele>
        <time>2023-01-12T10:19:30.163Z</time>
      </trkpt>
      <trkpt lat="43.51092" lon="3.40201">
        <ele>103</ele>
        <time>2023-01-12T10:19:39.512Z</time>
      </trkpt>
      <trkpt lat="43.51086" lon="3.40213">
        <ele>103</ele>
        <time>2023-01-12T10:19:48.861Z</time>
      </trkpt>
      <trkpt lat="43.51079" lon="3.40223">
        <ele>103</ele>
        <time>2023-01-12T10:19:58.210Z</time>
      </trkpt>
      <trkpt lat="43.5107" lon="3.40232">
        <ele>103</ele>
        <time>2023-01-12T10:20:07.558Z</time>
      </trkpt>
      <trkpt lat="43.51063" lon="3.4024">
        <ele>103</ele>
        <time>2023-01-12T10:20:16.908Z</time>
      </trkpt>
      <trkpt lat="43.5106" lon="3.40245">
        <ele>103</ele>
        <time>2023-01-12T10:20:26.256Z</time>
      </trkpt>
      <trkpt lat="43.5105" lon="3.40252">
        <ele>103</ele>
        <time>2023-01-12T10:20:35.605Z</time>
      </trkpt>
      <trkpt lat="43.51048" lon="3.40253">
        <ele>103</ele>
        <time>2023-01-12T10:20:44.945Z</time>
      </trkpt>
      <trkpt lat="43.51036" lon="3.4026">
        <ele>103</ele>
        <time>2023-01-12T10:20:54.825Z</time>
      </trkpt>
      <trkpt lat="43.51029" lon="3.40272">
        <ele>103</ele>
        <time>2023-01-12T10:21:04.201Z</time>
      </trkpt>
      <trkpt lat="43.51025" lon="3.40287">
        <ele>103</ele>
        <time>2023-01-12T10:21:13.548Z</time>
      </trkpt>
      <trkpt lat="43.51018" lon="3.40297">
        <ele>103</ele>
        <time>2023-01-12T10:21:22.898Z</time>
      </trkpt>
      <trkpt lat="43.5101" lon="3.40308">
        <ele>103</ele>
        <time>2023-01-12T10:21:32.246Z</time>
      </trkpt>
      <trkpt lat="43.51002" lon="3.4032">
        <ele>103</ele>
        <time>2023-01-12T10:21:41.595Z</time>
      </trkpt>
      <trkpt lat="43.50996" lon="3.40332">
        <ele>103</ele>
        <time>2023-01-12T10:21:50.833Z</time>
      </trkpt>
      <trkpt lat="43.50988" lon="3.40339">
        <ele>103</ele>
        <time>2023-01-12T10:22:00.184Z</time>
      </trkpt>
      <trkpt lat="43.50984" lon="3.40349">
        <ele>103</ele>
        <time>2023-01-12T10:22:09.532Z</time>
      </trkpt>
      <trkpt lat="43.50975" lon="3.40359">
        <ele>103</ele>
        <time>2023-01-12T10:22:18.880Z</time>
      </trkpt>
      <trkpt lat="43.50967" lon="3.40373">
        <ele>102.8</ele>
        <time>2023-01-12T10:22:28.779Z</time>
      </trkpt>
      <trkpt lat="43.5096" lon="3.40386">
        <ele>102.6</ele>
        <time>2023-01-12T10:22:38.128Z</time>
      </trkpt>
      <trkpt lat="43.50955" lon="3.40399">
        <ele>102.2</ele>
        <time>2023-01-12T10:22:47.478Z</time>
      </trkpt>
      <trkpt lat="43.50948" lon="3.40409">
        <ele>102</ele>
        <time>2023-01-12T10:22:56.827Z</time>
      </trkpt>
      <trkpt lat="43.50943" lon="3.40422">
        <ele>102</ele>
        <time>2023-01-12T10:23:06.175Z</time>
      </trkpt>
      <trkpt lat="43.50937" lon="3.40435">
        <ele>102</ele>
        <time>2023-01-12T10:23:15.525Z</time>
      </trkpt>
      <trkpt lat="43.50929" lon="3.40445">
        <ele>102</ele>
        <time>2023-01-12T10:23:24.875Z</time>
      </trkpt>
      <trkpt lat="43.50919" lon="3.40453">
        <ele>101.6</ele>
        <time>2023-01-12T10:23:34.224Z</time>
      </trkpt>
      <trkpt lat="43.50912" lon="3.40463">
        <ele>101.3</ele>
        <time>2023-01-12T10:23:43.572Z</time>
      </trkpt>
      <trkpt lat="43.50907" lon="3.40467">
        <ele>101.2</ele>
        <time>2023-01-12T10:23:52.922Z</time>
      </trkpt>
      <trkpt lat="43.50901" lon="3.40477">
        <ele>100.4</ele>
        <time>2023-01-12T10:24:02.270Z</time>
      </trkpt>
      <trkpt lat="43.50902" lon="3.40479">
        <ele>100.2</ele>
        <time>2023-01-12T10:24:11.510Z</time>
      </trkpt>
      <trkpt lat="43.50903" lon="3.40478">
        <ele>100.3</ele>
        <time>2023-01-12T10:24:20.859Z</time>
      </trkpt>
      <trkpt lat="43.50902" lon="3.40479">
        <ele>100.2</ele>
        <time>2023-01-12T10:24:57.718Z</time>
      </trkpt>
      <trkpt lat="43.50901" lon="3.40483">
        <ele>99.7</ele>
        <time>2023-01-12T10:25:07.617Z</time>
      </trkpt>
      <trkpt lat="43.509" lon="3.40483">
        <ele>99.8</ele>
        <time>2023-01-12T10:25:23.568Z</time>
      </trkpt>
      <trkpt lat="43.50891" lon="3.40487">
        <ele>99.9</ele>
        <time>2023-01-12T10:25:32.884Z</time>
      </trkpt>
      <trkpt lat="43.50887" lon="3.4049">
        <ele>99.9</ele>
        <time>2023-01-12T10:25:42.818Z</time>
      </trkpt>
      <trkpt lat="43.50878" lon="3.40507">
        <ele>99.6</ele>
        <time>2023-01-12T10:25:52.168Z</time>
      </trkpt>
      <trkpt lat="43.50873" lon="3.40519">
        <ele>99.8</ele>
        <time>2023-01-12T10:26:01.407Z</time>
      </trkpt>
      <trkpt lat="43.50864" lon="3.40534">
        <ele>100.4</ele>
        <time>2023-01-12T10:26:10.757Z</time>
      </trkpt>
      <trkpt lat="43.50859" lon="3.40545">
        <ele>100.4</ele>
        <time>2023-01-12T10:26:20.106Z</time>
      </trkpt>
      <trkpt lat="43.50847" lon="3.40552">
        <ele>100.6</ele>
        <time>2023-01-12T10:26:29.454Z</time>
      </trkpt>
      <trkpt lat="43.50837" lon="3.40559">
        <ele>100.5</ele>
        <time>2023-01-12T10:26:38.804Z</time>
      </trkpt>
      <trkpt lat="43.50829" lon="3.40569">
        <ele>99.8</ele>
        <time>2023-01-12T10:26:48.153Z</time>
      </trkpt>
      <trkpt lat="43.5082" lon="3.40578">
        <ele>99.4</ele>
        <time>2023-01-12T10:26:57.503Z</time>
      </trkpt>
      <trkpt lat="43.50809" lon="3.40584">
        <ele>99.7</ele>
        <time>2023-01-12T10:27:06.854Z</time>
      </trkpt>
      <trkpt lat="43.50802" lon="3.40593">
        <ele>99.1</ele>
        <time>2023-01-12T10:27:16.202Z</time>
      </trkpt>
      <trkpt lat="43.50793" lon="3.406">
        <ele>98.9</ele>
        <time>2023-01-12T10:27:25.553Z</time>
      </trkpt>
      <trkpt lat="43.50783" lon="3.40605">
        <ele>99.1</ele>
        <time>2023-01-12T10:27:34.902Z</time>
      </trkpt>
      <trkpt lat="43.50784" lon="3.40605">
        <ele>99</ele>
        <time>2023-01-12T10:27:48.111Z</time>
      </trkpt>
      <trkpt lat="43.5078" lon="3.40616">
        <ele>97.8</ele>
        <time>2023-01-12T10:27:57.462Z</time>
      </trkpt>
      <trkpt lat="43.50768" lon="3.40619">
        <ele>97.5</ele>
        <time>2023-01-12T10:28:06.671Z</time>
      </trkpt>
      <trkpt lat="43.50756" lon="3.40621">
        <ele>97.4</ele>
        <time>2023-01-12T10:28:15.672Z</time>
      </trkpt>
      <trkpt lat="43.50746" lon="3.40618">
        <ele>98.1</ele>
        <time>2023-01-12T10:28:24.681Z</time>
      </trkpt>
      <trkpt lat="43.50737" lon="3.40619">
        <ele>98.5</ele>
        <time>2023-01-12T10:28:33.782Z</time>
      </trkpt>
      <trkpt lat="43.50726" lon="3.40617">
        <ele>99.2</ele>
        <time>2023-01-12T10:28:43.282Z</time>
      </trkpt>
      <trkpt lat="43.50717" lon="3.40626">
        <ele>98.6</ele>
        <time>2023-01-12T10:28:52.381Z</time>
      </trkpt>
      <trkpt lat="43.50708" lon="3.40631">
        <ele>98.6</ele>
        <time>2023-01-12T10:29:01.441Z</time>
      </trkpt>
      <trkpt lat="43.507" lon="3.40639">
        <ele>98.6</ele>
        <time>2023-01-12T10:29:10.481Z</time>
      </trkpt>
      <trkpt lat="43.50689" lon="3.40644">
        <ele>99.2</ele>
        <time>2023-01-12T10:29:19.632Z</time>
      </trkpt>
      <trkpt lat="43.50679" lon="3.40646">
        <ele>99.5</ele>
        <time>2023-01-12T10:29:28.963Z</time>
      </trkpt>
      <trkpt lat="43.50668" lon="3.40623">
        <ele>100</ele>
        <time>2023-01-12T10:29:57.562Z</time>
      </trkpt>
      <trkpt lat="43.50668" lon="3.40624">
        <ele>100</ele>
        <time>2023-01-12T10:30:08.561Z</time>
      </trkpt>
      <trkpt lat="43.50672" lon="3.40655">
        <ele>99.8</ele>
        <time>2023-01-12T10:34:19.915Z</time>
      </trkpt>
      <trkpt lat="43.50674" lon="3.40664">
        <ele>99.7</ele>
        <time>2023-01-12T10:34:29.265Z</time>
      </trkpt>
      <trkpt lat="43.50672" lon="3.40676">
        <ele>99.5</ele>
        <time>2023-01-12T10:34:38.614Z</time>
      </trkpt>
      <trkpt lat="43.50666" lon="3.40688">
        <ele>99.3</ele>
        <time>2023-01-12T10:34:47.963Z</time>
      </trkpt>
      <trkpt lat="43.50656" lon="3.40695">
        <ele>99.4</ele>
        <time>2023-01-12T10:34:57.312Z</time>
      </trkpt>
      <trkpt lat="43.50653" lon="3.40709">
        <ele>99.2</ele>
        <time>2023-01-12T10:35:06.660Z</time>
      </trkpt>
      <trkpt lat="43.50656" lon="3.40722">
        <ele>99</ele>
        <time>2023-01-12T10:35:15.979Z</time>
      </trkpt>
      <trkpt lat="43.50649" lon="3.40726">
        <ele>98.9</ele>
        <time>2023-01-12T10:35:25.908Z</time>
      </trkpt>
      <trkpt lat="43.50647" lon="3.40731">
        <ele>98.7</ele>
        <time>2023-01-12T10:35:35.258Z</time>
      </trkpt>
      <trkpt lat="43.50642" lon="3.40743">
        <ele>98.2</ele>
        <time>2023-01-12T10:35:44.607Z</time>
      </trkpt>
      <trkpt lat="43.50644" lon="3.40757">
        <ele>97.9</ele>
        <time>2023-01-12T10:35:53.957Z</time>
      </trkpt>
      <trkpt lat="43.50643" lon="3.40772">
        <ele>97.8</ele>
        <time>2023-01-12T10:36:03.822Z</time>
      </trkpt>
      <trkpt lat="43.50644" lon="3.40787">
        <ele>97.4</ele>
        <time>2023-01-12T10:36:13.205Z</time>
      </trkpt>
      <trkpt lat="43.50643" lon="3.408">
        <ele>97</ele>
        <time>2023-01-12T10:36:22.521Z</time>
      </trkpt>
      <trkpt lat="43.50641" lon="3.40811">
        <ele>97.1</ele>
        <time>2023-01-12T10:36:31.904Z</time>
      </trkpt>
      <trkpt lat="43.50642" lon="3.40825">
        <ele>97.5</ele>
        <time>2023-01-12T10:36:41.791Z</time>
      </trkpt>
      <trkpt lat="43.50639" lon="3.40844">
        <ele>98.3</ele>
        <time>2023-01-12T10:36:51.745Z</time>
      </trkpt>
      <trkpt lat="43.50638" lon="3.4086">
        <ele>98.9</ele>
        <time>2023-01-12T10:37:01.069Z</time>
      </trkpt>
      <trkpt lat="43.50639" lon="3.40866">
        <ele>99</ele>
        <time>2023-01-12T10:37:10.417Z</time>
      </trkpt>
      <trkpt lat="43.50633" lon="3.4088">
        <ele>98.5</ele>
        <time>2023-01-12T10:37:19.753Z</time>
      </trkpt>
      <trkpt lat="43.50629" lon="3.40898">
        <ele>97.8</ele>
        <time>2023-01-12T10:37:29.114Z</time>
      </trkpt>
      <trkpt lat="43.50628" lon="3.40901">
        <ele>97.7</ele>
        <time>2023-01-12T10:37:38.462Z</time>
      </trkpt>
      <trkpt lat="43.50627" lon="3.40899">
        <ele>97.7</ele>
        <time>2023-01-12T10:37:47.811Z</time>
      </trkpt>
      <trkpt lat="43.50627" lon="3.409">
        <ele>97.7</ele>
        <time>2023-01-12T10:37:59.907Z</time>
      </trkpt>
      <trkpt lat="43.50626" lon="3.40907">
        <ele>97.4</ele>
        <time>2023-01-12T10:38:09.805Z</time>
      </trkpt>
      <trkpt lat="43.50625" lon="3.40908">
        <ele>97.3</ele>
        <time>2023-01-12T10:38:22.453Z</time>
      </trkpt>
      <trkpt lat="43.5062" lon="3.40924">
        <ele>96.8</ele>
        <time>2023-01-12T10:38:53.798Z</time>
      </trkpt>
      <trkpt lat="43.50614" lon="3.40941">
        <ele>96.8</ele>
        <time>2023-01-12T10:39:03.695Z</time>
      </trkpt>
      <trkpt lat="43.50609" lon="3.40953">
        <ele>96.7</ele>
        <time>2023-01-12T10:39:13.074Z</time>
      </trkpt>
      <trkpt lat="43.50604" lon="3.40967">
        <ele>96.4</ele>
        <time>2023-01-12T10:39:22.972Z</time>
      </trkpt>
      <trkpt lat="43.50599" lon="3.40981">
        <ele>95.9</ele>
        <time>2023-01-12T10:39:32.330Z</time>
      </trkpt>
      <trkpt lat="43.50596" lon="3.40995">
        <ele>95.5</ele>
        <time>2023-01-12T10:39:41.678Z</time>
      </trkpt>
      <trkpt lat="43.50591" lon="3.41009">
        <ele>95.7</ele>
        <time>2023-01-12T10:39:50.979Z</time>
      </trkpt>
      <trkpt lat="43.5059" lon="3.41022">
        <ele>95.3</ele>
        <time>2023-01-12T10:40:00.375Z</time>
      </trkpt>
      <trkpt lat="43.50586" lon="3.41038">
        <ele>95.5</ele>
        <time>2023-01-12T10:40:09.723Z</time>
      </trkpt>
      <trkpt lat="43.50581" lon="3.4105">
        <ele>96.1</ele>
        <time>2023-01-12T10:40:19.082Z</time>
      </trkpt>
      <trkpt lat="43.50577" lon="3.41065">
        <ele>96.2</ele>
        <time>2023-01-12T10:40:28.439Z</time>
      </trkpt>
      <trkpt lat="43.50574" lon="3.41079">
        <ele>96.1</ele>
        <time>2023-01-12T10:40:37.788Z</time>
      </trkpt>
      <trkpt lat="43.50569" lon="3.41092">
        <ele>95.7</ele>
        <time>2023-01-12T10:40:47.146Z</time>
      </trkpt>
      <trkpt lat="43.50566" lon="3.41105">
        <ele>95.4</ele>
        <time>2023-01-12T10:40:56.493Z</time>
      </trkpt>
      <trkpt lat="43.5057" lon="3.41115">
        <ele>95</ele>
        <time>2023-01-12T10:41:05.862Z</time>
      </trkpt>
      <trkpt lat="43.50584" lon="3.41109">
        <ele>93.9</ele>
      </trkpt>
      <trkpt lat="43.506" lon="3.41102">
        <ele>90.3</ele>
      </trkpt>
      <trkpt lat="43.50618" lon="3.41093">
        <ele>86.1</ele>
      </trkpt>
      <trkpt lat="43.5063" lon="3.4108">
        <ele>84</ele>
      </trkpt>
      <trkpt lat="43.50637" lon="3.41059">
        <ele>83.3</ele>
      </trkpt>
      <trkpt lat="43.50654" lon="3.41042">
        <ele>80.7</ele>
      </trkpt>
      <trkpt lat="43.50663" lon="3.41018">
        <ele>80.8</ele>
      </trkpt>
      <trkpt lat="43.50673" lon="3.4101">
        <ele>79.6</ele>
      </trkpt>
      <trkpt lat="43.50678" lon="3.40999">
        <ele>79.6</ele>
      </trkpt>
      <trkpt lat="43.50699" lon="3.41016">
        <ele>73.7</ele>
      </trkpt>
      <trkpt lat="43.50715" lon="3.41039">
        <ele>70.1</ele>
      </trkpt>
      <trkpt lat="43.50699" lon="3.41068">
        <ele>71.3</ele>
      </trkpt>
      <trkpt lat="43.50696" lon="3.41106">
        <ele>71</ele>
      </trkpt>
      <trkpt lat="43.50689" lon="3.41126">
        <ele>70.3</ele>
      </trkpt>
      <trkpt lat="43.50678" lon="3.41142">
        <ele>71.5</ele>
      </trkpt>
      <trkpt lat="43.50703" lon="3.41138">
        <ele>66.9</ele>
      </trkpt>
      <trkpt lat="43.50719" lon="3.41118">
        <ele>65.4</ele>
      </trkpt>
      <trkpt lat="43.50732" lon="3.41107">
        <ele>64.6</ele>
      </trkpt>
      <trkpt lat="43.50745" lon="3.41091">
        <ele>63.8</ele>
      </trkpt>
      <trkpt lat="43.50764" lon="3.41108">
        <ele>61.6</ele>
      </trkpt>
      <trkpt lat="43.5079" lon="3.41131">
        <ele>59.7</ele>
      </trkpt>
      <trkpt lat="43.50813" lon="3.41156">
        <ele>58.3</ele>
      </trkpt>
      <trkpt lat="43.50834" lon="3.41185">
        <ele>57.3</ele>
      </trkpt>
      <trkpt lat="43.50846" lon="3.41212">
        <ele>56.4</ele>
      </trkpt>
      <trkpt lat="43.50839" lon="3.4125">
        <ele>56</ele>
      </trkpt>
      <trkpt lat="43.50853" lon="3.41265">
        <ele>56.2</ele>
      </trkpt>
      <trkpt lat="43.50846" lon="3.41292">
        <ele>56.4</ele>
      </trkpt>
      <trkpt lat="43.50828" lon="3.41308">
        <ele>56.6</ele>
      </trkpt>
      <trkpt lat="43.50803" lon="3.41343">
        <ele>55.8</ele>
      </trkpt>
      <trkpt lat="43.50781" lon="3.41378">
        <ele>55.2</ele>
      </trkpt>
      <trkpt lat="43.50759" lon="3.41421">
        <ele>54.3</ele>
      </trkpt>
      <trkpt lat="43.50745" lon="3.41458">
        <ele>53.9</ele>
      </trkpt>
      <trkpt lat="43.50735" lon="3.41498">
        <ele>53.9</ele>
      </trkpt>
      <trkpt lat="43.50719" lon="3.41564">
        <ele>54</ele>
      </trkpt>
      <trkpt lat="43.50705" lon="3.4162">
        <ele>52.3</ele>
      </trkpt>
      <trkpt lat="43.50681" lon="3.41671">
        <ele>51.5</ele>
      </trkpt>
      <trkpt lat="43.50657" lon="3.41706">
        <ele>51.3</ele>
      </trkpt>
      <trkpt lat="43.50632" lon="3.41764">
        <ele>50.8</ele>
      </trkpt>
      <trkpt lat="43.50625" lon="3.41807">
        <ele>49.5</ele>
      </trkpt>
      <trkpt lat="43.5062" lon="3.41844">
        <ele>49</ele>
      </trkpt>
      <trkpt lat="43.50632" lon="3.41888">
        <ele>49.7</ele>
      </trkpt>
      <trkpt lat="43.50626" lon="3.4193">
        <ele>48.6</ele>
      </trkpt>
      <trkpt lat="43.50618" lon="3.41968">
        <ele>48.3</ele>
      </trkpt>
      <trkpt lat="43.50612" lon="3.42017">
        <ele>47.1</ele>
      </trkpt>
      <trkpt lat="43.50608" lon="3.42061">
        <ele>47.3</ele>
      </trkpt>
      <trkpt lat="43.50617" lon="3.42087">
        <ele>47.2</ele>
      </trkpt>
      <trkpt lat="43.50625" lon="3.42121">
        <ele>46.8</ele>
      </trkpt>
      <trkpt lat="43.50632" lon="3.42154">
        <ele>47.4</ele>
      </trkpt>
      <trkpt lat="43.50631" lon="3.42186">
        <ele>46.9</ele>
      </trkpt>
      <trkpt lat="43.50639" lon="3.42228">
        <ele>46.8</ele>
        <time>2023-01-12T12:19:34.942Z</time>
      </trkpt>
      <trkpt lat="43.50641" lon="3.42253">
        <ele>46</ele>
        <time>2023-01-12T12:21:16.244Z</time>
      </trkpt>
      <trkpt lat="43.50641" lon="3.4229">
        <ele>45</ele>
        <time>2023-01-12T12:21:34.728Z</time>
      </trkpt>
      <trkpt lat="43.50647" lon="3.42293">
        <ele>45.1</ele>
        <time>2023-01-12T12:21:44.228Z</time>
      </trkpt>
      <trkpt lat="43.50649" lon="3.42307">
        <ele>45</ele>
        <time>2023-01-12T12:21:53.729Z</time>
      </trkpt>
      <trkpt lat="43.50651" lon="3.42307">
        <ele>45</ele>
        <time>2023-01-12T12:22:03.228Z</time>
      </trkpt>
      <trkpt lat="43.50652" lon="3.42313">
        <ele>44.9</ele>
        <time>2023-01-12T12:22:12.728Z</time>
      </trkpt>
      <trkpt lat="43.50658" lon="3.42324">
        <ele>44.6</ele>
        <time>2023-01-12T12:22:21.729Z</time>
      </trkpt>
      <trkpt lat="43.50657" lon="3.42323">
        <ele>44.6</ele>
        <time>2023-01-12T12:22:30.839Z</time>
      </trkpt>
      <trkpt lat="43.50656" lon="3.42323">
        <ele>44.6</ele>
        <time>2023-01-12T12:22:40.908Z</time>
      </trkpt>
      <trkpt lat="43.50657" lon="3.42327">
        <ele>44.5</ele>
        <time>2023-01-12T12:22:50.908Z</time>
      </trkpt>
      <trkpt lat="43.50659" lon="3.42328">
        <ele>44.4</ele>
        <time>2023-01-12T12:23:11.427Z</time>
      </trkpt>
      <trkpt lat="43.50666" lon="3.42335">
        <ele>44</ele>
        <time>2023-01-12T12:23:20.743Z</time>
      </trkpt>
      <trkpt lat="43.5067" lon="3.42353">
        <ele>44.2</ele>
        <time>2023-01-12T12:23:30.643Z</time>
      </trkpt>
      <trkpt lat="43.50671" lon="3.42364">
        <ele>44.1</ele>
        <time>2023-01-12T12:23:39.775Z</time>
      </trkpt>
      <trkpt lat="43.50675" lon="3.42371">
        <ele>44.2</ele>
        <time>2023-01-12T12:23:48.776Z</time>
      </trkpt>
      <trkpt lat="43.5068" lon="3.42386">
        <ele>44.1</ele>
        <time>2023-01-12T12:23:57.875Z</time>
      </trkpt>
      <trkpt lat="43.50678" lon="3.42403">
        <ele>43.8</ele>
        <time>2023-01-12T12:24:06.877Z</time>
      </trkpt>
      <trkpt lat="43.5067" lon="3.42414">
        <ele>43.9</ele>
        <time>2023-01-12T12:24:16.376Z</time>
      </trkpt>
      <trkpt lat="43.50677" lon="3.42433">
        <ele>43.6</ele>
        <time>2023-01-12T12:24:25.377Z</time>
      </trkpt>
      <trkpt lat="43.50676" lon="3.42437">
        <ele>43.6</ele>
        <time>2023-01-12T12:24:34.876Z</time>
      </trkpt>
      <trkpt lat="43.50681" lon="3.42451">
        <ele>43.5</ele>
        <time>2023-01-12T12:24:43.977Z</time>
      </trkpt>
      <trkpt lat="43.50684" lon="3.42463">
        <ele>43.3</ele>
        <time>2023-01-12T12:24:52.988Z</time>
      </trkpt>
      <trkpt lat="43.5069" lon="3.42466">
        <ele>42.6</ele>
        <time>2023-01-12T12:25:02.488Z</time>
      </trkpt>
      <trkpt lat="43.50688" lon="3.42468">
        <ele>42.8</ele>
        <time>2023-01-12T12:25:11.988Z</time>
      </trkpt>
      <trkpt lat="43.50687" lon="3.42468">
        <ele>42.9</ele>
        <time>2023-01-12T12:25:23.908Z</time>
      </trkpt>
      <trkpt lat="43.50688" lon="3.42468">
        <ele>42.8</ele>
        <time>2023-01-12T12:26:37.371Z</time>
      </trkpt>
      <trkpt lat="43.50696" lon="3.42474">
        <ele>42.1</ele>
        <time>2023-01-12T12:26:46.372Z</time>
      </trkpt>
      <trkpt lat="43.50696" lon="3.42471">
        <ele>42</ele>
        <time>2023-01-12T12:26:55.373Z</time>
      </trkpt>
      <trkpt lat="43.507" lon="3.42468">
        <ele>42.2</ele>
        <time>2023-01-12T12:27:04.983Z</time>
      </trkpt>
      <trkpt lat="43.50706" lon="3.42469">
        <ele>42.2</ele>
        <time>2023-01-12T12:27:14.484Z</time>
      </trkpt>
      <trkpt lat="43.50716" lon="3.42464">
        <ele>42.5</ele>
        <time>2023-01-12T12:27:23.685Z</time>
      </trkpt>
      <trkpt lat="43.50728" lon="3.42463">
        <ele>42.7</ele>
        <time>2023-01-12T12:27:33.185Z</time>
      </trkpt>
      <trkpt lat="43.50737" lon="3.42462">
        <ele>42.7</ele>
        <time>2023-01-12T12:27:42.686Z</time>
      </trkpt>
      <trkpt lat="43.50748" lon="3.42459">
        <ele>42.9</ele>
        <time>2023-01-12T12:27:51.785Z</time>
      </trkpt>
      <trkpt lat="43.50759" lon="3.42457">
        <ele>43.1</ele>
        <time>2023-01-12T12:28:00.786Z</time>
      </trkpt>
      <trkpt lat="43.50769" lon="3.42453">
        <ele>43.4</ele>
        <time>2023-01-12T12:28:10.287Z</time>
      </trkpt>
      <trkpt lat="43.50779" lon="3.42449">
        <ele>43.6</ele>
        <time>2023-01-12T12:28:19.787Z</time>
      </trkpt>
      <trkpt lat="43.5079" lon="3.42447">
        <ele>43.8</ele>
        <time>2023-01-12T12:28:29.288Z</time>
      </trkpt>
      <trkpt lat="43.508" lon="3.42447">
        <ele>43.8</ele>
        <time>2023-01-12T12:28:38.789Z</time>
      </trkpt>
      <trkpt lat="43.50811" lon="3.42449">
        <ele>43.7</ele>
        <time>2023-01-12T12:28:48.288Z</time>
      </trkpt>
      <trkpt lat="43.50821" lon="3.42451">
        <ele>43.6</ele>
        <time>2023-01-12T12:28:57.789Z</time>
      </trkpt>
      <trkpt lat="43.50822" lon="3.42451">
        <ele>43.5</ele>
        <time>2023-01-12T12:29:16.890Z</time>
      </trkpt>
      <trkpt lat="43.50822" lon="3.4245">
        <ele>43.6</ele>
        <time>2023-01-12T12:29:48.907Z</time>
      </trkpt>
      <trkpt lat="43.50821" lon="3.42447">
        <ele>43.8</ele>
        <time>2023-01-12T12:29:58.392Z</time>
      </trkpt>
      <trkpt lat="43.5082" lon="3.42446">
        <ele>43.9</ele>
        <time>2023-01-12T12:30:17.851Z</time>
      </trkpt>
      <trkpt lat="43.50821" lon="3.42447">
        <ele>43.8</ele>
        <time>2023-01-12T12:31:10.907Z</time>
      </trkpt>
      <trkpt lat="43.50823" lon="3.42447">
        <ele>43.8</ele>
        <time>2023-01-12T12:31:19.908Z</time>
      </trkpt>
      <trkpt lat="43.50823" lon="3.42447">
        <ele>43.8</ele>
        <time>2023-01-12T12:32:35.711Z</time>
      </trkpt>
      <trkpt lat="43.50825" lon="3.42447">
        <ele>43.8</ele>
        <time>2023-01-12T12:32:45.021Z</time>
      </trkpt>
      <trkpt lat="43.5083" lon="3.42441">
        <ele>44.1</ele>
        <time>2023-01-12T12:32:54.411Z</time>
      </trkpt>
      <trkpt lat="43.50835" lon="3.42435">
        <ele>44.3</ele>
        <time>2023-01-12T12:33:03.761Z</time>
      </trkpt>
      <trkpt lat="43.50834" lon="3.42436">
        <ele>44.3</ele>
        <time>2023-01-12T12:33:22.907Z</time>
      </trkpt>
      <trkpt lat="43.50835" lon="3.42433">
        <ele>44.3</ele>
        <time>2023-01-12T12:34:32.907Z</time>
      </trkpt>
      <trkpt lat="43.50838" lon="3.42424">
        <ele>44.5</ele>
        <time>2023-01-12T12:34:42.759Z</time>
      </trkpt>
      <trkpt lat="43.50839" lon="3.42425">
        <ele>44.4</ele>
        <time>2023-01-12T12:34:52.659Z</time>
      </trkpt>
      <trkpt lat="43.5084" lon="3.42419">
        <ele>44.6</ele>
        <time>2023-01-12T12:35:01.985Z</time>
      </trkpt>
      <trkpt lat="43.50843" lon="3.42403">
        <ele>45.1</ele>
        <time>2023-01-12T12:35:11.358Z</time>
      </trkpt>
      <trkpt lat="43.50845" lon="3.42392">
        <ele>45.5</ele>
        <time>2023-01-12T12:35:20.707Z</time>
      </trkpt>
      <trkpt lat="43.50849" lon="3.42381">
        <ele>45.8</ele>
        <time>2023-01-12T12:35:30.018Z</time>
      </trkpt>
      <trkpt lat="43.50855" lon="3.42376">
        <ele>45.8</ele>
        <time>2023-01-12T12:35:39.968Z</time>
      </trkpt>
      <trkpt lat="43.50853" lon="3.42378">
        <ele>45.8</ele>
        <time>2023-01-12T12:35:49.323Z</time>
      </trkpt>
      <trkpt lat="43.50847" lon="3.42389">
        <ele>45.5</ele>
        <time>2023-01-12T12:35:58.667Z</time>
      </trkpt>
      <trkpt lat="43.50842" lon="3.42405">
        <ele>45.1</ele>
        <time>2023-01-12T12:36:08.018Z</time>
      </trkpt>
      <trkpt lat="43.50839" lon="3.42416">
        <ele>44.8</ele>
        <time>2023-01-12T12:36:17.168Z</time>
      </trkpt>
      <trkpt lat="43.50838" lon="3.42423">
        <ele>44.6</ele>
        <time>2023-01-12T12:36:26.498Z</time>
      </trkpt>
      <trkpt lat="43.50839" lon="3.4242">
        <ele>44.7</ele>
        <time>2023-01-12T12:36:35.847Z</time>
      </trkpt>
      <trkpt lat="43.50839" lon="3.42419">
        <ele>44.7</ele>
        <time>2023-01-12T12:36:45.907Z</time>
      </trkpt>
      <trkpt lat="43.50839" lon="3.42419">
        <ele>44.7</ele>
        <time>2023-01-12T12:38:13.908Z</time>
      </trkpt>
      <trkpt lat="43.50841" lon="3.42417">
        <ele>44.7</ele>
        <time>2023-01-12T12:39:33.164Z</time>
      </trkpt>
      <trkpt lat="43.50847" lon="3.42402">
        <ele>45</ele>
        <time>2023-01-12T12:39:42.513Z</time>
      </trkpt>
      <trkpt lat="43.50848" lon="3.42386">
        <ele>45.6</ele>
        <time>2023-01-12T12:39:51.823Z</time>
      </trkpt>
      <trkpt lat="43.50853" lon="3.42376">
        <ele>45.9</ele>
        <time>2023-01-12T12:40:00.924Z</time>
      </trkpt>
      <trkpt lat="43.50858" lon="3.42364">
        <ele>46.1</ele>
        <time>2023-01-12T12:40:10.124Z</time>
      </trkpt>
      <trkpt lat="43.50863" lon="3.42352">
        <ele>46.9</ele>
        <time>2023-01-12T12:40:19.223Z</time>
      </trkpt>
      <trkpt lat="43.50868" lon="3.42337">
        <ele>47.9</ele>
        <time>2023-01-12T12:40:28.225Z</time>
      </trkpt>
      <trkpt lat="43.50874" lon="3.42325">
        <ele>47.9</ele>
        <time>2023-01-12T12:40:37.724Z</time>
      </trkpt>
      <trkpt lat="43.5088" lon="3.42312">
        <ele>47.7</ele>
        <time>2023-01-12T12:40:46.725Z</time>
      </trkpt>
      <trkpt lat="43.50884" lon="3.423">
        <ele>48</ele>
        <time>2023-01-12T12:40:55.825Z</time>
      </trkpt>
      <trkpt lat="43.50888" lon="3.42286">
        <ele>48.6</ele>
        <time>2023-01-12T12:41:05.325Z</time>
      </trkpt>
      <trkpt lat="43.50892" lon="3.42272">
        <ele>49.2</ele>
        <time>2023-01-12T12:41:14.825Z</time>
      </trkpt>
      <trkpt lat="43.50894" lon="3.4226">
        <ele>49.8</ele>
        <time>2023-01-12T12:41:24.334Z</time>
      </trkpt>
      <trkpt lat="43.50899" lon="3.42248">
        <ele>50.1</ele>
        <time>2023-01-12T12:41:33.645Z</time>
      </trkpt>
      <trkpt lat="43.50904" lon="3.42235">
        <ele>50.1</ele>
        <time>2023-01-12T12:41:42.994Z</time>
      </trkpt>
      <trkpt lat="43.50909" lon="3.42222">
        <ele>50.2</ele>
        <time>2023-01-12T12:41:52.221Z</time>
      </trkpt>
      <trkpt lat="43.50912" lon="3.42208">
        <ele>51.1</ele>
        <time>2023-01-12T12:42:01.495Z</time>
      </trkpt>
      <trkpt lat="43.50916" lon="3.42194">
        <ele>52.1</ele>
        <time>2023-01-12T12:42:10.844Z</time>
      </trkpt>
      <trkpt lat="43.50919" lon="3.4218">
        <ele>52.6</ele>
        <time>2023-01-12T12:42:20.194Z</time>
      </trkpt>
      <trkpt lat="43.50923" lon="3.42167">
        <ele>52.8</ele>
        <time>2023-01-12T12:42:29.545Z</time>
      </trkpt>
      <trkpt lat="43.50926" lon="3.42158">
        <ele>52.8</ele>
        <time>2023-01-12T12:42:38.895Z</time>
      </trkpt>
      <trkpt lat="43.50928" lon="3.42158">
        <ele>52.4</ele>
        <time>2023-01-12T12:42:48.245Z</time>
      </trkpt>
      <trkpt lat="43.50931" lon="3.42141">
        <ele>52.8</ele>
        <time>2023-01-12T12:42:57.594Z</time>
      </trkpt>
      <trkpt lat="43.50937" lon="3.42127">
        <ele>52.7</ele>
        <time>2023-01-12T12:43:06.943Z</time>
      </trkpt>
      <trkpt lat="43.50944" lon="3.42114">
        <ele>52.8</ele>
        <time>2023-01-12T12:43:16.843Z</time>
      </trkpt>
      <trkpt lat="43.5095" lon="3.42101">
        <ele>53</ele>
        <time>2023-01-12T12:43:26.083Z</time>
      </trkpt>
      <trkpt lat="43.50955" lon="3.42087">
        <ele>53.3</ele>
        <time>2023-01-12T12:43:35.434Z</time>
      </trkpt>
      <trkpt lat="43.50962" lon="3.42076">
        <ele>52.7</ele>
        <time>2023-01-12T12:43:44.782Z</time>
      </trkpt>
      <trkpt lat="43.50966" lon="3.42066">
        <ele>52.5</ele>
        <time>2023-01-12T12:43:54.132Z</time>
      </trkpt>
      <trkpt lat="43.50972" lon="3.42051">
        <ele>52.6</ele>
        <time>2023-01-12T12:44:03.483Z</time>
      </trkpt>
      <trkpt lat="43.50978" lon="3.42037">
        <ele>53.1</ele>
        <time>2023-01-12T12:44:12.832Z</time>
      </trkpt>
      <trkpt lat="43.50984" lon="3.42023">
        <ele>52.7</ele>
        <time>2023-01-12T12:44:22.182Z</time>
      </trkpt>
      <trkpt lat="43.50992" lon="3.42014">
        <ele>51.3</ele>
        <time>2023-01-12T12:44:31.484Z</time>
      </trkpt>
      <trkpt lat="43.50994" lon="3.42015">
        <ele>50.7</ele>
        <time>2023-01-12T12:44:40.772Z</time>
      </trkpt>
      <trkpt lat="43.50994" lon="3.42017">
        <ele>50.8</ele>
        <time>2023-01-12T12:44:50.122Z</time>
      </trkpt>
      <trkpt lat="43.50995" lon="3.42018">
        <ele>50.5</ele>
        <time>2023-01-12T12:45:54.909Z</time>
      </trkpt>
      <trkpt lat="43.50996" lon="3.4202">
        <ele>50.1</ele>
        <time>2023-01-12T12:46:04.245Z</time>
      </trkpt>
      <trkpt lat="43.50998" lon="3.42029">
        <ele>49.6</ele>
        <time>2023-01-12T12:46:13.565Z</time>
      </trkpt>
      <trkpt lat="43.50995" lon="3.42048">
        <ele>50.9</ele>
        <time>2023-01-12T12:46:22.957Z</time>
      </trkpt>
      <trkpt lat="43.50993" lon="3.42064">
        <ele>51.2</ele>
        <time>2023-01-12T12:46:32.308Z</time>
      </trkpt>
      <trkpt lat="43.5099" lon="3.42078">
        <ele>51.1</ele>
        <time>2023-01-12T12:46:41.643Z</time>
      </trkpt>
      <trkpt lat="43.50988" lon="3.42091">
        <ele>50.9</ele>
        <time>2023-01-12T12:46:51.006Z</time>
      </trkpt>
      <trkpt lat="43.50987" lon="3.42104">
        <ele>50.6</ele>
        <time>2023-01-12T12:47:00.355Z</time>
      </trkpt>
      <trkpt lat="43.50987" lon="3.42116">
        <ele>50.5</ele>
        <time>2023-01-12T12:47:09.485Z</time>
      </trkpt>
      <trkpt lat="43.50983" lon="3.42132">
        <ele>49.9</ele>
        <time>2023-01-12T12:47:18.486Z</time>
      </trkpt>
      <trkpt lat="43.5098" lon="3.42149">
        <ele>49</ele>
        <time>2023-01-12T12:47:27.986Z</time>
      </trkpt>
      <trkpt lat="43.50977" lon="3.42163">
        <ele>47.4</ele>
        <time>2023-01-12T12:47:37.486Z</time>
      </trkpt>
      <trkpt lat="43.50975" lon="3.42171">
        <ele>46.9</ele>
        <time>2023-01-12T12:47:46.986Z</time>
      </trkpt>
      <trkpt lat="43.50972" lon="3.42183">
        <ele>47.2</ele>
        <time>2023-01-12T12:47:55.987Z</time>
      </trkpt>
      <trkpt lat="43.50968" lon="3.42199">
        <ele>48.2</ele>
        <time>2023-01-12T12:48:05.488Z</time>
      </trkpt>
      <trkpt lat="43.50964" lon="3.42216">
        <ele>48.6</ele>
        <time>2023-01-12T12:48:14.987Z</time>
      </trkpt>
      <trkpt lat="43.50962" lon="3.4223">
        <ele>48.8</ele>
        <time>2023-01-12T12:48:24.149Z</time>
      </trkpt>
      <trkpt lat="43.5096" lon="3.42242">
        <ele>49</ele>
        <time>2023-01-12T12:48:33.408Z</time>
      </trkpt>
      <trkpt lat="43.50961" lon="3.42241">
        <ele>49.1</ele>
        <time>2023-01-12T12:48:43.908Z</time>
      </trkpt>
      <trkpt lat="43.50962" lon="3.42239">
        <ele>49.1</ele>
        <time>2023-01-12T12:48:53.908Z</time>
      </trkpt>
      <trkpt lat="43.50963" lon="3.42236">
        <ele>49.2</ele>
        <time>2023-01-12T12:49:02.909Z</time>
      </trkpt>
      <trkpt lat="43.50969" lon="3.42221">
        <ele>49.5</ele>
        <time>2023-01-12T12:49:12.408Z</time>
      </trkpt>
      <trkpt lat="43.50974" lon="3.42233">
        <ele>50.6</ele>
        <time>2023-01-12T12:49:21.409Z</time>
      </trkpt>
      <trkpt lat="43.50974" lon="3.42236">
        <ele>50.6</ele>
        <time>2023-01-12T12:49:30.919Z</time>
      </trkpt>
      <trkpt lat="43.50972" lon="3.42242">
        <ele>50.7</ele>
        <time>2023-01-12T12:49:40.520Z</time>
      </trkpt>
      <trkpt lat="43.50971" lon="3.42249">
        <ele>50.8</ele>
        <time>2023-01-12T12:49:49.720Z</time>
      </trkpt>
      <trkpt lat="43.50969" lon="3.42264">
        <ele>50.5</ele>
        <time>2023-01-12T12:49:58.721Z</time>
      </trkpt>
      <trkpt lat="43.50967" lon="3.42278">
        <ele>50.2</ele>
        <time>2023-01-12T12:50:07.724Z</time>
      </trkpt>
      <trkpt lat="43.50967" lon="3.42292">
        <ele>50.6</ele>
        <time>2023-01-12T12:50:16.821Z</time>
      </trkpt>
      <trkpt lat="43.50966" lon="3.42306">
        <ele>51</ele>
        <time>2023-01-12T12:50:26.021Z</time>
      </trkpt>
      <trkpt lat="43.50967" lon="3.4232">
        <ele>51.7</ele>
        <time>2023-01-12T12:50:35.522Z</time>
      </trkpt>
      <trkpt lat="43.50968" lon="3.42335">
        <ele>52.2</ele>
        <time>2023-01-12T12:50:44.523Z</time>
      </trkpt>
      <trkpt lat="43.50969" lon="3.42349">
        <ele>52.8</ele>
        <time>2023-01-12T12:50:53.629Z</time>
      </trkpt>
      <trkpt lat="43.50971" lon="3.42362">
        <ele>53.6</ele>
        <time>2023-01-12T12:51:02.824Z</time>
      </trkpt>
      <trkpt lat="43.50974" lon="3.42377">
        <ele>53.6</ele>
        <time>2023-01-12T12:51:11.923Z</time>
      </trkpt>
      <trkpt lat="43.50977" lon="3.42391">
        <ele>53.5</ele>
        <time>2023-01-12T12:51:21.523Z</time>
      </trkpt>
      <trkpt lat="43.50984" lon="3.42402">
        <ele>54</ele>
        <time>2023-01-12T12:51:30.625Z</time>
      </trkpt>
      <trkpt lat="43.50994" lon="3.42409">
        <ele>55.2</ele>
        <time>2023-01-12T12:51:39.723Z</time>
      </trkpt>
      <trkpt lat="43.51003" lon="3.42412">
        <ele>56.2</ele>
        <time>2023-01-12T12:51:49.024Z</time>
      </trkpt>
      <trkpt lat="43.51014" lon="3.42404">
        <ele>56.9</ele>
        <time>2023-01-12T12:51:58.524Z</time>
      </trkpt>
      <trkpt lat="43.51024" lon="3.42399">
        <ele>57.7</ele>
        <time>2023-01-12T12:52:08.023Z</time>
      </trkpt>
      <trkpt lat="43.51033" lon="3.42395">
        <ele>58.2</ele>
        <time>2023-01-12T12:52:17.024Z</time>
      </trkpt>
      <trkpt lat="43.51044" lon="3.42389">
        <ele>58.5</ele>
        <time>2023-01-12T12:52:26.524Z</time>
      </trkpt>
      <trkpt lat="43.51053" lon="3.42381">
        <ele>59.2</ele>
        <time>2023-01-12T12:52:35.525Z</time>
      </trkpt>
      <trkpt lat="43.51056" lon="3.42368">
        <ele>60.9</ele>
        <time>2023-01-12T12:52:44.624Z</time>
      </trkpt>
      <trkpt lat="43.5106" lon="3.42361">
        <ele>61.8</ele>
        <time>2023-01-12T12:52:53.625Z</time>
      </trkpt>
      <trkpt lat="43.51061" lon="3.42364">
        <ele>61.4</ele>
        <time>2023-01-12T12:53:02.626Z</time>
      </trkpt>
      <trkpt lat="43.51061" lon="3.42364">
        <ele>61.4</ele>
        <time>2023-01-12T12:53:20.646Z</time>
      </trkpt>
      <trkpt lat="43.51059" lon="3.4236">
        <ele>62</ele>
        <time>2023-01-12T12:53:31.059Z</time>
      </trkpt>
      <trkpt lat="43.51052" lon="3.42346">
        <ele>62.8</ele>
        <time>2023-01-12T12:53:40.445Z</time>
      </trkpt>
      <trkpt lat="43.51047" lon="3.42334">
        <ele>63</ele>
        <time>2023-01-12T12:53:49.636Z</time>
      </trkpt>
      <trkpt lat="43.51042" lon="3.42321">
        <ele>62.6</ele>
        <time>2023-01-12T12:53:59.136Z</time>
      </trkpt>
      <trkpt lat="43.51042" lon="3.42309">
        <ele>62.6</ele>
        <time>2023-01-12T12:54:08.635Z</time>
      </trkpt>
      <trkpt lat="43.51043" lon="3.42303">
        <ele>62.8</ele>
        <time>2023-01-12T12:54:18.625Z</time>
      </trkpt>
      <trkpt lat="43.51042" lon="3.42302">
        <ele>62.6</ele>
        <time>2023-01-12T12:54:27.975Z</time>
      </trkpt>
      <trkpt lat="43.51042" lon="3.42302">
        <ele>62.6</ele>
        <time>2023-01-12T12:54:30.726Z</time>
      </trkpt>
      <trkpt lat="43.51039" lon="3.42311">
        <ele>62.1</ele>
        <time>2023-01-12T12:57:47.909Z</time>
      </trkpt>
      <trkpt lat="43.51041" lon="3.4231">
        <ele>62.3</ele>
        <time>2023-01-12T12:58:16.909Z</time>
      </trkpt>
      <trkpt lat="43.51044" lon="3.42306">
        <ele>62.9</ele>
        <time>2023-01-12T12:58:26.909Z</time>
      </trkpt>
      <trkpt lat="43.51045" lon="3.42305">
        <ele>63</ele>
        <time>2023-01-12T12:58:44.910Z</time>
      </trkpt>
      <trkpt lat="43.51048" lon="3.42298">
        <ele>63.8</ele>
        <time>2023-01-12T12:58:53.940Z</time>
      </trkpt>
      <trkpt lat="43.51054" lon="3.42285">
        <ele>65.4</ele>
        <time>2023-01-12T12:59:03.042Z</time>
      </trkpt>
      <trkpt lat="43.51059" lon="3.42274">
        <ele>65.8</ele>
        <time>2023-01-12T12:59:12.142Z</time>
      </trkpt>
      <trkpt lat="43.51063" lon="3.42261">
        <ele>65.4</ele>
        <time>2023-01-12T12:59:21.242Z</time>
      </trkpt>
      <trkpt lat="43.51071" lon="3.42251">
        <ele>66.4</ele>
        <time>2023-01-12T12:59:30.243Z</time>
      </trkpt>
      <trkpt lat="43.51075" lon="3.42241">
        <ele>66.8</ele>
        <time>2023-01-12T12:59:39.343Z</time>
      </trkpt>
      <trkpt lat="43.51081" lon="3.4223">
        <ele>67.7</ele>
        <time>2023-01-12T12:59:48.344Z</time>
      </trkpt>
      <trkpt lat="43.51087" lon="3.4222">
        <ele>68.2</ele>
        <time>2023-01-12T12:59:57.443Z</time>
      </trkpt>
      <trkpt lat="43.51091" lon="3.42209">
        <ele>68.1</ele>
        <time>2023-01-12T13:00:06.444Z</time>
      </trkpt>
      <trkpt lat="43.51094" lon="3.42202">
        <ele>68.2</ele>
        <time>2023-01-12T13:00:15.445Z</time>
      </trkpt>
      <trkpt lat="43.51102" lon="3.42195">
        <ele>69.4</ele>
        <time>2023-01-12T13:00:24.946Z</time>
      </trkpt>
      <trkpt lat="43.51108" lon="3.42181">
        <ele>69.6</ele>
        <time>2023-01-12T13:00:34.446Z</time>
      </trkpt>
      <trkpt lat="43.51114" lon="3.42172">
        <ele>69.7</ele>
        <time>2023-01-12T13:00:43.447Z</time>
      </trkpt>
      <trkpt lat="43.51119" lon="3.42159">
        <ele>69.7</ele>
        <time>2023-01-12T13:00:52.947Z</time>
      </trkpt>
      <trkpt lat="43.5112" lon="3.42155">
        <ele>69.7</ele>
        <time>2023-01-12T13:01:02.948Z</time>
      </trkpt>
      <trkpt lat="43.51126" lon="3.42148">
        <ele>70.5</ele>
        <time>2023-01-12T13:01:12.448Z</time>
      </trkpt>
      <trkpt lat="43.51134" lon="3.42139">
        <ele>71.9</ele>
        <time>2023-01-12T13:01:21.948Z</time>
      </trkpt>
      <trkpt lat="43.5114" lon="3.42124">
        <ele>72.1</ele>
        <time>2023-01-12T13:01:30.950Z</time>
      </trkpt>
      <trkpt lat="43.51146" lon="3.42119">
        <ele>72.7</ele>
        <time>2023-01-12T13:01:40.949Z</time>
      </trkpt>
      <trkpt lat="43.51147" lon="3.42115">
        <ele>72.6</ele>
        <time>2023-01-12T13:01:49.950Z</time>
      </trkpt>
      <trkpt lat="43.51152" lon="3.42108">
        <ele>73.3</ele>
        <time>2023-01-12T13:01:58.951Z</time>
      </trkpt>
      <trkpt lat="43.5116" lon="3.42112">
        <ele>74.8</ele>
        <time>2023-01-12T13:02:07.962Z</time>
      </trkpt>
      <trkpt lat="43.51167" lon="3.42123">
        <ele>76</ele>
        <time>2023-01-12T13:02:17.461Z</time>
      </trkpt>
      <trkpt lat="43.5117" lon="3.42124">
        <ele>76.3</ele>
        <time>2023-01-12T13:02:26.962Z</time>
      </trkpt>
      <trkpt lat="43.5117" lon="3.42125">
        <ele>76.3</ele>
        <time>2023-01-12T13:02:35.963Z</time>
      </trkpt>
      <trkpt lat="43.51171" lon="3.42125">
        <ele>76.4</ele>
        <time>2023-01-12T13:03:37.909Z</time>
      </trkpt>
      <trkpt lat="43.51176" lon="3.42118">
        <ele>76.9</ele>
        <time>2023-01-12T13:03:46.969Z</time>
      </trkpt>
      <trkpt lat="43.51179" lon="3.42118">
        <ele>77.2</ele>
        <time>2023-01-12T13:03:56.969Z</time>
      </trkpt>
      <trkpt lat="43.51179" lon="3.42116">
        <ele>77.2</ele>
        <time>2023-01-12T13:04:10.470Z</time>
      </trkpt>
      <trkpt lat="43.5118" lon="3.42113">
        <ele>77.5</ele>
        <time>2023-01-12T13:04:19.972Z</time>
      </trkpt>
      <trkpt lat="43.51181" lon="3.42111">
        <ele>77.6</ele>
        <time>2023-01-12T13:04:28.973Z</time>
      </trkpt>
      <trkpt lat="43.51185" lon="3.42102">
        <ele>78.2</ele>
        <time>2023-01-12T13:04:38.472Z</time>
      </trkpt>
      <trkpt lat="43.51194" lon="3.42093">
        <ele>79.6</ele>
        <time>2023-01-12T13:04:47.479Z</time>
      </trkpt>
      <trkpt lat="43.512" lon="3.4208">
        <ele>80.2</ele>
        <time>2023-01-12T13:04:56.576Z</time>
      </trkpt>
      <trkpt lat="43.51207" lon="3.42067">
        <ele>80.4</ele>
        <time>2023-01-12T13:05:06.076Z</time>
      </trkpt>
      <trkpt lat="43.51213" lon="3.42055">
        <ele>80.7</ele>
        <time>2023-01-12T13:05:15.576Z</time>
      </trkpt>
      <trkpt lat="43.5122" lon="3.42044">
        <ele>81.3</ele>
        <time>2023-01-12T13:05:24.578Z</time>
      </trkpt>
      <trkpt lat="43.51226" lon="3.42042">
        <ele>81.3</ele>
        <time>2023-01-12T13:05:34.579Z</time>
      </trkpt>
      <trkpt lat="43.51223" lon="3.42043">
        <ele>81.4</ele>
        <time>2023-01-12T13:05:44.079Z</time>
      </trkpt>
      <trkpt lat="43.51222" lon="3.42043">
        <ele>81.4</ele>
        <time>2023-01-12T13:05:53.599Z</time>
      </trkpt>
      <trkpt lat="43.51223" lon="3.42042">
        <ele>81.5</ele>
        <time>2023-01-12T13:06:38.910Z</time>
      </trkpt>
      <trkpt lat="43.51226" lon="3.42039">
        <ele>81.5</ele>
        <time>2023-01-12T13:06:48.123Z</time>
      </trkpt>
      <trkpt lat="43.51234" lon="3.42022">
        <ele>81.6</ele>
        <time>2023-01-12T13:06:57.583Z</time>
      </trkpt>
      <trkpt lat="43.51242" lon="3.42009">
        <ele>81.6</ele>
        <time>2023-01-12T13:07:06.933Z</time>
      </trkpt>
      <trkpt lat="43.51249" lon="3.41998">
        <ele>81.9</ele>
        <time>2023-01-12T13:07:16.173Z</time>
      </trkpt>
      <trkpt lat="43.51256" lon="3.41987">
        <ele>81.9</ele>
        <time>2023-01-12T13:07:25.522Z</time>
      </trkpt>
      <trkpt lat="43.51261" lon="3.41975">
        <ele>82</ele>
        <time>2023-01-12T13:07:34.872Z</time>
      </trkpt>
      <trkpt lat="43.5127" lon="3.41964">
        <ele>81.9</ele>
        <time>2023-01-12T13:07:44.770Z</time>
      </trkpt>
      <trkpt lat="43.51273" lon="3.41961">
        <ele>81.9</ele>
        <time>2023-01-12T13:07:54.662Z</time>
      </trkpt>
      <trkpt lat="43.51279" lon="3.41953">
        <ele>82</ele>
        <time>2023-01-12T13:08:03.937Z</time>
      </trkpt>
      <trkpt lat="43.51289" lon="3.41941">
        <ele>82</ele>
        <time>2023-01-12T13:08:13.817Z</time>
      </trkpt>
      <trkpt lat="43.51299" lon="3.41933">
        <ele>82</ele>
        <time>2023-01-12T13:08:23.167Z</time>
      </trkpt>
      <trkpt lat="43.51306" lon="3.41922">
        <ele>82</ele>
        <time>2023-01-12T13:08:32.516Z</time>
      </trkpt>
      <trkpt lat="43.51313" lon="3.41914">
        <ele>81.9</ele>
        <time>2023-01-12T13:08:41.756Z</time>
      </trkpt>
      <trkpt lat="43.51322" lon="3.41903">
        <ele>81.8</ele>
        <time>2023-01-12T13:08:50.983Z</time>
      </trkpt>
      <trkpt lat="43.51331" lon="3.41894">
        <ele>81.9</ele>
        <time>2023-01-12T13:09:00.205Z</time>
      </trkpt>
      <trkpt lat="43.51336" lon="3.41879">
        <ele>81.7</ele>
        <time>2023-01-12T13:09:09.564Z</time>
      </trkpt>
      <trkpt lat="43.51346" lon="3.41871">
        <ele>81.6</ele>
        <time>2023-01-12T13:09:18.914Z</time>
      </trkpt>
      <trkpt lat="43.51353" lon="3.41859">
        <ele>81.6</ele>
        <time>2023-01-12T13:09:28.272Z</time>
      </trkpt>
      <trkpt lat="43.51362" lon="3.41851">
        <ele>81.3</ele>
        <time>2023-01-12T13:09:37.621Z</time>
      </trkpt>
      <trkpt lat="43.51373" lon="3.41848">
        <ele>81.5</ele>
        <time>2023-01-12T13:09:46.970Z</time>
      </trkpt>
      <trkpt lat="43.51384" lon="3.4184">
        <ele>81.7</ele>
        <time>2023-01-12T13:09:56.210Z</time>
      </trkpt>
      <trkpt lat="43.51392" lon="3.41826">
        <ele>81.5</ele>
        <time>2023-01-12T13:10:05.564Z</time>
      </trkpt>
      <trkpt lat="43.51402" lon="3.41818">
        <ele>81.4</ele>
        <time>2023-01-12T13:10:14.918Z</time>
      </trkpt>
      <trkpt lat="43.51411" lon="3.41808">
        <ele>81.6</ele>
        <time>2023-01-12T13:10:24.778Z</time>
      </trkpt>
      <trkpt lat="43.51421" lon="3.41798">
        <ele>81.5</ele>
        <time>2023-01-12T13:10:34.835Z</time>
      </trkpt>
      <trkpt lat="43.51421" lon="3.41799">
        <ele>81.6</ele>
        <time>2023-01-12T13:10:44.182Z</time>
      </trkpt>
      <trkpt lat="43.51426" lon="3.41789">
        <ele>81.1</ele>
        <time>2023-01-12T13:10:53.531Z</time>
      </trkpt>
      <trkpt lat="43.51431" lon="3.41781">
        <ele>81</ele>
        <time>2023-01-12T13:11:02.891Z</time>
      </trkpt>
      <trkpt lat="43.51445" lon="3.41773">
        <ele>81</ele>
        <time>2023-01-12T13:11:12.799Z</time>
      </trkpt>
      <trkpt lat="43.51445" lon="3.41767">
        <ele>81</ele>
        <time>2023-01-12T13:11:22.698Z</time>
      </trkpt>
      <trkpt lat="43.51444" lon="3.41769">
        <ele>81</ele>
        <time>2023-01-12T13:11:32.596Z</time>
      </trkpt>
      <trkpt lat="43.51447" lon="3.41764">
        <ele>80.9</ele>
        <time>2023-01-12T13:11:41.944Z</time>
      </trkpt>
      <trkpt lat="43.51458" lon="3.4175">
        <ele>80.5</ele>
        <time>2023-01-12T13:11:51.303Z</time>
      </trkpt>
      <trkpt lat="43.51466" lon="3.41742">
        <ele>80.2</ele>
        <time>2023-01-12T13:12:00.651Z</time>
      </trkpt>
      <trkpt lat="43.51469" lon="3.41728">
        <ele>80</ele>
        <time>2023-01-12T13:12:10.000Z</time>
      </trkpt>
      <trkpt lat="43.51476" lon="3.41717">
        <ele>79.6</ele>
        <time>2023-01-12T13:12:19.360Z</time>
      </trkpt>
      <trkpt lat="43.5148" lon="3.41704">
        <ele>79.1</ele>
        <time>2023-01-12T13:12:28.668Z</time>
      </trkpt>
      <trkpt lat="43.51485" lon="3.41691">
        <ele>78.9</ele>
        <time>2023-01-12T13:12:38.056Z</time>
      </trkpt>
      <trkpt lat="43.51488" lon="3.41679">
        <ele>78.8</ele>
        <time>2023-01-12T13:12:47.406Z</time>
      </trkpt>
      <trkpt lat="43.51488" lon="3.41675">
        <ele>78.7</ele>
        <time>2023-01-12T13:12:56.753Z</time>
      </trkpt>
      <trkpt lat="43.51491" lon="3.41659">
        <ele>78.7</ele>
        <time>2023-01-12T13:13:06.059Z</time>
      </trkpt>
      <trkpt lat="43.51495" lon="3.41648">
        <ele>79.2</ele>
        <time>2023-01-12T13:13:15.462Z</time>
      </trkpt>
      <trkpt lat="43.51499" lon="3.41636">
        <ele>79.7</ele>
        <time>2023-01-12T13:13:24.809Z</time>
      </trkpt>
      <trkpt lat="43.51508" lon="3.41621">
        <ele>79.1</ele>
        <time>2023-01-12T13:13:34.716Z</time>
      </trkpt>
      <trkpt lat="43.51516" lon="3.41608">
        <ele>79.1</ele>
        <time>2023-01-12T13:13:44.057Z</time>
      </trkpt>
      <trkpt lat="43.51522" lon="3.41596">
        <ele>79.5</ele>
        <time>2023-01-12T13:13:53.416Z</time>
      </trkpt>
      <trkpt lat="43.51529" lon="3.41587">
        <ele>80.1</ele>
        <time>2023-01-12T13:14:02.664Z</time>
      </trkpt>
      <trkpt lat="43.51534" lon="3.41576">
        <ele>80.2</ele>
        <time>2023-01-12T13:14:12.012Z</time>
      </trkpt>
      <trkpt lat="43.51536" lon="3.41561">
        <ele>80</ele>
        <time>2023-01-12T13:14:21.361Z</time>
      </trkpt>
      <trkpt lat="43.51543" lon="3.41547">
        <ele>80.6</ele>
        <time>2023-01-12T13:14:30.729Z</time>
      </trkpt>
      <trkpt lat="43.51549" lon="3.41532">
        <ele>81.3</ele>
        <time>2023-01-12T13:14:40.059Z</time>
      </trkpt>
      <trkpt lat="43.51557" lon="3.41518">
        <ele>81.8</ele>
        <time>2023-01-12T13:14:49.437Z</time>
      </trkpt>
      <trkpt lat="43.51563" lon="3.41507">
        <ele>82</ele>
        <time>2023-01-12T13:14:58.785Z</time>
      </trkpt>
      <trkpt lat="43.51568" lon="3.41493">
        <ele>82.3</ele>
        <time>2023-01-12T13:15:08.058Z</time>
      </trkpt>
      <trkpt lat="43.51569" lon="3.41481">
        <ele>82.4</ele>
        <time>2023-01-12T13:15:17.392Z</time>
      </trkpt>
      <trkpt lat="43.51573" lon="3.41476">
        <ele>82.9</ele>
        <time>2023-01-12T13:15:26.760Z</time>
      </trkpt>
      <trkpt lat="43.51572" lon="3.41477">
        <ele>82.7</ele>
        <time>2023-01-12T13:15:36.660Z</time>
      </trkpt>
      <trkpt lat="43.51573" lon="3.41475">
        <ele>82.8</ele>
        <time>2023-01-12T13:15:46.008Z</time>
      </trkpt>
      <trkpt lat="43.51573" lon="3.41457">
        <ele>82.4</ele>
        <time>2023-01-12T13:15:55.359Z</time>
      </trkpt>
      <trkpt lat="43.51574" lon="3.41442">
        <ele>82</ele>
        <time>2023-01-12T13:16:04.588Z</time>
      </trkpt>
      <trkpt lat="43.51575" lon="3.41428">
        <ele>82.1</ele>
        <time>2023-01-12T13:16:13.869Z</time>
      </trkpt>
      <trkpt lat="43.51577" lon="3.4141">
        <ele>82.2</ele>
        <time>2023-01-12T13:16:23.217Z</time>
      </trkpt>
      <trkpt lat="43.51579" lon="3.41395">
        <ele>81.9</ele>
        <time>2023-01-12T13:16:32.576Z</time>
      </trkpt>
      <trkpt lat="43.5158" lon="3.41377">
        <ele>81.8</ele>
        <time>2023-01-12T13:16:41.926Z</time>
      </trkpt>
      <trkpt lat="43.51583" lon="3.41379">
        <ele>82</ele>
        <time>2023-01-12T13:16:51.274Z</time>
      </trkpt>
      <trkpt lat="43.51579" lon="3.41362">
        <ele>81.8</ele>
        <time>2023-01-12T13:17:00.622Z</time>
      </trkpt>
      <trkpt lat="43.51574" lon="3.41347">
        <ele>81.7</ele>
        <time>2023-01-12T13:17:09.981Z</time>
      </trkpt>
      <trkpt lat="43.51569" lon="3.41331">
        <ele>81.5</ele>
        <time>2023-01-12T13:17:19.329Z</time>
      </trkpt>
      <trkpt lat="43.51563" lon="3.41317">
        <ele>81.7</ele>
        <time>2023-01-12T13:17:28.688Z</time>
      </trkpt>
      <trkpt lat="43.51558" lon="3.41301">
        <ele>81.9</ele>
        <time>2023-01-12T13:17:38.037Z</time>
      </trkpt>
      <trkpt lat="43.51552" lon="3.41287">
        <ele>81.5</ele>
        <time>2023-01-12T13:17:47.275Z</time>
      </trkpt>
      <trkpt lat="43.51548" lon="3.41274">
        <ele>81.5</ele>
        <time>2023-01-12T13:17:56.572Z</time>
      </trkpt>
      <trkpt lat="43.51541" lon="3.41261">
        <ele>81.7</ele>
        <time>2023-01-12T13:18:05.973Z</time>
      </trkpt>
      <trkpt lat="43.51537" lon="3.4125">
        <ele>81.6</ele>
        <time>2023-01-12T13:18:15.881Z</time>
      </trkpt>
      <trkpt lat="43.51532" lon="3.41237">
        <ele>79.1</ele>
        <time>2023-01-12T13:18:25.272Z</time>
      </trkpt>
      <trkpt lat="43.51523" lon="3.41224">
        <ele>76.4</ele>
        <time>2023-01-12T13:18:34.676Z</time>
      </trkpt>
      <trkpt lat="43.51516" lon="3.41211">
        <ele>75.3</ele>
        <time>2023-01-12T13:18:44.046Z</time>
      </trkpt>
      <trkpt lat="43.5151" lon="3.41197">
        <ele>74.8</ele>
        <time>2023-01-12T13:18:53.396Z</time>
      </trkpt>
      <trkpt lat="43.51503" lon="3.41184">
        <ele>74.2</ele>
        <time>2023-01-12T13:19:02.754Z</time>
      </trkpt>
      <trkpt lat="43.51496" lon="3.41172">
        <ele>73.6</ele>
        <time>2023-01-12T13:19:12.112Z</time>
      </trkpt>
      <trkpt lat="43.51489" lon="3.41158">
        <ele>73.5</ele>
        <time>2023-01-12T13:19:21.974Z</time>
      </trkpt>
      <trkpt lat="43.51481" lon="3.41145">
        <ele>73.5</ele>
        <time>2023-01-12T13:19:31.359Z</time>
      </trkpt>
      <trkpt lat="43.51476" lon="3.41132">
        <ele>73</ele>
        <time>2023-01-12T13:19:40.707Z</time>
      </trkpt>
      <trkpt lat="43.51469" lon="3.41118">
        <ele>71.8</ele>
        <time>2023-01-12T13:19:50.058Z</time>
      </trkpt>
      <trkpt lat="43.51463" lon="3.41107">
        <ele>71.3</ele>
        <time>2023-01-12T13:19:59.445Z</time>
      </trkpt>
      <trkpt lat="43.51458" lon="3.41101">
        <ele>71.3</ele>
        <time>2023-01-12T13:20:08.794Z</time>
      </trkpt>
      <trkpt lat="43.51458" lon="3.411">
        <ele>71.3</ele>
        <time>2023-01-12T13:20:28.591Z</time>
      </trkpt>
      <trkpt lat="43.51449" lon="3.41073">
        <ele>70.6</ele>
        <time>2023-01-12T13:22:24.683Z</time>
      </trkpt>
      <trkpt lat="43.51441" lon="3.41057">
        <ele>70.2</ele>
        <time>2023-01-12T13:22:34.014Z</time>
      </trkpt>
      <trkpt lat="43.51435" lon="3.41053">
        <ele>70.3</ele>
        <time>2023-01-12T13:22:43.939Z</time>
      </trkpt>
      <trkpt lat="43.51436" lon="3.41041">
        <ele>70.1</ele>
        <time>2023-01-12T13:22:53.288Z</time>
      </trkpt>
      <trkpt lat="43.51428" lon="3.41027">
        <ele>70</ele>
        <time>2023-01-12T13:23:02.637Z</time>
      </trkpt>
      <trkpt lat="43.51425" lon="3.41012">
        <ele>70</ele>
        <time>2023-01-12T13:23:11.874Z</time>
      </trkpt>
      <trkpt lat="43.51425" lon="3.40994">
        <ele>69.9</ele>
        <time>2023-01-12T13:23:21.793Z</time>
      </trkpt>
      <trkpt lat="43.51421" lon="3.40989">
        <ele>69.9</ele>
        <time>2023-01-12T13:23:31.033Z</time>
      </trkpt>
      <trkpt lat="43.51422" lon="3.40969">
        <ele>69.7</ele>
        <time>2023-01-12T13:23:40.382Z</time>
      </trkpt>
      <trkpt lat="43.51423" lon="3.40951">
        <ele>69.2</ele>
        <time>2023-01-12T13:23:49.731Z</time>
      </trkpt>
      <trkpt lat="43.51423" lon="3.40938">
        <ele>68.8</ele>
        <time>2023-01-12T13:23:59.058Z</time>
      </trkpt>
      <trkpt lat="43.51413" lon="3.40925">
        <ele>68.5</ele>
        <time>2023-01-12T13:24:08.311Z</time>
      </trkpt>
      <trkpt lat="43.51403" lon="3.40914">
        <ele>68.5</ele>
        <time>2023-01-12T13:24:17.641Z</time>
      </trkpt>
      <trkpt lat="43.51396" lon="3.40898">
        <ele>68.2</ele>
        <time>2023-01-12T13:24:26.991Z</time>
      </trkpt>
      <trkpt lat="43.51388" lon="3.40887">
        <ele>68</ele>
        <time>2023-01-12T13:24:36.340Z</time>
      </trkpt>
      <trkpt lat="43.51379" lon="3.40881">
        <ele>68.2</ele>
        <time>2023-01-12T13:24:45.691Z</time>
      </trkpt>
      <trkpt lat="43.51375" lon="3.40877">
        <ele>68.3</ele>
        <time>2023-01-12T13:24:55.090Z</time>
      </trkpt>
      <trkpt lat="43.5137" lon="3.40876">
        <ele>68.4</ele>
        <time>2023-01-12T13:25:04.421Z</time>
      </trkpt>
      <trkpt lat="43.51361" lon="3.40866">
        <ele>68.2</ele>
        <time>2023-01-12T13:25:13.770Z</time>
      </trkpt>
      <trkpt lat="43.51352" lon="3.40856">
        <ele>68</ele>
        <time>2023-01-12T13:25:22.901Z</time>
      </trkpt>
      <trkpt lat="43.51344" lon="3.40858">
        <ele>68</ele>
        <time>2023-01-12T13:25:32.420Z</time>
      </trkpt>
      <trkpt lat="43.51333" lon="3.40841">
        <ele>68</ele>
        <time>2023-01-12T13:25:41.781Z</time>
      </trkpt>
      <trkpt lat="43.51324" lon="3.40824">
        <ele>68.2</ele>
        <time>2023-01-12T13:25:51.122Z</time>
      </trkpt>
      <trkpt lat="43.51317" lon="3.40817">
        <ele>68.2</ele>
        <time>2023-01-12T13:26:00.480Z</time>
      </trkpt>
      <trkpt lat="43.51311" lon="3.40807">
        <ele>68</ele>
        <time>2023-01-12T13:26:09.829Z</time>
      </trkpt>
      <trkpt lat="43.51297" lon="3.40799">
        <ele>68</ele>
        <time>2023-01-12T13:26:19.058Z</time>
      </trkpt>
      <trkpt lat="43.51289" lon="3.40795">
        <ele>68</ele>
        <time>2023-01-12T13:26:28.980Z</time>
      </trkpt>
      <trkpt lat="43.51281" lon="3.40791">
        <ele>68</ele>
        <time>2023-01-12T13:26:38.329Z</time>
      </trkpt>
      <trkpt lat="43.51272" lon="3.40786">
        <ele>68.1</ele>
        <time>2023-01-12T13:26:47.678Z</time>
      </trkpt>
      <trkpt lat="43.51267" lon="3.40787">
        <ele>68.1</ele>
        <time>2023-01-12T13:26:57.578Z</time>
      </trkpt>
      <trkpt lat="43.51268" lon="3.40786">
        <ele>68.1</ele>
        <time>2023-01-12T13:27:08.577Z</time>
      </trkpt>
      <trkpt lat="43.51269" lon="3.40785">
        <ele>68.1</ele>
        <time>2023-01-12T13:27:21.910Z</time>
      </trkpt>
      <trkpt lat="43.51268" lon="3.40784">
        <ele>68.1</ele>
        <time>2023-01-12T13:27:40.476Z</time>
      </trkpt>
      <trkpt lat="43.51268" lon="3.40783">
        <ele>68.1</ele>
        <time>2023-01-12T13:27:52.576Z</time>
      </trkpt>
      <trkpt lat="43.51263" lon="3.40776">
        <ele>68</ele>
        <time>2023-01-12T13:28:01.925Z</time>
      </trkpt>
      <trkpt lat="43.51251" lon="3.40764">
        <ele>68.5</ele>
        <time>2023-01-12T13:28:11.274Z</time>
      </trkpt>
      <trkpt lat="43.5125" lon="3.40751">
        <ele>69</ele>
        <time>2023-01-12T13:28:20.616Z</time>
      </trkpt>
      <trkpt lat="43.51246" lon="3.40747">
        <ele>69</ele>
        <time>2023-01-12T13:28:29.973Z</time>
      </trkpt>
      <trkpt lat="43.51248" lon="3.40748">
        <ele>69</ele>
        <time>2023-01-12T13:28:39.323Z</time>
      </trkpt>
      <trkpt lat="43.51248" lon="3.40745">
        <ele>69</ele>
        <time>2023-01-12T13:28:48.671Z</time>
      </trkpt>
      <trkpt lat="43.51241" lon="3.40738">
        <ele>68.9</ele>
        <time>2023-01-12T13:28:58.020Z</time>
      </trkpt>
      <trkpt lat="43.51228" lon="3.40744">
        <ele>68.8</ele>
        <time>2023-01-12T13:29:07.370Z</time>
      </trkpt>
      <trkpt lat="43.5122" lon="3.40743">
        <ele>68.7</ele>
        <time>2023-01-12T13:29:16.720Z</time>
      </trkpt>
      <trkpt lat="43.51213" lon="3.40734">
        <ele>67.9</ele>
        <time>2023-01-12T13:29:26.581Z</time>
      </trkpt>
      <trkpt lat="43.51205" lon="3.40732">
        <ele>67.3</ele>
        <time>2023-01-12T13:29:35.978Z</time>
      </trkpt>
      <trkpt lat="43.51202" lon="3.40728">
        <ele>66.9</ele>
        <time>2023-01-12T13:29:45.327Z</time>
      </trkpt>
      <trkpt lat="43.512" lon="3.40717">
        <ele>66.2</ele>
        <time>2023-01-12T13:29:54.677Z</time>
      </trkpt>
      <trkpt lat="43.512" lon="3.40704">
        <ele>65.7</ele>
        <time>2023-01-12T13:30:04.576Z</time>
      </trkpt>
      <trkpt lat="43.51198" lon="3.40692">
        <ele>65.3</ele>
        <time>2023-01-12T13:30:13.926Z</time>
      </trkpt>
      <trkpt lat="43.51207" lon="3.40686">
        <ele>65.9</ele>
        <time>2023-01-12T13:30:23.274Z</time>
      </trkpt>
      <trkpt lat="43.51221" lon="3.40686">
        <ele>66.9</ele>
        <time>2023-01-12T13:30:32.625Z</time>
      </trkpt>
      <trkpt lat="43.51228" lon="3.40673">
        <ele>67</ele>
        <time>2023-01-12T13:30:41.864Z</time>
      </trkpt>
      <trkpt lat="43.51224" lon="3.40659">
        <ele>66.7</ele>
        <time>2023-01-12T13:30:51.212Z</time>
      </trkpt>
      <trkpt lat="43.51232" lon="3.40651">
        <ele>66.6</ele>
        <time>2023-01-12T13:31:00.562Z</time>
      </trkpt>
      <trkpt lat="43.5124" lon="3.4064">
        <ele>66.6</ele>
        <time>2023-01-12T13:31:09.912Z</time>
      </trkpt>
      <trkpt lat="43.51249" lon="3.40628">
        <ele>66.6</ele>
        <time>2023-01-12T13:31:19.262Z</time>
      </trkpt>
      <trkpt lat="43.51258" lon="3.40617">
        <ele>66.4</ele>
        <time>2023-01-12T13:31:28.609Z</time>
      </trkpt>
      <trkpt lat="43.51265" lon="3.40604">
        <ele>66.5</ele>
        <time>2023-01-12T13:31:37.959Z</time>
      </trkpt>
      <trkpt lat="43.51277" lon="3.40598">
        <ele>66.5</ele>
        <time>2023-01-12T13:31:47.308Z</time>
      </trkpt>
      <trkpt lat="43.51287" lon="3.40591">
        <ele>66.5</ele>
        <time>2023-01-12T13:31:56.594Z</time>
      </trkpt>
      <trkpt lat="43.51292" lon="3.40577">
        <ele>66.6</ele>
        <time>2023-01-12T13:32:05.897Z</time>
      </trkpt>
      <trkpt lat="43.51296" lon="3.40584">
        <ele>66.7</ele>
        <time>2023-01-12T13:32:15.246Z</time>
      </trkpt>
      <trkpt lat="43.51303" lon="3.40597">
        <ele>66.9</ele>
        <time>2023-01-12T13:32:24.594Z</time>
      </trkpt>
      <trkpt lat="43.51312" lon="3.40606">
        <ele>67</ele>
        <time>2023-01-12T13:32:33.945Z</time>
      </trkpt>
      <trkpt lat="43.5132" lon="3.40618">
        <ele>67</ele>
        <time>2023-01-12T13:32:43.291Z</time>
      </trkpt>
      <trkpt lat="43.5133" lon="3.40631">
        <ele>67</ele>
        <time>2023-01-12T13:32:52.643Z</time>
      </trkpt>
      <trkpt lat="43.51335" lon="3.40644">
        <ele>67</ele>
        <time>2023-01-12T13:33:01.984Z</time>
      </trkpt>
      <trkpt lat="43.51343" lon="3.40655">
        <ele>67.1</ele>
        <time>2023-01-12T13:33:11.342Z</time>
      </trkpt>
      <trkpt lat="43.51349" lon="3.40667">
        <ele>67</ele>
        <time>2023-01-12T13:33:20.581Z</time>
      </trkpt>
      <trkpt lat="43.51358" lon="3.40674">
        <ele>67</ele>
        <time>2023-01-12T13:33:29.930Z</time>
      </trkpt>
      <trkpt lat="43.51362" lon="3.40667">
        <ele>67</ele>
        <time>2023-01-12T13:33:39.281Z</time>
      </trkpt>
      <trkpt lat="43.5136" lon="3.40654">
        <ele>67.5</ele>
        <time>2023-01-12T13:33:48.630Z</time>
      </trkpt>
      <trkpt lat="43.51361" lon="3.40644">
        <ele>67.8</ele>
        <time>2023-01-12T13:33:57.979Z</time>
      </trkpt>
      <trkpt lat="43.51359" lon="3.40646">
        <ele>67.7</ele>
        <time>2023-01-12T13:34:07.878Z</time>
      </trkpt>
      <trkpt lat="43.5136" lon="3.40646">
        <ele>67.7</ele>
        <time>2023-01-12T13:34:20.912Z</time>
        <extensions>
          <visugpx:TrkExtension xmlns:visugpx="https://www.visugpx.com/editgpx/">
            <visugpx:node>1</visugpx:node>
            </visugpx:TrkExtension>
        </extensions>
      </trkpt>
    </trkseg>
  </trk>
</gpx>